ftp/pub/palmer/observations_modified/2017/November/AR171128_BASE.txt
Download
Sample DateTime Unit Id WS Avg 2min WD Avg 2min WGS 10min WGD 10min Air Temp Rel Humidity Dew Point Pyranometer Quantum Air Pressure Snow Level Rainfall PW Current Visibility CBase 1 CBase 2 CBase 3 Vert Vis
2017/11/28 00:00:00 BASE 7.37 349 8.28 350 0.1 80 -2.9 33 81 972.9 NA 0.0000 9999 10110 0 0 0
2017/11/28 00:01:00 BASE 7.47 350 8.28 349 0.1 81 -2.8 32 80 972.9 NA 0.0000 9999 10040 0 0 0
2017/11/28 00:02:00 BASE 8.02 354 9.16 351 0.1 81 -2.8 31 79 972.9 NA 0.0000 9999 10140 0 0 0
2017/11/28 00:03:00 BASE 8.81 357 9.72 1 0.1 81 -2.7 31 78 972.9 NA 0.0000 9999 10240 0 0 0
2017/11/28 00:04:00 BASE 9.00 355 9.72 1 0.2 81 -2.7 31 78 972.9 NA 0.0000 9999 10140 0 0 0
2017/11/28 00:05:00 BASE 8.76 356 9.72 1 0.2 81 -2.7 30 76 972.9 NA 0.0000 9999 10660 0 0 0
2017/11/28 00:06:00 BASE 8.68 354 9.88 1 0.2 81 -2.7 29 74 972.9 NA 0.0000 9999 11120 0 0 0
2017/11/28 00:07:00 BASE 8.64 353 9.88 1 0.2 81 -2.7 29 73 972.9 NA 0.0000 9999 10730 0 0 0
2017/11/28 00:08:00 BASE 8.46 354 9.88 1 0.2 81 -2.7 28 71 972.9 NA 0.0000 9999 10470 0 0 0
2017/11/28 00:09:00 BASE 8.20 354 9.88 1 0.2 81 -2.7 27 69 972.9 NA 0.0000 9999 10240 0 0 0
2017/11/28 00:10:00 BASE 8.20 355 9.88 1 0.2 81 -2.7 27 68 972.9 NA 0.0000 9999 10400 0 0 0
2017/11/28 00:11:00 BASE 8.30 355 9.88 1 0.2 81 -2.7 26 66 972.9 NA 0.0000 9999 4330 10010 0 0
2017/11/28 00:12:00 BASE 8.49 353 9.88 1 0.2 81 -2.7 26 65 972.9 NA 0.0000 9999 10340 0 0 0
2017/11/28 00:13:00 BASE 8.52 353 9.88 1 0.2 81 -2.7 26 64 972.9 NA 0.0000 9999 4360 0 0 0
2017/11/28 00:14:00 BASE 8.61 359 9.88 1 0.2 81 -2.7 26 63 972.9 NA 0.0000 9999 4300 0 0 0
2017/11/28 00:15:00 BASE 8.69 3 9.88 1 0.1 81 -2.7 25 63 972.9 NA 0.0000 9999 9810 0 0 0
2017/11/28 00:16:00 BASE 8.08 4 9.52 2 0.1 82 -2.6 25 62 972.9 NA 0.0000 9999 10010 0 0 0
2017/11/28 00:17:00 BASE 8.21 4 9.67 2 0.1 82 -2.6 25 61 972.9 NA 0.0000 9999 9940 0 0 0
2017/11/28 00:18:00 BASE 8.61 6 9.67 2 0.1 82 -2.6 24 59 972.9 NA 0.0000 9999 10170 0 0 0
2017/11/28 00:19:00 BASE 8.48 7 9.67 2 0.2 82 -2.5 23 58 972.8 NA 0.0000 9999 10110 0 0 0
2017/11/28 00:20:00 BASE 8.42 1 9.67 2 0.2 82 -2.5 23 57 972.9 NA 0.0000 9999 9060 0 0 0
2017/11/28 00:21:00 BASE 8.06 3 9.67 2 0.1 82 -2.6 22 56 972.9 NA 0.0000 9999 10370 0 0 0
2017/11/28 00:22:00 BASE 7.52 4 9.67 2 0.1 82 -2.6 22 55 972.9 NA 0.0000 9999 10600 0 0 0
2017/11/28 00:23:00 BASE 7.21 5 9.67 2 0.1 82 -2.6 21 53 972.9 NA 0.0000 9999 11060 0 0 0
2017/11/28 00:24:00 BASE 7.92 10 9.77 6 0.1 82 -2.5 20 51 972.9 NA 0.0000 9999 11250 0 0 0
2017/11/28 00:25:00 BASE 8.94 4 10.08 3 0.1 82 -2.5 19 50 972.9 NA 0.0000 9999 9550 0 0 0
2017/11/28 00:26:00 BASE 9.18 1 10.08 1 0.1 83 -2.5 20 50 972.9 NA 0.0000 9999 10300 0 0 0
2017/11/28 00:27:00 BASE 8.49 8 10.08 1 0.1 83 -2.5 21 51 972.9 NA 0.0000 9999 9550 0 0 0
2017/11/28 00:28:00 BASE 7.74 12 10.08 1 0.1 83 -2.4 22 53 973.0 NA 0.0000 9999 10240 0 0 0
2017/11/28 00:29:00 BASE 8.26 12 10.08 1 0.1 83 -2.4 23 55 973.0 NA 0.0000 9999 10140 0 0 0
2017/11/28 00:30:00 BASE 8.18 12 10.08 1 0.1 83 -2.4 25 58 973.0 NA 0.0000 9999 4300 0 0 0
2017/11/28 00:31:00 BASE 7.50 9 10.08 1 0.1 83 -2.4 26 60 973.0 NA 0.0000 9999 4300 0 0 0
2017/11/28 00:32:00 BASE 7.86 8 10.08 1 0.1 83 -2.4 27 61 973.0 NA 0.0000 9999 4230 0 0 0
2017/11/28 00:33:00 BASE 8.15 11 10.08 1 0.1 83 -2.4 26 60 973.0 NA 0.0000 9999 3280 0 0 0
2017/11/28 00:34:00 BASE 7.58 13 10.08 1 0.1 83 -2.4 26 59 973.0 NA 0.0000 9999 3250 4040 0 0
2017/11/28 00:35:00 BASE 7.14 8 10.08 1 0.2 83 -2.4 25 57 973.0 NA 0.0000 9999 3310 0 0 0
2017/11/28 00:36:00 BASE 7.48 7 9.67 20 0.2 83 -2.4 25 57 973.0 NA 0.0000 9999 3310 9380 0 0
2017/11/28 00:37:00 BASE 7.68 7 9.67 20 0.2 83 -2.4 25 56 973.0 NA 0.0000 9999 9320 0 0 0
2017/11/28 00:38:00 BASE 7.45 6 9.67 20 0.2 83 -2.3 25 56 973.1 NA 0.0000 9999 4270 9290 0 0
2017/11/28 00:39:00 BASE 8.01 7 10.19 4 0.2 83 -2.3 25 56 973.1 NA 0.0000 9999 4130 9320 0 0
2017/11/28 00:40:00 BASE 8.31 7 10.19 4 0.2 83 -2.3 25 55 973.1 NA 0.0000 9999 3180 3870 0 0
2017/11/28 00:41:00 BASE 7.59 9 10.19 4 0.2 83 -2.4 25 55 973.2 NA 0.0000 9999 3250 0 0 0
2017/11/28 00:42:00 BASE 6.59 16 10.19 4 0.2 83 -2.4 25 56 973.2 NA 0.0000 9999 3250 0 0 0
2017/11/28 00:43:00 BASE 6.28 17 10.19 4 0.2 83 -2.3 26 56 973.2 NA 0.0000 9999 3250 0 0 0
2017/11/28 00:44:00 BASE 6.30 16 10.19 4 0.2 83 -2.3 26 56 973.2 NA 0.0000 9999 3280 0 0 0
2017/11/28 00:45:00 BASE 6.10 15 10.19 4 0.2 83 -2.3 26 56 973.2 NA 0.0000 9999 3310 0 0 0
2017/11/28 00:46:00 BASE 6.26 10 10.19 4 0.2 83 -2.3 26 55 973.2 NA 0.0000 9999 3150 0 0 0
2017/11/28 00:47:00 BASE 6.08 11 10.19 4 0.2 83 -2.3 25 54 973.2 NA 0.0000 9999 3220 0 0 0
2017/11/28 00:48:00 BASE 6.20 17 10.19 4 0.2 83 -2.3 24 52 973.2 NA 0.0000 9999 3220 0 0 0
2017/11/28 00:49:00 BASE 6.54 17 8.75 360 0.2 83 -2.3 23 51 973.1 NA 0.0000 9999 3250 0 0 0
2017/11/28 00:50:00 BASE 6.08 12 8.64 27 0.2 83 -2.3 23 49 973.2 NA 0.0000 9999 3250 0 0 0
2017/11/28 00:51:00 BASE 6.22 11 8.64 27 0.2 83 -2.3 22 48 973.2 NA 0.0000 9999 3250 0 0 0
2017/11/28 00:52:00 BASE 7.13 11 9.16 5 0.2 83 -2.3 21 46 973.1 NA 0.0000 9999 3220 0 0 0
2017/11/28 00:53:00 BASE 7.05 10 9.16 5 0.2 83 -2.3 21 45 973.2 NA 0.0000 9999 3250 0 0 0
2017/11/28 00:54:00 BASE 6.63 10 9.16 5 0.2 83 -2.4 20 44 973.2 NA 0.0000 9999 3250 0 0 0
2017/11/28 00:55:00 BASE 6.45 6 9.16 5 0.2 83 -2.4 19 42 973.3 NA 0.0000 9999 3310 0 0 0
2017/11/28 00:56:00 BASE 6.62 3 9.16 5 0.2 83 -2.4 19 41 973.3 NA 0.0000 9999 3280 0 0 0
2017/11/28 00:57:00 BASE 7.59 2 9.16 5 0.1 83 -2.4 18 40 973.2 NA 0.0000 9999 3250 0 0 0
2017/11/28 00:58:00 BASE 8.11 5 9.16 5 0.1 83 -2.4 17 38 973.2 NA 0.0000 9999 3220 0 0 0
2017/11/28 00:59:00 BASE 7.60 10 9.88 7 0.1 83 -2.4 16 37 973.3 NA 0.0000 9999 3220 0 0 0
2017/11/28 01:00:00 BASE 7.01 12 9.88 7 0.2 83 -2.4 16 35 973.3 NA 0.0000 9999 3220 0 0 0
2017/11/28 01:01:00 BASE 7.14 7 9.88 7 0.2 83 -2.4 15 34 973.2 NA 0.0000 9999 3220 0 0 0
2017/11/28 01:02:00 BASE 8.08 6 10.80 6 0.2 83 -2.3 15 34 973.1 NA 0.0000 9999 3220 0 0 0
2017/11/28 01:03:00 BASE 7.91 9 10.80 6 0.2 83 -2.3 16 34 973.2 NA 0.0000 9999 3280 0 0 0
2017/11/28 01:04:00 BASE 7.00 9 10.80 6 0.2 84 -2.3 16 34 973.2 NA 0.0000 9999 3510 0 0 0
2017/11/28 01:05:00 BASE 7.56 8 10.80 6 0.2 84 -2.3 16 34 973.1 NA 0.0000 9999 3480 0 0 0
2017/11/28 01:06:00 BASE 8.94 8 10.80 6 0.1 84 -2.2 15 33 973.0 NA 0.0000 9999 3450 0 0 0
2017/11/28 01:07:00 BASE 9.37 7 11.16 5 0.1 84 -2.2 15 32 973.0 NA 0.0000 9999 3450 0 0 0
2017/11/28 01:08:00 BASE 9.13 6 11.16 5 0.1 84 -2.3 14 30 973.0 NA 0.0000 9999 3450 0 0 0
2017/11/28 01:09:00 BASE 8.92 8 11.16 5 0.1 84 -2.2 13 28 973.0 NA 0.0000 9999 3310 0 0 0
2017/11/28 01:10:00 BASE 8.06 9 11.16 5 0.1 84 -2.2 12 27 973.0 NA 0.0000 9999 3310 0 0 0
2017/11/28 01:11:00 BASE 7.36 8 11.16 5 0.1 84 -2.2 11 26 973.0 NA 0.0000 9999 3310 0 0 0
2017/11/28 01:12:00 BASE 7.55 5 11.16 5 0.1 84 -2.2 11 25 973.0 NA 0.0000 9999 3310 0 0 0
2017/11/28 01:13:00 BASE 8.42 5 11.16 5 0.1 84 -2.2 10 23 972.9 NA 0.0000 9999 3310 0 0 0
2017/11/28 01:14:00 BASE 9.09 10 11.16 5 0.1 85 -2.2 9 22 972.9 NA 0.0000 9999 3280 0 0 0
2017/11/28 01:15:00 BASE 9.30 11 11.16 5 0.1 85 -2.2 9 21 972.9 NA 0.0000 9999 3180 0 0 0
2017/11/28 01:16:00 BASE 9.88 7 11.78 2 0.1 85 -2.1 8 20 972.9 NA 0.0000 9999 3250 0 0 0
2017/11/28 01:17:00 BASE 9.75 4 11.78 2 0.1 85 -2.1 8 20 972.9 NA 0.0000 9999 3250 0 0 0
2017/11/28 01:18:00 BASE 9.53 4 11.78 2 0.1 85 -2.1 8 19 972.9 NA 0.0000 9999 3280 0 0 0
2017/11/28 01:19:00 BASE 10.11 5 11.78 2 0.1 85 -2.1 8 20 972.8 NA 0.0000 9999 3310 0 0 0
2017/11/28 01:20:00 BASE 10.58 5 11.88 1 0.1 85 -2.1 9 20 972.8 NA 0.0000 9999 3310 0 0 0
2017/11/28 01:21:00 BASE 10.66 5 11.88 1 0.1 85 -2.1 9 20 972.8 NA 0.0000 9999 3380 0 0 0
2017/11/28 01:22:00 BASE 10.34 4 11.88 1 0.1 85 -2.1 9 20 972.8 NA 0.0000 9999 3510 0 0 0
2017/11/28 01:23:00 BASE 10.32 5 11.88 1 0.1 85 -2.1 9 19 972.8 NA 0.0000 9999 3480 0 0 0
2017/11/28 01:24:00 BASE 10.23 6 11.88 1 0.1 85 -2.1 9 19 972.8 NA 0.0000 9999 3410 0 0 0
2017/11/28 01:25:00 BASE 10.30 5 11.88 2 0.1 85 -2.1 9 19 972.7 NA 0.0000 9999 3410 0 0 0
2017/11/28 01:26:00 BASE 11.26 5 12.71 2 0.1 85 -2.1 9 19 972.7 NA 0.0000 9999 3350 0 0 0
2017/11/28 01:27:00 BASE 11.18 7 12.71 2 0.0 85 -2.1 9 19 972.6 NA 0.0000 9999 3380 0 0 0
2017/11/28 01:28:00 BASE 10.54 11 12.71 2 0.0 86 -2.1 9 19 972.6 NA 0.0000 9999 3380 0 0 0
2017/11/28 01:29:00 BASE 10.21 13 12.71 2 0.0 86 -2.1 9 18 972.7 NA 0.0000 9999 3410 0 0 0
2017/11/28 01:30:00 BASE 9.22 14 12.71 2 0.0 86 -2.1 9 18 972.7 NA 0.0000 9999 3480 0 0 0
2017/11/28 01:31:00 BASE 8.56 11 12.71 2 0.0 86 -2.1 9 18 972.7 NA 0.0000 9999 3580 0 0 0
2017/11/28 01:32:00 BASE 10.55 13 13.74 13 0.0 86 -2.0 9 18 972.5 NA 0.0000 9999 3480 0 0 0
2017/11/28 01:33:00 BASE 12.47 17 13.74 13 0.0 86 -2.0 9 18 972.5 NA 0.0000 9999 3510 0 0 0
2017/11/28 01:34:00 BASE 11.45 15 13.74 13 0.0 87 -2.0 9 17 972.6 NA 0.0000 9999 3540 0 0 0
2017/11/28 01:35:00 BASE 9.70 14 13.74 13 -0.0 87 -1.9 8 17 972.7 NA 0.0000 9999 3580 0 0 0
2017/11/28 01:36:00 BASE 8.11 13 13.74 13 -0.0 87 -2.0 8 16 972.8 NA 0.0000 9999 3510 0 0 0
2017/11/28 01:37:00 BASE 8.52 13 13.74 13 -0.0 87 -2.0 7 15 972.7 NA 0.0000 9999 3510 0 0 0
2017/11/28 01:38:00 BASE 10.24 13 13.74 13 -0.0 87 -2.0 7 14 972.7 NA 0.0000 9999 3510 0 0 0
2017/11/28 01:39:00 BASE 11.21 10 13.74 13 -0.0 87 -2.0 6 13 972.7 NA 0.0000 9999 3510 0 0 0
2017/11/28 01:40:00 BASE 10.89 7 13.74 13 -0.0 86 -2.0 6 12 972.8 NA 0.0000 9999 3510 0 0 0
2017/11/28 01:41:00 BASE 8.95 2 13.74 13 -0.0 86 -2.0 6 12 972.9 NA 0.0000 9999 3510 0 0 0
2017/11/28 01:42:00 BASE 8.34 5 13.32 10 0.0 86 -2.0 5 11 972.9 NA 0.0000 9999 3580 0 0 0
2017/11/28 01:43:00 BASE 9.14 11 13.22 21 0.0 86 -2.0 5 10 972.8 NA 0.0000 9999 3580 0 0 0
2017/11/28 01:44:00 BASE 9.74 8 13.22 21 0.0 86 -2.0 4 9 972.8 NA 0.0000 9999 3610 0 0 0
2017/11/28 01:45:00 BASE 10.24 7 13.22 21 0.0 86 -2.1 4 8 972.8 NA 0.0000 9999 3640 0 0 0
2017/11/28 01:46:00 BASE 10.70 9 13.22 21 0.0 86 -2.1 4 8 972.8 NA 0.0000 9999 3610 0 0 0
2017/11/28 01:47:00 BASE 10.12 10 12.91 1 0.0 85 -2.1 3 7 972.9 NA 0.0000 9999 3610 0 0 0
2017/11/28 01:48:00 BASE 10.28 5 13.89 9 0.0 85 -2.2 3 7 972.8 NA 0.0000 9999 3610 0 0 0
2017/11/28 01:49:00 BASE 11.84 8 14.04 10 0.0 85 -2.2 3 6 972.7 NA 0.0000 9999 3610 4130 7810 0
2017/11/28 01:50:00 BASE 11.52 12 14.04 10 0.0 85 -2.2 3 6 972.9 NA 0.0000 9999 3770 7740 0 0
2017/11/28 01:51:00 BASE 10.18 10 14.04 10 0.0 85 -2.2 2 6 972.9 NA 0.0000 9999 3940 0 0 0
2017/11/28 01:52:00 BASE 10.56 11 14.04 10 0.0 85 -2.2 2 5 972.8 NA 0.0000 9999 3740 0 0 0
2017/11/28 01:53:00 BASE 11.42 13 14.04 10 0.1 84 -2.3 2 5 972.9 NA 0.0000 9999 3710 0 0 0
2017/11/28 01:54:00 BASE 10.73 12 14.04 10 0.1 84 -2.3 2 5 972.9 NA 0.0000 9999 3740 0 0 0
2017/11/28 01:55:00 BASE 9.86 9 14.04 10 0.1 84 -2.3 2 5 972.9 NA 0.0000 9999 3740 0 0 0
2017/11/28 01:56:00 BASE 10.53 9 14.04 10 0.1 84 -2.3 2 5 972.8 NA 0.0000 9999 3710 0 0 0
2017/11/28 01:57:00 BASE 12.04 11 14.04 10 0.1 84 -2.3 2 5 972.7 NA 0.0000 9999 3710 0 0 0
2017/11/28 01:58:00 BASE 12.17 11 14.04 10 0.1 84 -2.3 2 5 972.8 NA 0.0000 9999 3740 0 0 0
2017/11/28 01:59:00 BASE 10.66 8 13.74 2 0.1 84 -2.3 2 4 972.9 NA 0.0000 9999 3840 0 0 0
2017/11/28 02:00:00 BASE 9.99 6 13.74 2 0.1 84 -2.4 2 4 972.9 NA 0.0000 9999 3970 0 0 0
2017/11/28 02:01:00 BASE 10.42 7 13.74 2 0.1 83 -2.4 1 4 972.9 NA 0.0000 9999 3940 0 0 0
2017/11/28 02:02:00 BASE 10.51 8 13.74 2 0.0 83 -2.5 1 4 972.9 NA 0.0000 9999 3970 0 0 0
2017/11/28 02:03:00 BASE 10.39 7 13.74 2 0.0 83 -2.5 1 3 972.8 NA 0.0000 9999 4100 0 0 0
2017/11/28 02:04:00 BASE 10.13 7 13.74 2 0.0 83 -2.5 1 3 972.8 NA 0.0000 9999 4130 0 0 0
2017/11/28 02:05:00 BASE 10.32 7 13.74 2 0.0 83 -2.5 1 3 972.8 NA 0.0000 9999 4100 7450 0 0
2017/11/28 02:06:00 BASE 11.21 10 13.74 2 0.0 83 -2.5 1 3 972.8 NA 0.0000 9999 4100 7480 0 0
2017/11/28 02:07:00 BASE 11.63 11 13.38 11 0.0 83 -2.5 1 3 972.8 NA 0.0000 9999 4070 0 0 0
2017/11/28 02:08:00 BASE 11.66 10 13.38 20 0.0 84 -2.4 1 3 972.8 NA 0.0000 9999 3810 0 0 0
2017/11/28 02:09:00 BASE 11.50 11 13.38 20 0.0 84 -2.4 1 3 972.8 NA 0.0000 9999 3740 0 0 0
2017/11/28 02:10:00 BASE 11.40 13 13.38 20 0.0 84 -2.4 1 3 972.8 NA 0.0000 9999 3810 0 0 0
2017/11/28 02:11:00 BASE 11.21 14 13.43 21 0.0 84 -2.4 1 3 972.8 NA 0.0000 9999 3900 0 0 0
2017/11/28 02:12:00 BASE 10.73 13 13.43 21 0.0 84 -2.4 1 3 972.8 NA 0.0000 9999 4100 0 0 0
2017/11/28 02:13:00 BASE 10.93 11 13.43 21 0.0 84 -2.4 1 2 972.7 NA 0.0000 9999 3940 0 0 0
2017/11/28 02:14:00 BASE 11.47 12 13.43 21 0.0 84 -2.3 1 2 972.7 NA 0.0000 9999 3940 0 0 0
2017/11/28 02:15:00 BASE 12.01 13 14.04 11 0.0 84 -2.3 1 2 972.7 NA 0.0000 UP 9999 3940 0 0 0
2017/11/28 02:16:00 BASE 11.72 13 14.04 11 0.0 85 -2.3 1 2 972.8 NA 0.0000 UP 9999 3870 0 0 0
2017/11/28 02:17:00 BASE 11.19 14 14.04 11 0.0 85 -2.3 1 2 972.8 NA 0.0000 UP 9999 4000 0 0 0
2017/11/28 02:18:00 BASE 10.64 14 14.04 11 0.0 85 -2.3 1 2 972.8 NA 0.0000 UP 9999 4130 0 0 0
2017/11/28 02:19:00 BASE 10.25 13 14.04 11 0.0 85 -2.3 1 2 972.7 NA 0.0000 UP 9999 4100 0 0 0
2017/11/28 02:20:00 BASE 10.76 15 14.04 11 0.0 85 -2.3 1 2 972.7 NA 0.0000 UP 9999 4040 0 0 0
2017/11/28 02:21:00 BASE 10.50 13 14.04 11 0.0 85 -2.3 1 2 972.7 NA 0.0000 UP 9999 4040 0 0 0
2017/11/28 02:22:00 BASE 11.09 9 14.04 11 0.0 85 -2.3 1 2 972.6 NA 0.0000 UP 9999 4070 0 0 0
2017/11/28 02:23:00 BASE 11.89 7 14.04 11 0.0 85 -2.2 1 2 972.6 NA 0.0000 UP 9999 4100 0 0 0
2017/11/28 02:24:00 BASE 10.97 5 14.04 11 0.0 85 -2.2 1 2 972.7 NA 0.0000 UP 9999 4070 0 0 0
2017/11/28 02:25:00 BASE 10.86 8 13.79 3 0.0 85 -2.2 1 2 972.7 NA 0.0000 UP 9999 4070 0 0 0
2017/11/28 02:26:00 BASE 11.45 13 13.79 3 0.0 85 -2.2 1 2 972.7 NA 0.0000 UP 9999 4170 0 0 0
2017/11/28 02:27:00 BASE 12.19 13 14.15 6 0.0 85 -2.2 0 1 972.7 NA 0.0000 UP 9999 4170 0 0 0
2017/11/28 02:28:00 BASE 12.10 13 14.15 6 0.0 85 -2.2 1 1 972.7 NA 0.0000 UP 9999 4130 0 0 0
2017/11/28 02:29:00 BASE 10.89 13 14.15 6 0.0 85 -2.2 1 1 972.8 NA 0.0000 UP 9999 4130 0 0 0
2017/11/28 02:30:00 BASE 10.63 10 14.15 6 0.0 85 -2.2 0 1 972.7 NA 0.0000 UP 9999 0 0 0 5740
2017/11/28 02:31:00 BASE 10.88 6 14.15 6 0.0 85 -2.2 0 1 972.7 NA 0.0000 UP 9999 0 0 0 5810
2017/11/28 02:32:00 BASE 12.03 4 14.40 7 0.0 85 -2.2 0 1 972.6 NA 0.0000 UP 9999 0 0 0 6100
2017/11/28 02:33:00 BASE 13.51 4 14.76 3 0.0 85 -2.2 0 1 972.5 NA 0.0000 UP 9999 0 0 0 5810
2017/11/28 02:34:00 BASE 13.65 3 15.18 10 0.0 86 -2.1 0 1 972.6 NA 0.0000 UP 9999 0 0 0 5710
2017/11/28 02:35:00 BASE 13.34 0 15.18 10 0.0 86 -2.1 0 1 972.6 NA 0.0000 UP 9999 4720 0 0 0
2017/11/28 02:36:00 BASE 12.75 359 15.18 10 0.0 86 -2.1 0 1 972.6 NA 0.0000 UP 9999 4760 0 0 0
2017/11/28 02:37:00 BASE 12.34 4 15.18 10 0.0 86 -2.1 0 1 972.6 NA 0.0000 UP 9999 4590 0 0 0
2017/11/28 02:38:00 BASE 12.03 5 15.18 10 0.0 86 -2.1 0 1 972.7 NA 0.0000 UP 9999 4330 0 0 0
2017/11/28 02:39:00 BASE 11.59 359 15.18 10 0.0 86 -2.0 0 1 972.7 NA 0.0000 UP 9999 4460 0 0 0
2017/11/28 02:40:00 BASE 12.23 1 15.18 10 -0.0 86 -2.0 0 1 972.6 NA 0.0000 UP 9999 4400 0 0 0
2017/11/28 02:41:00 BASE 12.10 5 15.18 10 -0.0 87 -2.0 0 1 972.7 NA 0.0000 9999 4560 0 0 0
2017/11/28 02:42:00 BASE 10.95 6 15.18 10 -0.0 87 -2.0 0 1 972.7 NA 0.0000 9999 4720 0 0 0
2017/11/28 02:43:00 BASE 10.90 8 15.18 10 -0.1 87 -2.0 0 1 972.7 NA 0.0000 9999 5180 0 0 0
2017/11/28 02:44:00 BASE 11.65 8 14.51 5 -0.1 87 -2.0 0 1 972.6 NA 0.0000 9999 5320 0 0 0
2017/11/28 02:45:00 BASE 12.70 7 15.69 12 -0.1 87 -2.0 0 1 972.5 NA 0.0000 9999 5120 0 0 0
2017/11/28 02:46:00 BASE 12.60 8 15.69 12 -0.1 87 -2.0 0 1 972.6 NA 0.0000 9999 0 0 0 5910
2017/11/28 02:47:00 BASE 11.77 10 15.69 12 -0.1 87 -2.0 0 1 972.6 NA 0.0000 9999 4950 0 0 0
2017/11/28 02:48:00 BASE 11.23 10 15.69 12 -0.0 87 -1.9 0 1 972.6 NA 0.0000 9999 5050 0 0 0
2017/11/28 02:49:00 BASE 11.16 8 15.69 12 -0.0 87 -1.9 0 1 972.6 NA 0.0000 9999 0 0 0 5580
2017/11/28 02:50:00 BASE 11.67 9 15.69 12 -0.0 87 -1.9 0 1 972.6 NA 0.0000 9999 4820 0 0 0
2017/11/28 02:51:00 BASE 12.38 12 15.69 12 -0.0 87 -1.9 0 1 972.6 NA 0.0000 9999 0 0 0 5350
2017/11/28 02:52:00 BASE 12.27 11 15.69 12 -0.0 87 -1.9 0 1 972.6 NA 0.0000 UP 9999 0 0 0 4920
2017/11/28 02:53:00 BASE 11.94 9 15.69 12 -0.0 87 -1.9 0 1 972.6 NA 0.0000 UP 9999 0 0 0 4720
2017/11/28 02:54:00 BASE 11.80 14 15.69 12 -0.0 87 -1.9 0 0 972.6 NA 0.0000 UP 9999 0 0 0 4460
2017/11/28 02:55:00 BASE 11.34 15 14.25 15 -0.0 87 -1.9 0 0 972.6 NA 0.0000 UP 9999 0 0 0 4200
2017/11/28 02:56:00 BASE 11.40 11 14.25 15 -0.0 87 -1.9 0 0 972.7 NA 0.0000 UP 9999 0 0 0 3970
2017/11/28 02:57:00 BASE 11.34 11 14.25 15 -0.0 87 -1.9 0 0 972.8 NA 0.0000 UP 9999 0 0 0 4040
2017/11/28 02:58:00 BASE 11.35 13 14.25 15 -0.0 87 -1.9 0 0 972.8 NA 0.0000 UP 9999 0 0 0 3740
2017/11/28 02:59:00 BASE 11.90 14 14.25 15 -0.0 87 -1.9 0 0 972.8 NA 0.0000 UP 9999 0 0 0 3710
2017/11/28 03:00:00 BASE 11.02 14 14.25 15 -0.0 87 -1.9 0 0 972.9 NA 0.0000 UP 9999 0 0 0 3740
2017/11/28 03:01:00 BASE 10.44 15 13.68 17 0.0 87 -2.0 0 0 972.9 NA 0.0000 UP 9999 0 0 0 3940
2017/11/28 03:02:00 BASE 11.09 17 13.89 15 0.0 86 -2.0 0 0 972.9 NA 0.0000 UP 9999 0 0 0 4200
2017/11/28 03:03:00 BASE 11.13 16 13.89 15 0.0 86 -2.0 0 0 972.8 NA 0.0000 UP 9999 2590 0 0 0
2017/11/28 03:04:00 BASE 11.10 15 13.89 15 0.0 86 -2.0 0 0 972.7 NA 0.0000 UP 9999 3580 0 0 0
2017/11/28 03:05:00 BASE 11.12 16 13.89 15 0.0 86 -2.0 0 0 972.6 NA 0.0000 UP 9999 0 0 0 4270
2017/11/28 03:06:00 BASE 10.62 19 13.89 15 0.1 86 -2.0 0 0 972.6 NA 0.0000 UP 9999 0 0 0 4170
2017/11/28 03:07:00 BASE 10.76 18 13.89 15 0.1 86 -2.0 0 0 972.5 NA 0.0000 UP 9999 3080 0 0 0
2017/11/28 03:08:00 BASE 12.37 16 15.18 15 0.1 86 -2.0 0 0 972.4 NA 0.0000 UP 9999 0 0 0 3900
2017/11/28 03:09:00 BASE 13.21 14 15.18 15 0.1 86 -2.0 0 0 972.4 NA 0.0000 UP 9999 2230 0 0 0
2017/11/28 03:10:00 BASE 13.08 13 15.18 15 0.1 86 -2.0 0 0 972.4 NA 0.0000 UP 9999 0 0 0 3480
2017/11/28 03:11:00 BASE 13.03 16 15.18 15 0.1 85 -2.0 0 0 972.4 NA 0.0000 UP 9999 0 0 0 3280
2017/11/28 03:12:00 BASE 12.67 17 15.18 15 0.1 85 -2.1 0 0 972.4 NA 0.0000 UP 9999 0 0 0 3310
2017/11/28 03:13:00 BASE 11.45 16 15.18 15 0.2 85 -2.1 0 0 972.5 NA 0.0000 UP 9999 0 0 0 3770
2017/11/28 03:14:00 BASE 11.23 10 15.18 15 0.2 85 -2.1 0 0 972.4 NA 0.0000 UP 9999 0 0 0 3410
2017/11/28 03:15:00 BASE 13.01 10 15.43 9 0.2 85 -2.1 0 0 972.3 NA 0.0000 UP 9999 0 0 0 3220
2017/11/28 03:16:00 BASE 13.19 14 15.43 9 0.2 85 -2.1 0 0 972.4 NA 0.0000 UP 9999 0 0 0 3280
2017/11/28 03:17:00 BASE 12.40 10 15.43 9 0.2 85 -2.1 0 0 972.4 NA 0.0000 UP 9999 0 0 0 3480
2017/11/28 03:18:00 BASE 13.14 5 16.51 8 0.2 85 -2.1 0 0 972.3 NA 0.0000 UP 9999 0 0 0 3380
2017/11/28 03:19:00 BASE 13.49 10 16.51 8 0.2 85 -2.1 0 0 972.3 NA 0.0000 UP 9999 0 0 0 3310
2017/11/28 03:20:00 BASE 13.24 13 16.51 8 0.2 84 -2.1 0 0 972.4 NA 0.0000 UP 9999 0 0 0 3350
2017/11/28 03:21:00 BASE 13.23 13 16.51 8 0.3 84 -2.1 0 0 972.4 NA 0.0000 UP 9999 0 0 0 3310
2017/11/28 03:22:00 BASE 12.71 14 16.51 8 0.3 84 -2.1 0 0 972.4 NA 0.0000 UP 9999 0 0 0 3280
2017/11/28 03:23:00 BASE 11.78 14 16.51 8 0.3 84 -2.1 0 0 972.5 NA 0.0000 UP 9999 0 0 0 3180
2017/11/28 03:24:00 BASE 11.65 13 16.51 8 0.3 84 -2.1 0 0 972.5 NA 0.0000 UP 9999 0 0 0 2990
2017/11/28 03:25:00 BASE 12.42 13 16.51 8 0.2 84 -2.1 0 0 972.4 NA 0.0000 UP 9999 0 0 0 2950
2017/11/28 03:26:00 BASE 12.85 13 16.51 8 0.2 84 -2.1 0 0 972.5 NA 0.0000 UP 9999 0 0 0 3050
2017/11/28 03:27:00 BASE 12.32 13 16.51 8 0.2 85 -2.1 0 0 972.5 NA 0.0000 UP 9999 0 0 0 3150
2017/11/28 03:28:00 BASE 12.23 15 15.18 10 0.2 85 -2.0 0 0 972.5 NA 0.0000 UP 9999 0 0 0 3450
2017/11/28 03:29:00 BASE 12.43 16 14.76 18 0.3 85 -2.0 0 0 972.5 NA 0.0000 UP 9999 0 0 0 3540
2017/11/28 03:30:00 BASE 12.02 19 14.76 18 0.3 85 -2.0 0 0 972.6 NA 0.0000 UP 9999 0 0 0 3740
2017/11/28 03:31:00 BASE 11.86 22 14.76 18 0.3 84 -2.0 0 0 972.6 NA 0.0000 UP 9999 0 0 0 3870
2017/11/28 03:32:00 BASE 12.03 23 14.76 18 0.3 84 -2.1 0 0 972.6 NA 0.0000 UP 9999 0 0 0 3940
2017/11/28 03:33:00 BASE 11.85 22 14.76 18 0.3 84 -2.1 0 0 972.7 NA 0.0000 UP 9000 0 0 0 3900
2017/11/28 03:34:00 BASE 11.15 23 14.76 18 0.3 84 -2.1 0 0 972.8 NA 0.0000 UP 9000 0 0 0 3900
2017/11/28 03:35:00 BASE 10.32 22 14.15 19 0.3 84 -2.1 0 0 972.8 NA 0.0000 UP 8000 0 0 0 3870
2017/11/28 03:36:00 BASE 10.08 24 14.15 19 0.3 84 -2.1 0 0 972.8 NA 0.0000 UP 9999 0 0 0 3670
2017/11/28 03:37:00 BASE 10.79 27 14.15 19 0.2 84 -2.1 0 0 972.8 NA 0.0000 UP 8000 0 0 0 3450
2017/11/28 03:38:00 BASE 11.17 27 14.15 19 0.2 84 -2.1 0 0 972.9 NA 0.0000 UP 8000 0 0 0 3280
2017/11/28 03:39:00 BASE 10.82 28 14.15 19 0.2 85 -2.1 0 0 972.9 NA 0.0000 UP 6000 0 0 0 3350
2017/11/28 03:40:00 BASE 10.73 29 14.15 19 0.2 85 -2.1 0 0 972.9 NA 0.0000 UP 6000 0 0 0 3610
2017/11/28 03:41:00 BASE 10.58 30 14.10 24 0.2 85 -2.0 0 0 973.0 NA 0.0000 UP 7000 0 0 0 4300
2017/11/28 03:42:00 BASE 9.74 31 13.17 18 0.2 85 -2.0 0 0 973.0 NA 0.0000 UP 8000 0 0 0 4400
2017/11/28 03:43:00 BASE 9.51 32 12.71 34 0.2 85 -2.0 0 0 973.0 NA 0.0000 UP BR 8000 0 0 0 4490
2017/11/28 03:44:00 BASE 9.84 31 12.71 34 0.2 85 -2.0 0 0 973.0 NA 0.0000 UP BR 8000 0 0 0 4590
2017/11/28 03:45:00 BASE 9.39 31 12.71 34 0.2 86 -1.9 0 0 973.0 NA 0.0000 UP BR 8000 3180 4530 0 0
2017/11/28 03:46:00 BASE 9.01 32 12.71 34 0.2 86 -1.9 0 0 973.0 NA 0.0000 UP BR 8000 2820 4130 0 0
2017/11/28 03:47:00 BASE 8.87 33 12.14 26 0.2 86 -1.9 0 0 973.0 NA 0.0000 UP BR 8000 2690 4130 0 0
2017/11/28 03:48:00 BASE 9.00 33 11.68 34 0.2 86 -1.9 0 0 973.0 NA 0.0000 UP BR 8000 2460 0 0 0
2017/11/28 03:49:00 BASE 9.21 33 11.68 34 0.1 86 -1.9 0 0 973.0 NA 0.0000 UP BR 8000 2460 3870 0 0
2017/11/28 03:50:00 BASE 9.26 35 11.27 27 0.1 86 -1.9 0 0 973.0 NA 0.0000 UP BR 8000 2490 0 0 0
2017/11/28 03:51:00 BASE 9.42 35 11.21 33 0.2 86 -1.9 0 0 973.0 NA 0.0000 UP BR 8000 2560 0 0 0
2017/11/28 03:52:00 BASE 9.18 33 11.21 33 0.2 86 -1.9 0 0 973.1 NA 0.0000 BR 9999 2460 0 0 0
2017/11/28 03:53:00 BASE 8.87 31 11.21 33 0.2 86 -1.9 0 0 973.1 NA 0.0000 BR 9999 2260 0 0 0
2017/11/28 03:54:00 BASE 8.65 33 11.21 33 0.2 85 -2.0 0 0 973.1 NA 0.0000 BR 9999 2170 0 0 0
2017/11/28 03:55:00 BASE 9.02 33 11.21 33 0.2 85 -2.0 0 0 973.1 NA 0.0000 BR 9999 1940 0 0 0
2017/11/28 03:56:00 BASE 8.94 31 11.21 33 0.2 85 -2.0 0 0 973.1 NA 0.0000 9999 2030 0 0 0
2017/11/28 03:57:00 BASE 8.78 29 11.21 33 0.2 85 -2.1 0 0 973.1 NA 0.0000 9999 1970 0 0 0
2017/11/28 03:58:00 BASE 8.80 27 11.21 33 0.2 84 -2.1 0 0 973.1 NA 0.0000 9999 1940 0 0 0
2017/11/28 03:59:00 BASE 8.26 27 11.21 33 0.3 84 -2.2 0 0 973.2 NA 0.0000 9999 0 0 0 4300
2017/11/28 04:00:00 BASE 8.21 27 11.21 33 0.3 83 -2.2 0 0 973.2 NA 0.0000 9999 0 0 0 4490
2017/11/28 04:01:00 BASE 7.97 26 11.11 23 0.3 83 -2.2 0 0 973.3 NA 0.0000 9999 0 0 0 4460
2017/11/28 04:02:00 BASE 7.56 23 11.11 23 0.3 83 -2.2 0 0 973.4 NA 0.0000 9999 0 0 0 4000
2017/11/28 04:03:00 BASE 7.41 18 11.11 23 0.3 83 -2.2 0 0 973.4 NA 0.0000 9999 0 0 0 3410
2017/11/28 04:04:00 BASE 8.11 14 11.11 23 0.3 83 -2.3 0 0 973.3 NA 0.0000 UP 9999 0 0 0 3640
2017/11/28 04:05:00 BASE 9.13 14 11.11 23 0.3 83 -2.3 0 0 973.3 NA 0.0000 UP 9999 0 0 0 3740
2017/11/28 04:06:00 BASE 9.42 15 11.11 23 0.3 83 -2.3 0 0 973.4 NA 0.0000 UP 9000 0 0 0 3670
2017/11/28 04:07:00 BASE 8.92 16 10.75 33 0.2 83 -2.3 0 0 973.4 NA 0.0000 UP 9000 0 0 0 3310
2017/11/28 04:08:00 BASE 8.37 16 10.75 33 0.2 83 -2.4 0 0 973.4 NA 0.0000 UP 9999 0 0 0 3450
2017/11/28 04:09:00 BASE 8.26 15 10.75 33 0.2 83 -2.4 0 0 973.3 NA 0.0000 UP 9999 0 0 0 3610
2017/11/28 04:10:00 BASE 8.50 16 10.75 33 0.2 83 -2.4 0 0 973.4 NA 0.0000 UP 9999 0 0 0 3540
2017/11/28 04:11:00 BASE 8.47 17 10.75 33 0.2 83 -2.3 0 0 973.4 NA 0.0000 UP 9999 0 0 0 3220
2017/11/28 04:12:00 BASE 8.03 18 10.75 33 0.2 83 -2.3 0 0 973.4 NA 0.0000 UP 9999 0 0 0 2760
2017/11/28 04:13:00 BASE 7.10 20 10.75 33 0.2 83 -2.3 0 0 973.4 NA 0.0000 UP 9000 0 0 0 2590
2017/11/28 04:14:00 BASE 6.44 20 10.75 33 0.2 83 -2.3 0 0 973.5 NA 0.0000 UP 8000 0 0 0 3020
2017/11/28 04:15:00 BASE 5.92 20 10.75 33 0.2 83 -2.3 0 0 973.5 NA 0.0000 UP 9000 0 0 0 3380
2017/11/28 04:16:00 BASE 6.24 20 10.44 24 0.2 84 -2.3 0 0 973.4 NA 0.0000 UP 8000 0 0 0 3310
2017/11/28 04:17:00 BASE 7.11 22 10.44 24 0.2 84 -2.2 0 0 973.4 NA 0.0000 UP 5000 0 0 0 2820
2017/11/28 04:18:00 BASE 7.87 24 11.21 14 0.1 85 -2.2 0 0 973.4 NA 0.0000 UP 4700 260 0 0 0
2017/11/28 04:19:00 BASE 8.68 23 11.21 14 0.1 85 -2.1 0 0 973.4 NA 0.0000 -SN BR 4600 0 0 0 3150
2017/11/28 04:20:00 BASE 8.36 24 11.21 14 0.1 86 -2.1 0 0 973.4 NA 0.0000 -SN BR 5000 0 0 0 3120
2017/11/28 04:21:00 BASE 8.12 26 11.21 14 0.0 86 -2.1 0 0 973.4 NA 0.0000 -SN BR 7000 0 0 0 3150
2017/11/28 04:22:00 BASE 8.12 23 11.21 14 0.0 86 -2.0 0 0 973.4 NA 0.0000 -SN BR 7000 0 0 0 3120
2017/11/28 04:23:00 BASE 7.80 22 11.21 14 -0.0 86 -2.0 0 0 973.4 NA 0.0000 -SN BR 8000 0 0 0 3080
2017/11/28 04:24:00 BASE 7.96 26 11.21 14 -0.0 86 -2.0 0 0 973.4 NA 0.0000 -SN BR 6000 0 0 0 2620
2017/11/28 04:25:00 BASE 8.17 31 11.21 14 -0.0 87 -2.0 0 0 973.4 NA 0.0000 -SN BR 4000 0 0 0 3080
2017/11/28 04:26:00 BASE 8.53 31 11.21 14 -0.1 87 -1.9 0 0 973.4 NA 0.0000 -SN BR 3900 0 0 0 3150
2017/11/28 04:27:00 BASE 8.87 31 11.21 14 -0.1 88 -1.9 0 0 973.3 NA 0.0000 -SN BR 5000 0 0 0 3220
2017/11/28 04:28:00 BASE 8.62 34 10.80 17 -0.1 88 -1.9 0 0 973.4 NA 0.0000 -SN BR 5000 0 0 0 3250
2017/11/28 04:29:00 BASE 8.82 34 10.55 24 -0.1 88 -1.8 0 0 973.3 NA 0.0000 -SN BR 7000 0 0 0 3310
2017/11/28 04:30:00 BASE 8.72 30 10.55 24 -0.1 88 -1.8 0 0 973.3 NA 0.0000 -SN BR 6000 0 0 0 3250
2017/11/28 04:31:00 BASE 8.77 28 12.09 20 -0.1 88 -1.8 0 0 973.2 NA 0.0000 -SN BR 6000 0 0 0 2720
2017/11/28 04:32:00 BASE 9.26 28 12.09 20 -0.1 88 -1.8 0 0 973.2 NA 0.0000 -SN BR 9000 390 0 0 0
2017/11/28 04:33:00 BASE 8.56 27 12.09 20 -0.1 88 -1.8 0 0 973.2 NA 0.0000 -SN BR 8000 0 0 0 3050
2017/11/28 04:34:00 BASE 8.54 27 12.09 20 -0.1 88 -1.8 0 0 973.2 NA 0.0000 -SN BR 9999 390 0 0 0
2017/11/28 04:35:00 BASE 9.15 28 12.09 20 -0.1 88 -1.8 0 0 973.2 NA 0.0000 -SN BR 7000 0 0 0 2850
2017/11/28 04:36:00 BASE 8.69 29 12.09 20 -0.1 88 -1.8 0 0 973.3 NA 0.0000 -SN BR 6000 0 0 0 2720
2017/11/28 04:37:00 BASE 7.91 26 12.09 20 -0.1 88 -1.8 0 0 973.3 NA 0.0000 -SN BR 5000 0 0 0 3050
2017/11/28 04:38:00 BASE 7.95 26 12.09 20 -0.1 88 -1.8 0 0 973.3 NA 0.0000 -SN BR 6000 0 0 0 3150
2017/11/28 04:39:00 BASE 8.03 28 12.09 20 -0.1 88 -1.8 0 0 973.4 NA 0.0000 -SN BR 6000 0 0 0 3080
2017/11/28 04:40:00 BASE 7.02 29 12.09 20 -0.0 88 -1.8 0 0 973.4 NA 0.0000 -SN BR 6000 390 0 0 0
2017/11/28 04:41:00 BASE 6.24 26 11.99 13 -0.0 88 -1.8 0 0 973.5 NA 0.0000 -SN BR 6000 360 0 0 0
2017/11/28 04:42:00 BASE 6.73 28 11.99 13 -0.0 88 -1.8 0 0 973.5 NA 0.0000 -SN BR 4700 360 0 0 0
2017/11/28 04:43:00 BASE 5.89 35 11.99 13 -0.0 88 -1.8 0 0 973.6 NA 0.0000 -SN BR 7000 0 0 0 3280
2017/11/28 04:44:00 BASE 4.93 33 11.16 19 0.0 88 -1.8 0 0 973.6 NA 0.0000 -SN BR 7000 360 0 0 0
2017/11/28 04:45:00 BASE 5.36 35 11.16 19 0.0 88 -1.8 0 0 973.6 NA 0.0000 -SN BR 5000 360 0 0 0
2017/11/28 04:46:00 BASE 5.15 49 11.16 19 0.0 88 -1.8 0 0 973.6 NA 0.0000 -SN BR 5000 0 0 0 3220
2017/11/28 04:47:00 BASE 5.38 57 9.77 26 0.0 88 -1.8 0 0 973.5 NA 0.0000 -SN BR 4800 0 0 0 3150
2017/11/28 04:48:00 BASE 5.18 53 9.41 22 0.0 88 -1.8 0 0 973.5 NA 0.0000 -SN BR 4000 0 0 0 3080
2017/11/28 04:49:00 BASE 5.45 45 9.57 25 0.0 88 -1.8 0 0 973.5 NA 0.0000 -SN BR 4300 0 0 0 3080
2017/11/28 04:50:00 BASE 5.44 49 9.57 25 0.0 88 -1.8 0 0 973.6 NA 0.0000 -SN BR 8000 0 0 0 3080
2017/11/28 04:51:00 BASE 6.07 53 9.67 39 -0.0 88 -1.8 0 0 973.5 NA 0.0000 -SN BR 7000 0 0 0 3180
2017/11/28 04:52:00 BASE 6.84 49 9.67 39 -0.0 88 -1.8 0 0 973.5 NA 0.0000 -SN BR 4100 0 0 0 3180
2017/11/28 04:53:00 BASE 6.42 48 9.67 39 -0.0 88 -1.8 0 0 973.4 NA 0.0000 -SN BR 4200 0 0 0 3180
2017/11/28 04:54:00 BASE 6.70 37 9.67 39 -0.0 88 -1.7 0 0 973.5 NA 0.0000 -SN BR 4400 0 0 0 2990
2017/11/28 04:55:00 BASE 5.69 25 9.67 39 -0.0 88 -1.7 0 0 973.5 NA 0.0000 -SN BR 3900 0 0 0 3120
2017/11/28 04:56:00 BASE 4.80 22 9.67 39 -0.0 89 -1.7 0 0 973.5 NA 0.0000 -SN BR 5000 0 0 0 3050
2017/11/28 04:57:00 BASE 5.38 29 9.67 39 -0.0 89 -1.7 0 0 973.6 NA 0.0000 -SN BR 4100 0 0 0 2920
2017/11/28 04:58:00 BASE 5.73 31 9.67 39 -0.0 89 -1.6 0 0 973.6 NA 0.0000 -SN BR 3800 360 0 0 0
2017/11/28 04:59:00 BASE 5.52 24 9.67 39 -0.1 89 -1.7 0 0 973.6 NA 0.0000 -SN BR 3500 0 0 0 2200
2017/11/28 05:00:00 BASE 6.56 15 10.34 23 -0.1 89 -1.7 0 0 973.5 NA 0.0000 -SN BR 3600 300 0 0 0
2017/11/28 05:01:00 BASE 7.40 12 10.34 23 -0.1 89 -1.7 0 0 973.6 NA 0.0000 -SN BR 3100 230 0 0 0
2017/11/28 05:02:00 BASE 6.10 7 10.34 23 -0.1 89 -1.7 0 0 973.7 NA 0.0000 -SN BR 2800 0 0 0 1480
2017/11/28 05:03:00 BASE 7.09 4 12.24 341 -0.1 89 -1.7 0 0 973.5 NA 0.0000 -SN BR 3600 0 0 0 1610
2017/11/28 05:04:00 BASE 8.77 8 14.20 9 -0.2 90 -1.6 0 0 973.5 NA 0.0000 -SN BR 3600 0 0 0 1710
2017/11/28 05:05:00 BASE 8.78 3 14.20 9 -0.2 90 -1.6 0 0 973.5 NA 0.0000 -SN BR 3500 0 0 0 1840
2017/11/28 05:06:00 BASE 9.95 5 14.20 9 -0.2 91 -1.5 0 0 973.3 NA 0.0000 -SN BR 3100 0 0 0 1770
2017/11/28 05:07:00 BASE 12.00 12 14.35 14 -0.2 91 -1.5 0 0 973.1 NA 0.0000 -SN BR 3300 0 0 0 1770
2017/11/28 05:08:00 BASE 12.88 8 14.35 14 -0.2 91 -1.5 0 0 973.0 NA 0.0000 -SN BR 2200 0 0 0 1610
2017/11/28 05:09:00 BASE 12.17 11 14.82 24 -0.3 92 -1.5 0 0 973.0 NA 0.0000 -SN BR 2100 0 0 0 1740
2017/11/28 05:10:00 BASE 12.18 16 15.54 31 -0.3 92 -1.5 0 0 973.0 NA 0.0000 -SN BR 2300 0 0 0 2690
2017/11/28 05:11:00 BASE 12.10 16 15.54 31 -0.3 92 -1.4 0 0 973.0 NA 0.0000 -SN BR 2400 0 0 0 2850
2017/11/28 05:12:00 BASE 12.16 10 15.54 31 -0.3 92 -1.4 0 0 973.0 NA 0.0000 -SN BR 3000 360 0 0 0
2017/11/28 05:13:00 BASE 13.04 9 15.54 31 -0.2 92 -1.4 0 0 973.0 NA 0.0000 -SN BR 3400 330 0 0 0
2017/11/28 05:14:00 BASE 13.57 8 15.54 31 -0.2 92 -1.4 0 0 972.9 NA 0.0000 -SN BR 4200 230 0 0 0
2017/11/28 05:15:00 BASE 13.50 6 15.54 31 -0.2 92 -1.3 0 0 972.9 NA 0.0000 -SN BR 2400 0 0 0 1020
2017/11/28 05:16:00 BASE 12.80 7 15.54 31 -0.2 92 -1.4 0 0 973.0 NA 0.0000 -SN BR 2000 0 0 0 980
2017/11/28 05:17:00 BASE 12.02 11 15.54 31 -0.3 92 -1.4 0 1 973.0 NA 0.0000 -SN BR 1100 0 0 0 1150
2017/11/28 05:18:00 BASE 11.42 16 15.54 31 -0.3 92 -1.4 0 1 973.0 NA 0.0000 -SN BR 1100 0 0 0 3540
2017/11/28 05:19:00 BASE 11.37 14 15.54 31 -0.3 92 -1.4 0 1 972.9 NA 0.0000 -SN BR 1900 0 0 0 4760
2017/11/28 05:20:00 BASE 11.83 14 15.18 5 -0.4 93 -1.4 0 1 972.8 NA 0.0000 -SN BR 2700 330 0 0 0
2017/11/28 05:21:00 BASE 11.90 12 15.18 5 -0.4 93 -1.4 0 1 972.8 NA 0.0000 -SN BR 3900 0 0 0 4560
2017/11/28 05:22:00 BASE 12.70 5 16.57 3 -0.4 93 -1.4 0 1 972.6 NA 0.0000 -SN BR 4600 0 0 0 4270
2017/11/28 05:23:00 BASE 13.52 6 16.57 3 -0.3 93 -1.3 0 1 972.6 NA 0.0000 -SN BR 7000 0 0 0 3670
2017/11/28 05:24:00 BASE 13.86 6 16.98 12 -0.3 93 -1.3 0 1 972.5 NA 0.0000 -SN BR 8000 0 0 0 3540
2017/11/28 05:25:00 BASE 14.48 8 16.98 12 -0.3 93 -1.3 0 1 972.4 NA 0.0000 -SN BR 5000 260 0 0 0
2017/11/28 05:26:00 BASE 14.83 12 17.39 2 -0.3 92 -1.3 0 1 972.4 NA 0.0000 -SN BR 3200 0 0 0 2430
2017/11/28 05:27:00 BASE 15.41 11 18.98 18 -0.3 92 -1.4 0 1 972.5 NA 0.0000 -SN BR 2500 0 0 0 2200
2017/11/28 05:28:00 BASE 15.00 12 18.98 18 -0.3 92 -1.4 0 1 972.6 NA 0.0000 -SN BR 1500 0 0 0 2300
2017/11/28 05:29:00 BASE 13.51 9 18.98 18 -0.3 92 -1.4 0 1 972.6 NA 0.0000 -SN BR 1800 0 0 0 1900
2017/11/28 05:30:00 BASE 14.37 10 18.98 18 -0.4 93 -1.4 0 1 972.4 NA 0.0000 -SN BR 2700 0 0 0 1640
2017/11/28 05:31:00 BASE 16.44 13 19.09 15 -0.4 93 -1.3 0 1 972.3 NA 0.0000 -SN BR 2800 0 0 0 1480
2017/11/28 05:32:00 BASE 16.90 11 19.75 5 -0.4 94 -1.3 0 1 972.4 NA 0.0000 -SN BR 2600 0 0 0 1350
2017/11/28 05:33:00 BASE 15.68 7 19.75 5 -0.4 94 -1.2 0 1 972.6 NA 0.0000 -SN BR 2300 0 0 0 1280
2017/11/28 05:34:00 BASE 15.41 5 19.75 5 -0.4 94 -1.2 0 1 972.4 NA 0.0000 -SN BR 2100 0 0 0 1480
2017/11/28 05:35:00 BASE 17.32 6 19.81 19 -0.4 95 -1.1 0 1 972.2 NA 0.0000 -SN BR 1800 0 0 0 1710
2017/11/28 05:36:00 BASE 18.47 8 19.91 9 -0.3 95 -1.1 0 1 972.2 NA 0.0000 -SN BR 1900 0 0 0 1870
2017/11/28 05:37:00 BASE 18.89 8 21.04 6 -0.3 95 -1.0 0 1 972.3 NA 0.0000 -SN BR 1900 0 0 0 1180
2017/11/28 05:38:00 BASE 18.45 5 21.04 6 -0.3 95 -1.0 0 1 972.6 NA 0.0000 -SN BR 1700 0 0 0 1020
2017/11/28 05:39:00 BASE 16.73 3 21.04 6 -0.3 95 -1.0 0 1 972.8 NA 0.0000 -SN BR 2300 0 0 0 1080
2017/11/28 05:40:00 BASE 15.46 2 21.04 6 -0.3 95 -1.0 0 1 972.8 NA 0.0000 -SN BR 2500 0 0 0 980
2017/11/28 05:41:00 BASE 15.68 2 21.04 6 -0.4 95 -1.1 0 1 972.7 NA 0.0000 -SN BR 2400 0 0 0 1020
2017/11/28 05:42:00 BASE 15.43 1 21.04 6 -0.4 95 -1.1 0 1 972.8 NA 0.0000 -SN BR 2400 0 0 0 1180
2017/11/28 05:43:00 BASE 14.93 3 21.04 6 -0.4 95 -1.1 0 1 972.7 NA 0.0000 -SN BR 3700 0 0 0 1120
2017/11/28 05:44:00 BASE 15.65 0 21.04 6 -0.5 95 -1.1 0 1 972.5 NA 0.2540 -SN BR 3700 0 0 0 1410
2017/11/28 05:45:00 BASE 15.63 360 21.04 6 -0.5 96 -1.1 0 1 972.6 NA 0.0000 -SN BR 3400 0 0 0 2760
2017/11/28 05:46:00 BASE 15.60 7 21.04 6 -0.4 96 -1.0 0 1 972.5 NA 0.0000 -SN BR 3300 0 0 0 2850
2017/11/28 05:47:00 BASE 16.90 4 19.24 5 -0.4 96 -0.9 0 0 972.3 NA 0.0000 -SN BR 3600 230 0 0 0
2017/11/28 05:48:00 BASE 17.02 3 19.09 355 -0.3 97 -0.8 0 0 972.4 NA 0.0000 -SN BR 6000 0 0 0 3380
2017/11/28 05:49:00 BASE 17.73 5 20.68 344 -0.2 97 -0.6 0 0 972.2 NA 0.0000 -SN BR 6000 0 0 0 3450
2017/11/28 05:50:00 BASE 18.24 2 20.68 344 -0.1 97 -0.5 0 1 972.2 NA 0.0000 -SN BR 6000 330 0 0 0
2017/11/28 05:51:00 BASE 16.95 4 20.68 344 -0.1 97 -0.5 0 1 972.3 NA 0.0000 -SN BR 7000 330 0 0 0
2017/11/28 05:52:00 BASE 14.99 5 20.68 344 -0.1 97 -0.5 1 2 972.4 NA 0.0000 -SN BR 9000 2070 0 0 0
2017/11/28 05:53:00 BASE 15.69 5 20.68 344 -0.1 96 -0.6 1 2 972.1 NA 0.0000 -SN BR 9000 2400 0 0 0
2017/11/28 05:54:00 BASE 17.37 4 20.68 344 -0.1 96 -0.6 1 2 972.2 NA 0.0000 -SN BR 5000 1740 0 0 0
2017/11/28 05:55:00 BASE 16.50 358 20.68 344 -0.0 96 -0.6 1 2 972.2 NA 0.0000 -SN BR 9999 2560 0 0 0
2017/11/28 05:56:00 BASE 17.34 359 20.68 344 -0.0 96 -0.6 1 3 972.0 NA 0.0000 -SN BR 9999 0 0 0 3120
2017/11/28 05:57:00 BASE 17.75 348 20.68 344 0.1 96 -0.5 1 3 972.1 NA 0.0000 -SN BR 7000 230 2460 0 0
2017/11/28 05:58:00 BASE 17.37 343 20.68 344 0.2 96 -0.4 1 3 972.1 NA 0.0000 -SN BR 2900 0 0 0 3020
2017/11/28 05:59:00 BASE 17.73 359 20.11 4 0.3 96 -0.3 1 3 972.1 NA 0.0000 -SN BR 4700 0 0 0 3150
2017/11/28 06:00:00 BASE 17.80 354 20.11 4 0.4 96 -0.2 1 3 972.1 NA 0.0000 -SN BR 3400 0 0 0 2400
2017/11/28 06:01:00 BASE 17.56 351 20.11 4 0.5 96 -0.1 1 3 972.2 NA 0.0000 -SN BR 4300 0 0 0 2890
2017/11/28 06:02:00 BASE 16.30 351 20.11 4 0.5 96 -0.0 1 2 972.4 NA 0.0000 -SN BR 3900 0 0 0 1540
2017/11/28 06:03:00 BASE 16.09 352 20.11 4 0.6 96 0.0 1 2 972.4 NA 0.0000 -SN BR 6000 0 0 0 1610
2017/11/28 06:04:00 BASE 15.84 359 20.11 4 0.6 96 -0.0 1 2 972.6 NA 0.0000 -SN BR 4700 0 0 0 1410
2017/11/28 06:05:00 BASE 15.07 358 20.11 4 0.5 96 -0.1 1 2 972.6 NA 0.0000 -SN BR 3400 0 0 0 2030
2017/11/28 06:06:00 BASE 15.43 1 19.60 351 0.5 95 -0.2 1 2 972.6 NA 0.0000 -SN BR 4600 0 0 0 1900
2017/11/28 06:07:00 BASE 15.62 359 19.60 351 0.4 95 -0.3 1 2 972.7 NA 0.0000 -SN BR 3300 300 0 0 0
2017/11/28 06:08:00 BASE 16.76 357 19.60 351 0.3 95 -0.4 1 2 972.6 NA 0.0000 -SN BR 8000 230 0 0 0
2017/11/28 06:09:00 BASE 17.43 2 20.11 1 0.3 95 -0.4 1 2 972.7 NA 0.0000 -SN BR 3100 0 0 0 1740
2017/11/28 06:10:00 BASE 16.90 5 20.11 1 0.3 95 -0.5 1 3 972.7 NA 0.0000 -SN BR 2800 0 0 0 1080
2017/11/28 06:11:00 BASE 17.13 358 20.11 1 0.3 95 -0.4 1 3 972.7 NA 0.0000 -SN BR 2700 0 0 0 820
2017/11/28 06:12:00 BASE 17.30 352 20.11 1 0.4 95 -0.4 1 3 972.8 NA 0.0000 -SN BR 3500 0 0 0 790
2017/11/28 06:13:00 BASE 17.90 350 20.73 343 0.4 95 -0.4 1 4 972.8 NA 0.0000 -SN BR 2700 0 0 0 790
2017/11/28 06:14:00 BASE 16.98 348 20.73 343 0.3 95 -0.4 1 5 973.0 NA 0.0000 -SN BR 2600 0 0 0 820
2017/11/28 06:15:00 BASE 15.04 347 20.73 343 0.3 95 -0.4 1 5 973.1 NA 0.0000 -SN BR 3900 0 0 0 950
2017/11/28 06:16:00 BASE 14.89 347 20.73 343 0.3 95 -0.4 1 4 973.2 NA 0.0000 -SN BR 4800 0 0 0 1150
2017/11/28 06:17:00 BASE 14.43 349 20.73 343 0.2 96 -0.4 1 5 973.3 NA 0.0000 -SN BR 6000 0 0 0 1840
2017/11/28 06:18:00 BASE 13.65 347 20.73 343 0.2 96 -0.4 1 4 973.4 NA 0.0000 -SN BR 5000 0 0 0 3350
2017/11/28 06:19:00 BASE 12.70 343 20.73 343 0.2 96 -0.3 1 4 973.5 NA 0.0000 -SN BR 9999 200 0 0 0
2017/11/28 06:20:00 BASE 12.74 346 20.73 343 0.2 97 -0.3 1 4 973.4 NA 0.0000 -SN BR 9999 260 0 0 0
2017/11/28 06:21:00 BASE 14.73 349 20.73 343 0.1 97 -0.3 1 4 973.3 NA 0.0000 -SN BR 9999 0 0 0 2430
2017/11/28 06:22:00 BASE 14.35 343 20.73 343 0.1 97 -0.3 1 4 973.5 NA 0.0000 -SN BR 9999 0 0 0 2100
2017/11/28 06:23:00 BASE 11.66 336 18.37 348 0.1 97 -0.3 1 5 973.7 NA 0.0000 -SN BR 9999 260 0 0 0
2017/11/28 06:24:00 BASE 10.48 335 18.37 348 0.1 97 -0.3 1 5 973.7 NA 0.0000 -SN BR 9999 0 0 0 2300
2017/11/28 06:25:00 BASE 10.20 339 18.37 348 0.1 97 -0.3 1 5 973.8 NA 0.0000 -SN BR 9999 300 0 0 0
2017/11/28 06:26:00 BASE 11.51 339 18.37 348 0.1 97 -0.3 1 5 973.7 NA 0.0000 -SN 9999 0 0 0 2400
2017/11/28 06:27:00 BASE 12.32 339 16.98 353 0.1 97 -0.3 1 6 973.7 NA 0.0000 -SN 9999 260 0 0 0
2017/11/28 06:28:00 BASE 11.44 341 16.98 353 0.1 97 -0.3 2 6 973.8 NA 0.0000 -SN 9999 1020 0 0 0
2017/11/28 06:29:00 BASE 10.74 343 16.98 353 0.1 97 -0.3 2 7 973.8 NA 0.0000 -SN 9999 0 0 0 2530
2017/11/28 06:30:00 BASE 11.07 341 16.98 353 0.1 97 -0.3 2 7 973.7 NA 0.0000 -SN 9999 0 0 0 2850
2017/11/28 06:31:00 BASE 11.72 340 15.54 344 0.2 97 -0.3 2 7 973.8 NA 0.0000 9999 0 0 0 3250
2017/11/28 06:32:00 BASE 10.80 338 15.54 344 0.2 96 -0.3 2 7 973.9 NA 0.0000 9999 0 0 0 2760
2017/11/28 06:33:00 BASE 9.83 337 15.54 344 0.2 96 -0.3 2 8 973.9 NA 0.0000 9999 0 0 0 2720
2017/11/28 06:34:00 BASE 10.76 344 15.54 344 0.3 96 -0.3 2 8 973.8 NA 0.0000 9999 430 0 0 0
2017/11/28 06:35:00 BASE 10.99 342 15.54 344 0.3 95 -0.3 2 8 973.9 NA 0.0000 9999 330 0 0 0
2017/11/28 06:36:00 BASE 10.70 333 13.94 346 0.3 95 -0.3 2 8 973.9 NA 0.0000 9999 200 0 0 0
2017/11/28 06:37:00 BASE 10.70 333 13.94 346 0.3 95 -0.4 3 9 973.9 NA 0.0000 9999 0 0 0 1970
2017/11/28 06:38:00 BASE 9.57 329 13.94 346 0.3 95 -0.4 3 9 974.0 NA 0.0000 9999 230 0 0 0
2017/11/28 06:39:00 BASE 9.69 326 13.94 346 0.3 95 -0.4 3 10 973.9 NA 0.0000 9999 1180 0 0 0
2017/11/28 06:40:00 BASE 9.65 333 13.22 346 0.3 95 -0.4 3 10 974.0 NA 0.0000 9999 300 0 0 0
2017/11/28 06:41:00 BASE 9.42 338 13.22 346 0.3 95 -0.3 3 11 974.0 NA 0.0000 9999 0 0 0 2460
2017/11/28 06:42:00 BASE 10.42 338 13.22 346 0.3 96 -0.3 3 11 973.9 NA 0.0000 9999 0 0 0 2620
2017/11/28 06:43:00 BASE 11.10 337 13.22 346 0.3 96 -0.3 4 11 973.9 NA 0.2540 9999 230 0 0 0
2017/11/28 06:44:00 BASE 11.19 336 12.45 352 0.4 96 -0.2 4 11 973.9 NA 0.0000 9999 0 0 0 2820
2017/11/28 06:45:00 BASE 11.57 343 13.38 340 0.4 96 -0.2 4 11 973.9 NA 0.0000 9999 330 0 0 0
2017/11/28 06:46:00 BASE 11.43 347 13.38 340 0.3 96 -0.3 4 12 974.0 NA 0.0000 9999 0 0 0 2720
2017/11/28 06:47:00 BASE 10.61 342 13.38 340 0.3 95 -0.3 4 13 974.0 NA 0.0000 9999 0 0 0 2720
2017/11/28 06:48:00 BASE 10.00 340 13.38 340 0.3 95 -0.4 5 13 974.1 NA 0.0000 9999 1540 0 0 0
2017/11/28 06:49:00 BASE 9.87 336 13.38 340 0.3 95 -0.4 5 12 974.1 NA 0.0000 9999 1020 0 0 0
2017/11/28 06:50:00 BASE 10.31 335 13.38 340 0.3 96 -0.3 5 13 974.0 NA 0.0000 9999 0 0 0 2590
2017/11/28 06:51:00 BASE 10.42 334 13.38 340 0.3 96 -0.3 5 13 974.1 NA 0.0000 9999 0 0 0 2760
2017/11/28 06:52:00 BASE 9.72 330 13.38 340 0.4 96 -0.2 5 13 974.1 NA 0.0000 9999 1410 0 0 0
2017/11/28 06:53:00 BASE 9.84 330 13.38 340 0.4 96 -0.2 5 13 974.1 NA 0.0000 9999 0 0 0 3150
2017/11/28 06:54:00 BASE 9.04 333 13.38 340 0.5 95 -0.2 5 14 974.2 NA 0.0000 9999 0 0 0 2790
2017/11/28 06:55:00 BASE 7.80 338 12.24 343 0.5 95 -0.2 5 14 974.2 NA 0.0000 9999 0 0 0 3080
2017/11/28 06:56:00 BASE 8.19 339 11.88 347 0.5 95 -0.3 6 15 974.2 NA 0.0000 9999 0 0 0 3380
2017/11/28 06:57:00 BASE 8.90 338 11.88 347 0.4 95 -0.3 6 16 974.2 NA 0.0000 9999 0 0 0 3450
2017/11/28 06:58:00 BASE 9.60 338 11.88 347 0.4 95 -0.3 7 17 974.2 NA 0.0000 9999 0 0 0 3350
2017/11/28 06:59:00 BASE 9.42 338 11.88 347 0.5 94 -0.3 7 18 974.2 NA 0.0000 9999 0 0 0 3840
2017/11/28 07:00:00 BASE 9.57 340 12.35 338 0.5 94 -0.3 7 18 974.2 NA 0.0000 9999 1120 0 0 0
2017/11/28 07:01:00 BASE 10.64 343 12.35 338 0.5 94 -0.3 7 18 974.2 NA 0.0000 9999 0 0 0 3410
2017/11/28 07:02:00 BASE 10.63 342 12.35 338 0.5 94 -0.3 7 18 974.2 NA 0.0000 9999 0 0 0 3380
2017/11/28 07:03:00 BASE 10.45 343 12.71 342 0.5 94 -0.4 7 19 974.2 NA 0.0000 9999 0 0 0 3450
2017/11/28 07:04:00 BASE 11.07 344 12.71 342 0.6 94 -0.4 7 19 974.2 NA 0.0000 9999 0 0 0 3410
2017/11/28 07:05:00 BASE 10.76 343 12.71 342 0.6 93 -0.3 7 20 974.3 NA 0.0000 9999 0 0 0 3250
2017/11/28 07:06:00 BASE 9.88 343 12.71 342 0.6 93 -0.3 7 21 974.3 NA 0.0000 9999 0 0 0 3250
2017/11/28 07:07:00 BASE 9.90 350 12.71 342 0.6 93 -0.4 8 22 974.3 NA 0.0000 9999 0 0 0 3180
2017/11/28 07:08:00 BASE 10.62 354 12.71 342 0.6 93 -0.5 8 22 974.3 NA 0.0000 9999 0 0 0 3380
2017/11/28 07:09:00 BASE 11.13 350 12.71 342 0.6 92 -0.5 7 22 974.3 NA 0.0000 9999 0 0 0 3410
2017/11/28 07:10:00 BASE 11.10 350 12.71 342 0.5 92 -0.6 7 22 974.3 NA 0.0000 9999 0 0 0 3280
2017/11/28 07:11:00 BASE 10.69 352 12.71 342 0.5 92 -0.6 7 22 974.4 NA 0.0000 9999 2330 0 0 0
2017/11/28 07:12:00 BASE 10.37 353 12.71 342 0.5 92 -0.6 7 22 974.4 NA 0.0000 9999 2030 0 0 0
2017/11/28 07:13:00 BASE 10.43 354 12.14 348 0.5 92 -0.6 7 22 974.4 NA 0.0000 9999 2360 0 0 0
2017/11/28 07:14:00 BASE 11.06 352 13.22 296 0.6 92 -0.6 7 22 974.3 NA 0.0000 9999 2070 0 0 0
2017/11/28 07:15:00 BASE 12.14 354 13.68 8 0.6 92 -0.6 7 22 974.3 NA 0.0000 9999 1380 0 0 0
2017/11/28 07:16:00 BASE 11.91 358 13.68 8 0.6 92 -0.6 7 22 974.3 NA 0.0000 9999 1250 0 0 0
2017/11/28 07:17:00 BASE 11.42 3 13.68 8 0.7 91 -0.6 8 23 974.4 NA 0.0000 9999 0 0 0 2990
2017/11/28 07:18:00 BASE 11.62 2 13.68 8 0.7 91 -0.6 8 24 974.4 NA 0.0000 9999 0 0 0 3050
2017/11/28 07:19:00 BASE 11.64 0 13.68 8 0.7 91 -0.7 9 25 974.4 NA 0.0000 9999 0 0 0 3250
2017/11/28 07:20:00 BASE 11.57 2 13.68 8 0.7 90 -0.7 10 26 974.5 NA 0.0000 9999 690 0 0 0
2017/11/28 07:21:00 BASE 11.95 359 13.68 8 0.7 90 -0.7 10 27 974.5 NA 0.0000 9999 2850 0 0 0
2017/11/28 07:22:00 BASE 12.07 354 13.68 8 0.8 90 -0.7 11 28 974.6 NA 0.0000 9999 1080 0 0 0
2017/11/28 07:23:00 BASE 11.20 358 13.68 8 0.8 89 -0.8 11 28 974.7 NA 0.0000 9999 790 0 0 0
2017/11/28 07:24:00 BASE 10.83 358 13.68 8 0.8 89 -0.8 11 28 974.7 NA 0.0000 9999 2330 0 0 0
2017/11/28 07:25:00 BASE 10.43 352 13.02 360 0.8 89 -0.8 11 29 974.8 NA 0.0000 9999 2300 0 0 0
2017/11/28 07:26:00 BASE 9.58 347 13.02 360 0.8 89 -0.8 11 29 974.9 NA 0.0000 9999 2430 0 0 0
2017/11/28 07:27:00 BASE 9.30 346 13.02 360 0.8 89 -0.8 11 30 974.8 NA 0.0000 9999 1710 0 0 0
2017/11/28 07:28:00 BASE 10.03 356 12.96 23 0.8 89 -0.8 12 31 974.8 NA 0.0000 9999 1540 2850 0 0
2017/11/28 07:29:00 BASE 9.81 358 12.96 23 0.8 89 -0.8 13 32 974.9 NA 0.0000 9999 1770 0 0 0
2017/11/28 07:30:00 BASE 8.71 354 12.96 23 0.8 89 -0.9 13 33 974.9 NA 0.0000 9999 1510 2890 0 0
2017/11/28 07:31:00 BASE 8.38 357 12.81 354 0.8 88 -0.9 14 35 974.9 NA 0.0000 9999 1480 0 0 0
2017/11/28 07:32:00 BASE 7.95 359 12.45 10 0.9 88 -0.9 15 37 975.0 NA 0.0000 9999 1670 2300 0 0
2017/11/28 07:33:00 BASE 8.52 352 12.45 10 0.9 88 -0.9 18 41 974.9 NA 0.0000 9999 1670 0 0 0
2017/11/28 07:34:00 BASE 9.68 348 12.45 10 0.9 88 -0.9 19 44 974.9 NA 0.0000 9999 1540 0 0 0
2017/11/28 07:35:00 BASE 9.89 346 12.45 10 0.9 88 -0.9 21 47 975.0 NA 0.0000 9999 1670 0 0 0
2017/11/28 07:36:00 BASE 9.69 345 12.45 10 1.0 88 -0.8 22 50 975.0 NA 0.0000 9999 1900 0 0 0
2017/11/28 07:37:00 BASE 9.20 348 11.78 1 1.0 87 -0.8 25 55 975.1 NA 0.0000 9999 1870 0 0 0
2017/11/28 07:38:00 BASE 8.76 345 11.63 341 1.1 87 -0.8 28 60 975.1 NA 0.0000 9999 2000 0 0 0
2017/11/28 07:39:00 BASE 8.31 343 11.63 341 1.1 87 -0.9 29 63 975.1 NA 0.0000 9999 1440 0 0 0
2017/11/28 07:40:00 BASE 8.74 344 11.63 341 1.1 86 -0.9 30 65 975.1 NA 0.0000 9999 1440 0 0 0
2017/11/28 07:41:00 BASE 9.10 347 11.63 341 1.1 86 -0.9 30 66 975.1 NA 0.0000 9999 1610 2790 0 0
2017/11/28 07:42:00 BASE 8.73 350 11.63 341 1.1 86 -1.0 31 69 975.1 NA 0.0000 9999 2100 0 0 0
2017/11/28 07:43:00 BASE 8.39 351 11.63 341 1.1 86 -1.0 32 71 975.2 NA 0.0000 9999 1310 0 0 0
2017/11/28 07:44:00 BASE 8.03 351 11.63 341 1.1 86 -1.0 32 72 975.2 NA 0.0000 9999 2070 2720 0 0
2017/11/28 07:45:00 BASE 8.49 348 11.63 341 1.1 86 -1.0 31 71 975.2 NA 0.0000 9999 2000 0 0 0
2017/11/28 07:46:00 BASE 8.50 346 10.60 338 1.1 86 -1.0 30 70 975.3 NA 0.0000 9999 2030 0 0 0
2017/11/28 07:47:00 BASE 8.36 345 10.60 338 1.1 86 -0.9 30 71 975.3 NA 0.0000 9999 1800 0 0 0
2017/11/28 07:48:00 BASE 8.08 343 10.60 338 1.1 86 -0.9 31 72 975.3 NA 0.0000 9999 2170 0 0 0
2017/11/28 07:49:00 BASE 7.34 347 10.60 338 1.1 86 -0.9 32 74 975.4 NA 0.0000 9999 1350 0 0 0
2017/11/28 07:50:00 BASE 6.74 343 10.19 350 1.1 86 -0.9 33 76 975.4 NA 0.0000 9999 1640 0 0 0
2017/11/28 07:51:00 BASE 5.72 335 10.19 350 1.1 86 -0.9 34 78 975.4 NA 0.0000 9999 1540 0 0 0
2017/11/28 07:52:00 BASE 4.98 343 10.19 350 1.1 86 -0.9 34 79 975.5 NA 0.0000 9999 2000 0 0 0
2017/11/28 07:53:00 BASE 4.29 347 10.19 350 1.1 86 -1.0 36 81 975.6 NA 0.0000 9999 1280 0 0 0
2017/11/28 07:54:00 BASE 3.88 341 10.19 350 1.0 87 -0.9 37 84 975.6 NA 0.0000 9999 1510 0 0 0
2017/11/28 07:55:00 BASE 3.51 343 9.26 350 1.0 87 -0.9 39 87 975.6 NA 0.0000 9999 1940 0 0 0
2017/11/28 07:56:00 BASE 2.56 326 9.11 335 1.0 87 -0.9 40 89 975.6 NA 0.0000 9999 2000 0 0 0
2017/11/28 07:57:00 BASE 1.77 245 8.23 338 1.0 87 -0.9 41 89 975.6 NA 0.0000 9999 1970 0 0 0
2017/11/28 07:58:00 BASE 1.98 196 8.23 338 0.9 87 -1.0 40 89 975.6 NA 0.0000 9999 1970 0 0 0
2017/11/28 07:59:00 BASE 3.09 171 7.15 347 0.8 88 -1.1 40 88 975.6 NA 0.0000 9999 1940 0 0 0
2017/11/28 08:00:00 BASE 4.85 142 6.64 134 0.6 88 -1.2 39 88 975.6 NA 0.0000 9999 1940 0 0 0
2017/11/28 08:01:00 BASE 5.85 135 6.64 134 0.3 89 -1.3 39 87 975.6 NA 0.0000 9999 1870 0 0 0
2017/11/28 08:02:00 BASE 5.60 135 6.64 134 0.1 90 -1.3 38 86 975.6 NA 0.0000 9999 2000 0 0 0
2017/11/28 08:03:00 BASE 5.35 133 6.64 134 -0.1 92 -1.3 37 85 975.7 NA 0.0000 9999 1870 0 0 0
2017/11/28 08:04:00 BASE 5.09 132 6.64 134 -0.2 93 -1.2 37 85 975.7 NA 0.0000 9999 1510 0 0 0
2017/11/28 08:05:00 BASE 4.88 130 6.64 134 -0.3 94 -1.1 36 84 975.8 NA 0.0000 9999 1640 0 0 0
2017/11/28 08:06:00 BASE 4.64 128 6.64 134 -0.3 95 -1.0 35 83 975.8 NA 0.0000 9999 1900 0 0 0
2017/11/28 08:07:00 BASE 4.59 125 6.64 134 -0.2 95 -0.9 35 83 975.8 NA 0.0000 9999 1740 0 0 0
2017/11/28 08:08:00 BASE 4.47 126 6.64 134 -0.2 96 -0.8 35 83 975.8 NA 0.0000 9999 1840 0 0 0
2017/11/28 08:09:00 BASE 4.36 136 6.64 134 -0.2 96 -0.8 36 85 975.9 NA 0.0000 9999 1900 0 0 0
2017/11/28 08:10:00 BASE 4.69 141 6.17 137 -0.3 96 -0.8 37 88 975.9 NA 0.0000 9999 2000 0 0 0
2017/11/28 08:11:00 BASE 4.98 138 6.02 135 -0.4 96 -0.9 38 90 975.9 NA 0.0000 9999 1900 0 0 0
2017/11/28 08:12:00 BASE 4.60 136 5.71 137 -0.5 96 -1.1 38 92 976.0 NA 0.0000 9999 1900 0 0 0
2017/11/28 08:13:00 BASE 4.80 131 5.92 121 -0.7 97 -1.1 38 93 976.0 NA 0.0000 UP 9999 1970 0 0 0
2017/11/28 08:14:00 BASE 5.47 124 6.17 121 -0.8 97 -1.2 39 96 975.9 NA 0.0000 UP 9999 1150 0 0 0
2017/11/28 08:15:00 BASE 5.97 120 6.69 116 -0.9 97 -1.3 40 100 975.9 NA 0.0000 UP 9999 1670 0 0 0
2017/11/28 08:16:00 BASE 6.10 116 6.69 116 -1.0 98 -1.2 42 103 975.9 NA 0.0000 UP 9999 1710 0 0 0
2017/11/28 08:17:00 BASE 5.68 114 6.69 116 -1.0 98 -1.2 42 104 976.0 NA 0.0000 UP 9999 1280 0 0 0
2017/11/28 08:18:00 BASE 5.13 116 6.69 116 -1.1 99 -1.3 42 106 976.0 NA 0.0000 UP 9999 2170 0 0 0
2017/11/28 08:19:00 BASE 4.89 115 6.69 116 -1.1 99 -1.3 44 110 976.0 NA 0.0000 UP 9999 2100 0 0 0
2017/11/28 08:20:00 BASE 5.17 113 6.69 116 -1.2 99 -1.2 48 117 976.0 NA 0.0000 UP 9999 2000 0 0 0
2017/11/28 08:21:00 BASE 5.23 115 6.69 116 -1.2 100 -1.2 53 126 976.0 NA 0.0000 UP 9999 2070 0 0 0
2017/11/28 08:22:00 BASE 5.22 114 6.69 116 -1.2 100 -1.2 58 136 976.0 NA 0.0000 9999 2030 0 0 0
2017/11/28 08:23:00 BASE 5.35 112 6.69 116 -1.1 100 -1.1 64 145 976.0 NA 0.0000 9999 1740 0 0 0
2017/11/28 08:24:00 BASE 5.28 112 6.69 116 -1.1 100 -1.1 68 152 976.0 NA 0.0000 9999 2030 0 0 0
2017/11/28 08:25:00 BASE 4.92 110 6.17 116 -1.1 100 -1.1 71 157 976.1 NA 0.0000 9999 2100 0 0 0
2017/11/28 08:26:00 BASE 4.88 108 6.17 116 -1.1 100 -1.1 76 165 976.1 NA 0.0000 9999 2070 0 0 0
2017/11/28 08:27:00 BASE 5.23 109 6.17 116 -1.1 100 -1.1 83 177 976.2 NA 0.0000 9999 2100 0 0 0
2017/11/28 08:28:00 BASE 5.22 113 6.17 116 -1.1 100 -1.1 91 191 976.2 NA 0.0000 9999 2030 0 0 0
2017/11/28 08:29:00 BASE 5.10 118 6.17 116 -1.1 100 -1.1 96 199 976.2 NA 0.0000 9999 2130 22930 0 0
2017/11/28 08:30:00 BASE 4.78 119 5.92 112 -1.1 100 -1.1 96 200 976.2 NA 0.0000 9999 2130 0 0 0
2017/11/28 08:31:00 BASE 4.20 121 5.92 112 -1.1 100 -1.1 95 199 976.3 NA 0.0000 9999 2170 0 0 0
2017/11/28 08:32:00 BASE 4.07 122 5.92 112 -1.1 100 -1.1 92 194 976.4 NA 0.0000 9999 2100 0 0 0
2017/11/28 08:33:00 BASE 4.04 121 5.92 112 -1.0 100 -1.0 85 184 976.4 NA 0.0000 9999 2100 0 0 0
2017/11/28 08:34:00 BASE 3.62 124 5.92 112 -1.0 100 -1.0 79 174 976.5 NA 0.0000 9999 2170 0 0 0
2017/11/28 08:35:00 BASE 3.69 129 5.92 112 -0.9 100 -0.9 76 168 976.5 NA 0.0000 9999 2170 0 0 0
2017/11/28 08:36:00 BASE 4.16 131 5.81 113 -0.9 100 -0.9 75 167 976.5 NA 0.0000 9999 2200 0 0 0
2017/11/28 08:37:00 BASE 4.12 129 5.56 121 -0.9 100 -0.9 76 170 976.5 NA 0.0000 9999 2230 0 0 0
2017/11/28 08:38:00 BASE 3.68 126 5.56 121 -0.9 100 -0.9 79 174 976.5 NA 0.0000 9999 2230 0 0 0
2017/11/28 08:39:00 BASE 3.48 123 4.78 121 -0.9 100 -0.9 81 179 976.5 NA 0.0000 9999 2100 0 0 0
2017/11/28 08:40:00 BASE 3.52 122 4.68 134 -0.9 100 -0.9 84 184 976.5 NA 0.0000 9999 2100 0 0 0
2017/11/28 08:41:00 BASE 3.63 128 4.68 134 -0.8 100 -0.8 87 190 976.5 NA 0.0000 9999 2260 0 0 0
2017/11/28 08:42:00 BASE 3.89 133 4.68 134 -0.8 100 -0.8 89 193 976.5 NA 0.0000 9999 2170 0 0 0
2017/11/28 08:43:00 BASE 3.91 139 4.68 134 -0.8 100 -0.8 88 192 976.5 NA 0.0000 9999 2200 0 0 0
2017/11/28 08:44:00 BASE 3.67 142 4.68 134 -0.7 100 -0.7 86 190 976.5 NA 0.0000 9999 2130 0 0 0
2017/11/28 08:45:00 BASE 3.60 145 4.68 134 -0.7 100 -0.7 87 192 976.5 NA 0.0000 9999 2170 0 0 0
2017/11/28 08:46:00 BASE 3.55 144 4.48 138 -0.7 100 -0.7 90 198 976.5 NA 0.0000 9999 1840 0 0 0
2017/11/28 08:47:00 BASE 3.37 144 4.48 138 -0.6 100 -0.6 92 201 976.6 NA 0.0000 9999 2170 0 0 0
2017/11/28 08:48:00 BASE 3.17 144 4.48 138 -0.6 100 -0.6 92 201 976.6 NA 0.0000 9999 1710 0 0 0
2017/11/28 08:49:00 BASE 3.06 139 4.48 138 -0.6 100 -0.6 88 196 976.6 NA 0.0000 9999 1740 0 0 0
2017/11/28 08:50:00 BASE 2.98 134 4.48 138 -0.6 100 -0.6 84 190 976.7 NA 0.0000 9999 1870 0 0 0
2017/11/28 08:51:00 BASE 2.65 135 4.48 138 -0.6 100 -0.6 80 183 976.7 NA 0.0000 9999 2170 0 0 0
2017/11/28 08:52:00 BASE 2.62 136 4.22 144 -0.6 100 -0.6 77 178 976.7 NA 0.0000 9999 2200 0 0 0
2017/11/28 08:53:00 BASE 2.96 141 3.91 145 -0.6 100 -0.6 77 178 976.7 NA 0.0000 9999 2170 0 0 0
2017/11/28 08:54:00 BASE 3.15 146 3.91 145 -0.6 100 -0.6 77 179 976.7 NA 0.0000 9999 2130 0 0 0
2017/11/28 08:55:00 BASE 3.30 146 4.22 138 -0.5 100 -0.5 77 179 976.7 NA 0.0000 UP 9999 2100 0 0 0
2017/11/28 08:56:00 BASE 3.68 146 4.63 142 -0.5 100 -0.5 77 180 976.7 NA 0.0000 UP 9999 2170 0 0 0
2017/11/28 08:57:00 BASE 4.00 143 4.63 142 -0.5 100 -0.5 78 182 976.7 NA 0.0000 UP 9999 2070 0 0 0
2017/11/28 08:58:00 BASE 4.16 136 4.63 137 -0.5 100 -0.5 79 184 976.7 NA 0.0000 UP 9999 2230 19460 0 0
2017/11/28 08:59:00 BASE 4.45 132 5.04 133 -0.6 100 -0.6 79 184 976.7 NA 0.0000 UP 9999 2360 0 0 0
2017/11/28 09:00:00 BASE 4.57 135 5.25 135 -0.6 100 -0.6 78 184 976.7 NA 0.0000 UP 9999 2100 0 0 0
2017/11/28 09:01:00 BASE 4.71 134 5.40 132 -0.7 100 -0.7 78 184 976.7 NA 0.0000 UP 9999 2070 0 0 0
2017/11/28 09:02:00 BASE 5.19 132 5.81 130 -0.7 100 -0.7 79 187 976.7 NA 0.0000 UP 9999 2000 0 0 0
2017/11/28 09:03:00 BASE 5.55 132 5.92 132 -0.8 100 -0.8 82 192 976.7 NA 0.0000 UP 9999 2070 0 0 0
2017/11/28 09:04:00 BASE 5.58 131 5.92 132 -0.8 100 -0.8 83 195 976.7 NA 0.0000 UP 9999 2530 0 0 0
2017/11/28 09:05:00 BASE 5.36 129 5.92 132 -0.9 100 -0.9 84 197 976.8 NA 0.0000 UP 9999 2070 0 0 0
2017/11/28 09:06:00 BASE 5.11 131 5.92 132 -0.9 100 -0.9 83 197 976.8 NA 0.0000 UP 9999 2070 0 0 0
2017/11/28 09:07:00 BASE 4.93 134 5.92 132 -0.9 100 -0.9 83 198 976.8 NA 0.0000 UP 9999 2030 0 0 0
2017/11/28 09:08:00 BASE 4.67 137 5.92 132 -0.9 100 -0.9 84 200 976.9 NA 0.0000 UP 9999 2030 0 0 0
2017/11/28 09:09:00 BASE 4.21 139 5.92 132 -0.9 100 -0.9 85 202 977.0 NA 0.0000 UP 9999 2070 0 0 0
2017/11/28 09:10:00 BASE 3.71 139 5.92 132 -0.9 100 -0.9 86 205 977.0 NA 0.0000 UP 9999 2070 0 0 0
2017/11/28 09:11:00 BASE 3.44 139 5.92 132 -0.9 100 -0.9 90 212 977.0 NA 0.0000 UP 9999 2330 0 0 0
2017/11/28 09:12:00 BASE 3.40 138 5.92 132 -0.9 100 -0.9 95 221 977.1 NA 0.0000 UP 9999 2230 23330 0 0
2017/11/28 09:13:00 BASE 3.37 138 5.81 129 -0.9 100 -0.9 100 231 977.1 NA 0.0000 UP 9999 2200 0 0 0
2017/11/28 09:14:00 BASE 3.23 138 5.71 128 -0.9 100 -0.9 102 237 977.1 NA 0.0000 UP 9999 2400 2890 0 0
2017/11/28 09:15:00 BASE 3.13 138 5.14 134 -0.9 100 -0.9 104 242 977.1 NA 0.0000 UP 9999 2660 0 0 0
2017/11/28 09:16:00 BASE 3.07 135 5.04 134 -0.9 100 -0.9 107 247 977.1 NA 0.0000 UP 9999 2590 0 0 0
2017/11/28 09:17:00 BASE 2.97 131 4.89 137 -0.9 100 -0.9 110 254 977.1 NA 0.0000 UP 9000 2560 0 0 0
2017/11/28 09:18:00 BASE 2.79 127 4.22 134 -0.9 100 -0.9 115 264 977.2 NA 0.0000 UP 9000 2130 0 0 0
2017/11/28 09:19:00 BASE 2.73 127 3.70 137 -0.9 100 -0.9 121 275 977.2 NA 0.0000 UP 9000 2230 0 0 0
2017/11/28 09:20:00 BASE 2.61 129 3.55 140 -0.9 100 -0.9 128 290 977.3 NA 0.0000 UP 9999 2460 0 0 0
2017/11/28 09:21:00 BASE 2.31 129 3.55 140 -0.9 100 -0.9 139 311 977.3 NA 0.0000 UP 9999 2460 0 0 0
2017/11/28 09:22:00 BASE 1.98 130 3.55 140 -0.8 100 -0.8 153 338 977.3 NA 0.0000 UP 9999 2460 0 0 0
2017/11/28 09:23:00 BASE 1.53 133 3.24 136 -0.8 100 -0.8 171 372 977.4 NA 0.0000 UP 9999 2330 0 0 0
2017/11/28 09:24:00 BASE 0.89 140 3.24 136 -0.8 100 -0.8 188 404 977.4 NA 0.0000 UP 9999 2590 0 0 0
2017/11/28 09:25:00 BASE 0.74 155 3.19 134 -0.7 100 -0.7 203 432 977.5 NA 0.0000 UP 9999 2130 2890 0 0
2017/11/28 09:26:00 BASE 0.85 182 2.98 130 -0.7 100 -0.7 215 452 977.6 NA 0.0000 UP 9999 2170 0 0 0
2017/11/28 09:27:00 BASE 0.85 196 2.98 130 -0.7 100 -0.7 205 438 977.6 NA 0.0000 UP 9999 1940 2620 0 0
2017/11/28 09:28:00 BASE 0.99 195 2.98 130 -0.7 100 -0.7 193 418 977.6 NA 0.0000 UP 9999 2030 0 0 0
2017/11/28 09:29:00 BASE 1.47 192 2.62 128 -0.7 100 -0.7 198 425 977.6 NA 0.0000 9999 2130 0 0 0
2017/11/28 09:30:00 BASE 1.75 186 2.31 133 -0.7 100 -0.7 196 423 977.6 NA 0.0000 9000 2200 0 0 0
2017/11/28 09:31:00 BASE 1.46 182 2.11 188 -0.7 100 -0.7 187 411 977.6 NA 0.0000 9999 2430 0 0 0
2017/11/28 09:32:00 BASE 1.33 184 2.11 188 -0.7 100 -0.7 193 423 977.6 NA 0.0000 9999 2530 0 0 0
2017/11/28 09:33:00 BASE 1.05 187 2.11 188 -0.8 100 -0.8 211 455 977.6 NA 0.0000 UP 9999 1380 2560 0 0
2017/11/28 09:34:00 BASE 0.40 190 2.11 188 -0.8 100 -0.8 240 507 977.6 NA 0.0000 UP 9999 1310 2360 0 0
2017/11/28 09:35:00 BASE 0.00 192 2.11 188 -0.7 100 -0.7 256 536 977.5 NA 0.0000 UP 9999 1180 2400 0 0
2017/11/28 09:36:00 BASE 0.00 190 2.11 188 -0.7 100 -0.7 268 561 977.4 NA 0.0000 UP 9999 1120 0 0 0
2017/11/28 09:37:00 BASE 0.00 188 2.11 188 -0.7 100 -0.7 290 599 977.4 NA 0.0000 UP 9999 1080 0 0 0
2017/11/28 09:38:00 BASE 0.00 194 2.11 188 -0.7 100 -0.7 426 839 977.4 NA 0.0000 UP 9999 980 20210 0 0
2017/11/28 09:39:00 BASE 0.00 205 1.85 180 -0.7 100 -0.7 480 927 977.4 NA 0.0000 UP 9999 950 0 0 0
2017/11/28 09:40:00 BASE 0.00 196 1.44 179 -0.7 100 -0.7 504 967 977.4 NA 0.0000 9999 950 0 0 0
2017/11/28 09:41:00 BASE 0.24 190 1.39 194 -0.6 100 -0.6 440 864 977.4 NA 0.0000 9999 950 20570 0 0
2017/11/28 09:42:00 BASE 0.29 189 1.29 201 -0.6 100 -0.6 412 820 977.4 NA 0.0000 9999 890 0 0 0
2017/11/28 09:43:00 BASE 0.72 187 1.54 180 -0.6 100 -0.6 344 699 977.4 NA 0.0000 9999 850 0 0 0
2017/11/28 09:44:00 BASE 1.33 183 1.59 172 -0.6 100 -0.6 389 783 977.4 NA 0.0000 9999 820 0 0 0
2017/11/28 09:45:00 BASE 1.50 175 2.06 172 -0.6 100 -0.6 376 755 977.3 NA 0.0000 9999 850 0 0 0
2017/11/28 09:46:00 BASE 1.75 173 2.06 172 -0.6 100 -0.6 394 787 977.3 NA 0.0000 9999 850 2820 0 0
2017/11/28 09:47:00 BASE 1.83 175 2.37 176 -0.5 100 -0.5 393 786 977.3 NA 0.0000 9999 890 0 0 0
2017/11/28 09:48:00 BASE 1.65 178 2.37 176 -0.5 100 -0.5 393 791 977.2 NA 0.0000 9999 850 0 0 0
2017/11/28 09:49:00 BASE 1.36 177 2.37 176 -0.5 100 -0.5 387 778 977.2 NA 0.0000 9999 890 0 0 0
2017/11/28 09:50:00 BASE 1.42 174 2.37 176 -0.5 100 -0.5 328 674 977.2 NA 0.0000 9999 890 0 0 0
2017/11/28 09:51:00 BASE 1.57 179 2.37 176 -0.5 100 -0.5 274 578 977.3 NA 0.0000 9999 890 0 0 0
2017/11/28 09:52:00 BASE 1.59 183 2.37 176 -0.4 100 -0.4 252 537 977.3 NA 0.0000 9999 920 0 0 0
2017/11/28 09:53:00 BASE 1.44 182 2.37 176 -0.4 100 -0.4 211 461 977.3 NA 0.0000 9999 920 0 0 0
2017/11/28 09:54:00 BASE 1.49 185 2.37 176 -0.4 100 -0.4 199 438 977.3 NA 0.0000 9999 920 0 0 0
2017/11/28 09:55:00 BASE 1.75 184 2.37 176 -0.4 100 -0.4 189 421 977.3 NA 0.0000 9999 850 0 0 0
2017/11/28 09:56:00 BASE 1.69 176 2.37 176 -0.5 100 -0.5 164 374 977.3 NA 0.0000 9999 850 0 0 0
2017/11/28 09:57:00 BASE 1.61 165 2.06 188 -0.5 100 -0.5 168 381 977.4 NA 0.0000 9999 790 0 0 0
2017/11/28 09:58:00 BASE 1.71 153 2.37 144 -0.5 100 -0.5 172 390 977.4 NA 0.0000 9999 720 0 0 0
2017/11/28 09:59:00 BASE 1.99 151 2.52 147 -0.5 100 -0.5 180 406 977.5 NA 0.0000 9999 790 0 0 0
2017/11/28 10:00:00 BASE 2.15 145 2.52 147 -0.5 100 -0.5 194 435 977.6 NA 0.0000 9999 750 0 0 0
2017/11/28 10:01:00 BASE 2.37 140 2.88 140 -0.4 100 -0.4 214 473 977.6 NA 0.0000 9999 750 0 0 0
2017/11/28 10:02:00 BASE 2.33 149 2.88 140 -0.4 100 -0.4 218 482 977.6 NA 0.0000 9999 750 0 0 0
2017/11/28 10:03:00 BASE 1.70 153 2.88 140 -0.4 100 -0.5 234 513 977.6 NA 0.0000 9999 720 0 0 0
2017/11/28 10:04:00 BASE 1.31 145 2.88 140 -0.4 100 -0.5 222 491 977.6 NA 0.0000 9999 790 0 0 0
2017/11/28 10:05:00 BASE 1.28 131 2.88 140 -0.4 99 -0.5 207 464 977.6 NA 0.0000 9999 790 0 0 0
2017/11/28 10:06:00 BASE 1.12 124 2.88 140 -0.4 99 -0.6 215 478 977.6 NA 0.0000 9999 750 0 0 0
2017/11/28 10:07:00 BASE 0.82 123 2.88 140 -0.5 99 -0.6 223 494 977.7 NA 0.0000 9999 750 0 0 0
2017/11/28 10:08:00 BASE 0.78 120 2.88 140 -0.5 99 -0.6 227 503 977.7 NA 0.0000 9999 820 0 0 0
2017/11/28 10:09:00 BASE 0.63 120 2.88 140 -0.5 99 -0.6 225 500 977.7 NA 0.0000 9999 850 0 0 0
2017/11/28 10:10:00 BASE 0.65 113 2.88 140 -0.5 99 -0.6 226 500 977.6 NA 0.0000 9999 850 0 0 0
2017/11/28 10:11:00 BASE 0.66 104 2.57 164 -0.5 99 -0.6 231 511 977.6 NA 0.0000 9999 820 0 0 0
2017/11/28 10:12:00 BASE 0.33 99 1.85 154 -0.4 99 -0.6 222 494 977.6 NA 0.0000 9999 820 0 0 0
2017/11/28 10:13:00 BASE 0.63 96 1.59 141 -0.4 99 -0.5 228 504 977.6 NA 0.0000 9999 850 0 0 0
2017/11/28 10:14:00 BASE 0.54 103 1.44 120 -0.4 99 -0.5 219 488 977.6 NA 0.0000 9999 790 0 0 0
2017/11/28 10:15:00 BASE 0.04 97 1.39 96 -0.3 98 -0.6 197 445 977.6 NA 0.0000 9999 750 0 0 0
2017/11/28 10:16:00 BASE 0.00 75 1.39 96 -0.4 98 -0.6 194 439 977.6 NA 0.0000 9999 750 0 0 0
2017/11/28 10:17:00 BASE 0.00 63 1.39 96 -0.3 98 -0.6 198 447 977.6 NA 0.0000 9999 790 0 0 0
2017/11/28 10:18:00 BASE 0.00 62 1.39 96 -0.3 98 -0.6 195 442 977.6 NA 0.0000 9999 720 0 0 0
2017/11/28 10:19:00 BASE 0.00 86 1.39 96 -0.3 98 -0.6 217 484 977.6 NA 0.0000 9999 720 0 0 0
2017/11/28 10:20:00 BASE 0.00 113 1.29 98 -0.3 98 -0.5 233 516 977.7 NA 0.0000 9999 790 20570 0 0
2017/11/28 10:21:00 BASE 0.00 118 1.29 98 -0.2 98 -0.5 257 559 977.7 NA 0.0000 9999 750 0 0 0
2017/11/28 10:22:00 BASE 0.00 118 1.29 98 -0.2 98 -0.5 255 555 977.7 NA 0.0000 9999 750 0 0 0
2017/11/28 10:23:00 BASE 0.00 118 1.03 113 -0.2 98 -0.5 223 498 977.7 NA 0.0000 9999 790 0 0 0
2017/11/28 10:24:00 BASE 0.00 114 M M -0.2 98 -0.5 216 484 977.7 NA 0.0000 9999 750 0 0 0
2017/11/28 10:25:00 BASE 0.00 58 M M -0.2 98 -0.5 233 516 977.7 NA 0.0000 9999 750 0 0 0
2017/11/28 10:26:00 BASE 0.09 8 1.08 8 -0.2 98 -0.5 243 536 977.7 NA 0.0000 9999 690 0 0 0
2017/11/28 10:27:00 BASE 0.23 3 1.18 353 -0.2 98 -0.4 264 576 977.8 NA 0.0000 9999 750 21130 0 0
2017/11/28 10:28:00 BASE 0.56 351 1.39 353 -0.1 98 -0.4 268 584 977.8 NA 0.0000 9999 790 0 0 0
2017/11/28 10:29:00 BASE 1.15 339 1.65 332 -0.1 98 -0.3 264 578 977.8 NA 0.0000 9999 720 0 0 0
2017/11/28 10:30:00 BASE 1.57 334 1.85 337 -0.1 99 -0.3 241 536 977.8 NA 0.0000 9999 750 0 0 0
2017/11/28 10:31:00 BASE 1.70 332 1.85 331 -0.2 99 -0.3 278 605 977.8 NA 0.0000 9999 790 0 0 0
2017/11/28 10:32:00 BASE 1.70 330 1.85 331 -0.2 99 -0.3 304 655 977.8 NA 0.0000 9999 820 23130 0 0
2017/11/28 10:33:00 BASE 1.75 331 1.90 332 -0.2 99 -0.3 320 687 977.8 NA 0.0000 9999 790 22310 0 0
2017/11/28 10:34:00 BASE 1.67 332 1.90 332 -0.2 99 -0.3 326 700 977.8 NA 0.0000 9999 820 0 0 0
2017/11/28 10:35:00 BASE 1.48 335 1.90 332 -0.2 99 -0.3 307 670 977.9 NA 0.0000 9999 850 0 0 0
2017/11/28 10:36:00 BASE 1.29 338 1.90 332 -0.2 99 -0.2 323 701 977.9 NA 0.0000 9999 850 0 0 0
2017/11/28 10:37:00 BASE 1.11 337 1.90 332 -0.1 100 -0.2 319 696 977.9 NA 0.0000 9999 850 0 0 0
2017/11/28 10:38:00 BASE 1.23 331 1.90 332 -0.1 100 -0.1 310 681 977.9 NA 0.0000 9999 790 0 0 0
2017/11/28 10:39:00 BASE 1.35 328 1.90 332 -0.1 100 -0.2 296 655 978.0 NA 0.0000 9999 790 0 0 0
2017/11/28 10:40:00 BASE 1.39 325 1.90 332 -0.1 99 -0.2 316 693 978.1 NA 0.0000 9999 820 0 0 0
2017/11/28 10:41:00 BASE 1.66 320 1.95 318 -0.1 99 -0.1 296 656 978.1 NA 0.0000 9999 790 0 0 0
2017/11/28 10:42:00 BASE 1.81 314 2.11 302 -0.0 99 -0.1 295 657 978.1 NA 0.0000 9999 720 0 0 0
2017/11/28 10:43:00 BASE 2.11 303 2.73 300 -0.1 99 -0.2 282 634 978.2 NA 0.0000 9999 720 0 0 0
2017/11/28 10:44:00 BASE 2.69 295 3.60 290 -0.1 99 -0.2 282 636 978.2 NA 0.0000 9999 750 0 0 0
2017/11/28 10:45:00 BASE 3.07 291 3.60 290 -0.1 100 -0.2 262 596 978.2 NA 0.0000 9999 720 0 0 0
2017/11/28 10:46:00 BASE 3.03 289 3.60 290 -0.2 100 -0.2 250 573 978.2 NA 0.0000 9999 690 0 0 0
2017/11/28 10:47:00 BASE 2.83 288 3.60 290 -0.2 100 -0.2 241 557 978.2 NA 0.0000 9999 660 0 0 0
2017/11/28 10:48:00 BASE 2.72 283 3.60 290 -0.3 100 -0.3 223 519 978.2 NA 0.0000 9999 660 0 0 0
2017/11/28 10:49:00 BASE 2.61 281 3.60 290 -0.3 100 -0.3 213 498 978.3 NA 0.0000 9999 520 0 0 0
2017/11/28 10:50:00 BASE 2.48 278 3.60 290 -0.3 100 -0.3 207 487 978.3 NA 0.0000 9999 520 0 0 0
2017/11/28 10:51:00 BASE 2.58 271 3.60 290 -0.3 100 -0.3 204 480 978.3 NA 0.0000 9999 490 0 0 0
2017/11/28 10:52:00 BASE 2.71 270 3.60 290 -0.3 100 -0.3 201 476 978.3 NA 0.0000 9999 590 0 0 0
2017/11/28 10:53:00 BASE 2.82 271 3.60 290 -0.3 100 -0.3 199 471 978.4 NA 0.0000 9999 590 0 0 0
2017/11/28 10:54:00 BASE 2.97 272 3.34 290 -0.4 100 -0.4 197 467 978.4 NA 0.0000 9999 590 0 0 0
2017/11/28 10:55:00 BASE 2.85 275 3.19 269 -0.4 100 -0.4 193 459 978.4 NA 0.0000 9999 560 0 0 0
2017/11/28 10:56:00 BASE 2.58 276 3.19 269 -0.4 100 -0.4 193 460 978.4 NA 0.0000 9999 490 0 0 0
2017/11/28 10:57:00 BASE 2.40 272 3.19 269 -0.4 100 -0.4 197 468 978.5 NA 0.0000 9999 490 0 0 0
2017/11/28 10:58:00 BASE 2.37 271 3.19 269 -0.4 100 -0.4 203 482 978.4 NA 0.0000 9999 430 0 0 0
2017/11/28 10:59:00 BASE 2.29 274 3.19 269 -0.4 100 -0.4 209 496 978.5 NA 0.0000 9999 430 0 0 0
2017/11/28 11:00:00 BASE 2.28 276 3.19 269 -0.4 100 -0.4 216 510 978.4 NA 0.0000 9999 360 0 0 0
2017/11/28 11:01:00 BASE 2.57 279 3.19 278 -0.5 100 -0.5 220 518 978.4 NA 0.0000 9999 360 0 0 0
2017/11/28 11:02:00 BASE 2.92 279 3.91 277 -0.5 100 -0.5 225 528 978.4 NA 0.0000 9999 360 0 0 0
2017/11/28 11:03:00 BASE 3.27 277 3.91 277 -0.5 100 -0.5 233 545 978.4 NA 0.0000 9999 490 0 0 0
2017/11/28 11:04:00 BASE 3.53 283 3.91 289 -0.5 100 -0.5 248 574 978.4 NA 0.0000 9000 520 0 0 0
2017/11/28 11:05:00 BASE 3.93 289 4.58 289 -0.5 100 -0.5 267 610 978.4 NA 0.0000 9000 620 0 0 0
2017/11/28 11:06:00 BASE 4.22 293 4.58 289 -0.5 100 -0.5 280 634 978.4 NA 0.0000 9999 560 1250 0 0
2017/11/28 11:07:00 BASE 4.20 300 4.58 289 -0.5 100 -0.5 291 656 978.4 NA 0.0000 9999 430 0 0 0
2017/11/28 11:08:00 BASE 4.02 301 4.58 289 -0.6 100 -0.6 303 680 978.4 NA 0.0000 9999 820 0 0 0
2017/11/28 11:09:00 BASE 3.88 299 4.58 289 -0.6 100 -0.6 319 714 978.4 NA 0.0000 9999 330 920 0 0
2017/11/28 11:10:00 BASE 4.09 301 4.99 312 -0.6 100 -0.6 328 734 978.4 NA 0.0000 9999 360 0 0 0
2017/11/28 11:11:00 BASE 4.01 309 4.99 312 -0.6 100 -0.6 337 754 978.4 NA 0.0000 9999 360 0 0 0
2017/11/28 11:12:00 BASE 3.42 320 4.99 312 -0.6 100 -0.6 345 771 978.5 NA 0.0000 9999 520 0 0 0
2017/11/28 11:13:00 BASE 2.90 321 4.99 312 -0.5 100 -0.5 303 686 978.5 NA 0.0000 9999 390 0 0 0
2017/11/28 11:14:00 BASE 2.62 314 4.99 312 -0.5 100 -0.5 266 615 978.5 NA 0.0000 9999 300 0 0 0
2017/11/28 11:15:00 BASE 2.61 308 4.99 312 -0.5 100 -0.5 254 588 978.5 NA 0.0000 9999 330 0 0 0
2017/11/28 11:16:00 BASE 2.86 301 4.99 312 -0.5 100 -0.5 262 601 978.5 NA 0.0000 9999 390 0 0 0
2017/11/28 11:17:00 BASE 2.90 298 4.99 312 -0.5 100 -0.5 268 614 978.5 NA 0.0000 9999 430 1740 0 0
2017/11/28 11:18:00 BASE 2.98 299 4.99 312 -0.6 100 -0.6 258 597 978.5 NA 0.0000 9999 360 0 0 0
2017/11/28 11:19:00 BASE 3.04 300 4.99 312 -0.6 100 -0.6 249 579 978.6 NA 0.0000 9999 330 0 0 0
2017/11/28 11:20:00 BASE 2.73 299 4.89 311 -0.6 100 -0.6 250 583 978.6 NA 0.0000 9999 300 0 0 0
2017/11/28 11:21:00 BASE 2.51 295 3.40 314 -0.7 100 -0.7 252 587 978.7 NA 0.0000 9999 300 0 0 0
2017/11/28 11:22:00 BASE 2.53 291 3.24 299 -0.7 100 -0.7 249 581 978.7 NA 0.0000 9999 300 0 0 0
2017/11/28 11:23:00 BASE 2.57 287 3.24 299 -0.7 100 -0.7 258 601 978.7 NA 0.0000 9999 360 0 0 0
2017/11/28 11:24:00 BASE 2.39 284 3.24 299 -0.7 100 -0.7 254 593 978.7 NA 0.0000 9999 390 0 0 0
2017/11/28 11:25:00 BASE 2.12 283 3.24 299 -0.6 100 -0.6 257 601 978.7 NA 0.0000 9999 390 0 0 0
2017/11/28 11:26:00 BASE 2.06 282 3.24 299 -0.6 100 -0.6 263 613 978.7 NA 0.0000 9999 390 0 0 0
2017/11/28 11:27:00 BASE 2.21 282 3.24 299 -0.6 100 -0.6 268 624 978.7 NA 0.0000 9999 430 0 0 0
2017/11/28 11:28:00 BASE 2.34 284 3.24 299 -0.6 100 -0.6 256 599 978.7 NA 0.0000 9999 390 0 0 0
2017/11/28 11:29:00 BASE 2.48 288 2.83 293 -0.7 100 -0.7 260 608 978.7 NA 0.0000 9999 390 0 0 0
2017/11/28 11:30:00 BASE 2.70 292 2.93 290 -0.7 100 -0.7 260 607 978.7 NA 0.0000 9999 430 0 0 0
2017/11/28 11:31:00 BASE 2.84 294 3.09 292 -0.7 100 -0.7 255 597 978.7 NA 0.0000 9999 390 0 0 0
2017/11/28 11:32:00 BASE 2.93 295 3.19 295 -0.7 100 -0.7 257 601 978.7 NA 0.0000 9999 360 0 0 0
2017/11/28 11:33:00 BASE 2.89 298 3.19 295 -0.8 100 -0.8 253 594 978.7 NA 0.0000 9999 300 0 0 0
2017/11/28 11:34:00 BASE 2.86 302 3.19 295 -0.8 100 -0.8 248 584 978.7 NA 0.0000 9999 330 0 0 0
2017/11/28 11:35:00 BASE 2.83 306 3.19 305 -0.7 100 -0.7 241 568 978.7 NA 0.0000 9999 300 0 0 0
2017/11/28 11:36:00 BASE 2.76 309 3.19 305 -0.7 100 -0.7 249 588 978.7 NA 0.0000 9999 260 0 0 0
2017/11/28 11:37:00 BASE 2.52 312 3.19 305 -0.7 100 -0.7 252 595 978.7 NA 0.0000 9000 230 0 0 0
2017/11/28 11:38:00 BASE 2.35 310 3.19 305 -0.6 100 -0.6 258 607 978.7 NA 0.0000 9999 260 0 0 0
2017/11/28 11:39:00 BASE 2.30 308 3.19 305 -0.6 100 -0.6 251 594 978.6 NA 0.0000 9999 300 0 0 0
2017/11/28 11:40:00 BASE 2.44 309 3.19 305 -0.6 100 -0.6 247 585 978.6 NA 0.0000 9999 260 0 0 0
2017/11/28 11:41:00 BASE 2.63 309 3.19 305 -0.6 100 -0.6 248 589 978.6 NA 0.0000 9999 260 0 0 0
2017/11/28 11:42:00 BASE 2.36 307 3.19 305 -0.6 100 -0.6 256 602 978.5 NA 0.0000 9999 230 0 0 0
2017/11/28 11:43:00 BASE 1.97 306 3.19 305 -0.6 100 -0.6 270 629 978.5 NA 0.0000 9999 260 0 0 0
2017/11/28 11:44:00 BASE 1.98 301 3.19 305 -0.7 100 -0.7 273 637 978.5 NA 0.0000 9999 300 0 0 0
2017/11/28 11:45:00 BASE 2.15 296 2.88 310 -0.7 100 -0.7 269 629 978.5 NA 0.0000 9999 330 0 0 0
2017/11/28 11:46:00 BASE 2.25 295 2.83 311 -0.7 100 -0.7 275 641 978.5 NA 0.0000 9999 390 0 0 0
2017/11/28 11:47:00 BASE 2.21 296 2.83 311 -0.7 100 -0.7 286 665 978.5 NA 0.0000 9999 360 0 0 0
2017/11/28 11:48:00 BASE 2.15 298 2.83 311 -0.7 100 -0.7 290 673 978.5 NA 0.0000 9999 430 0 0 0
2017/11/28 11:49:00 BASE 2.19 300 2.83 311 -0.8 100 -0.8 299 691 978.5 NA 0.0000 9999 390 0 0 0
2017/11/28 11:50:00 BASE 2.17 302 2.78 306 -0.7 100 -0.7 308 707 978.5 NA 0.0000 9999 230 0 0 0
2017/11/28 11:51:00 BASE 2.12 304 2.47 306 -0.8 100 -0.8 340 772 978.5 NA 0.0000 9999 300 0 0 0
2017/11/28 11:52:00 BASE 2.01 302 2.42 297 -0.8 100 -0.8 365 822 978.5 NA 0.0000 9000 300 20470 0 0
2017/11/28 11:53:00 BASE 1.87 301 2.42 297 -0.8 100 -0.8 376 842 978.5 NA 0.0000 9000 260 0 0 0
2017/11/28 11:54:00 BASE 1.78 299 2.42 297 -0.9 100 -0.9 383 855 978.5 NA 0.0000 9000 260 0 0 0
2017/11/28 11:55:00 BASE 1.75 297 2.42 297 -0.9 100 -0.9 367 826 978.5 NA 0.0000 9000 260 0 0 0
2017/11/28 11:56:00 BASE 1.68 297 2.31 299 -0.8 100 -0.8 353 799 978.5 NA 0.0000 BR 8000 300 0 0 0
2017/11/28 11:57:00 BASE 1.51 298 2.31 299 -0.7 100 -0.7 436 959 978.5 NA 0.0000 BR 8000 230 0 0 0
2017/11/28 11:58:00 BASE 1.35 300 2.26 299 -0.7 100 -0.7 411 912 978.5 NA 0.0000 BR 9000 330 0 0 0
2017/11/28 11:59:00 BASE 1.15 302 2.21 305 -0.7 100 -0.7 431 950 978.5 NA 0.0000 BR 9000 330 1080 0 0
2017/11/28 12:00:00 BASE 0.94 298 2.16 295 -0.7 100 -0.7 426 938 978.5 NA 0.0000 BR 9000 330 1080 0 0
2017/11/28 12:01:00 BASE 0.96 297 2.06 302 -0.7 100 -0.7 454 992 978.5 NA 0.0000 BR 9999 330 1080 0 0
2017/11/28 12:02:00 BASE 1.11 302 1.95 301 -0.7 100 -0.7 392 877 978.5 NA 0.0000 BR 9000 330 0 0 0
2017/11/28 12:03:00 BASE 1.19 302 1.85 299 -0.7 100 -0.7 399 887 978.5 NA 0.0000 BR 9999 330 1080 0 0
2017/11/28 12:04:00 BASE 1.23 301 1.85 299 -0.7 100 -0.7 379 844 978.5 NA 0.0000 BR 9000 330 0 0 0
2017/11/28 12:05:00 BASE 1.24 302 1.70 294 -0.7 100 -0.7 346 780 978.5 NA 0.0000 BR 9000 330 0 0 0
2017/11/28 12:06:00 BASE 1.26 301 1.54 298 -0.7 100 -0.7 342 773 978.5 NA 0.0000 BR 8000 330 1050 0 0
2017/11/28 12:07:00 BASE 1.10 309 1.49 312 -0.7 100 -0.7 384 855 978.5 NA 0.0000 BR 8000 360 0 0 0
2017/11/28 12:08:00 BASE 1.03 315 1.49 312 -0.7 100 -0.7 423 931 978.5 NA 0.0000 BR 9000 360 0 0 0
2017/11/28 12:09:00 BASE 0.92 317 1.49 312 -0.7 100 -0.7 423 932 978.5 NA 0.0000 BR 9000 360 0 0 0
2017/11/28 12:10:00 BASE 0.97 318 1.54 324 -0.7 100 -0.7 426 940 978.5 NA 0.0000 BR 9999 390 0 0 0
2017/11/28 12:11:00 BASE 1.17 326 1.54 324 -0.6 100 -0.6 530 1143 978.5 NA 0.0000 BR 9999 360 0 0 0
2017/11/28 12:12:00 BASE 1.18 333 1.54 324 -0.6 100 -0.6 452 989 978.5 NA 0.0000 BR 9999 300 1050 0 0
2017/11/28 12:13:00 BASE 1.24 332 1.54 324 -0.6 100 -0.6 468 1020 978.5 NA 0.0000 BR 9999 260 0 0 0
2017/11/28 12:14:00 BASE 1.37 327 1.65 324 -0.6 100 -0.6 487 1056 978.5 NA 0.0000 BR 9999 300 0 0 0
2017/11/28 12:15:00 BASE 1.56 324 1.70 334 -0.6 100 -0.6 589 1256 978.5 NA 0.0000 9999 330 0 0 0
2017/11/28 12:16:00 BASE 1.62 320 1.90 315 -0.6 100 -0.6 614 1296 978.5 NA 0.0000 9999 360 0 0 0
2017/11/28 12:17:00 BASE 1.68 316 2.01 320 -0.6 100 -0.6 598 1265 978.5 NA 0.0000 9999 360 0 0 0
2017/11/28 12:18:00 BASE 1.91 319 2.26 322 -0.5 100 -0.5 539 1155 978.5 NA 0.0000 9999 390 0 0 0
2017/11/28 12:19:00 BASE 2.11 322 2.31 319 -0.4 100 -0.4 518 1109 978.5 NA 0.0000 9999 390 0 0 0
2017/11/28 12:20:00 BASE 2.22 317 2.52 317 -0.3 100 -0.3 564 1199 978.5 NA 0.0000 9999 390 0 0 0
2017/11/28 12:21:00 BASE 2.18 307 2.52 317 -0.3 100 -0.3 516 1110 978.5 NA 0.0000 9999 430 0 0 0
2017/11/28 12:22:00 BASE 2.06 303 2.52 317 -0.3 100 -0.3 495 1069 978.5 NA 0.0000 9999 390 0 0 0
2017/11/28 12:23:00 BASE 2.11 301 2.52 317 -0.3 100 -0.3 504 1088 978.5 NA 0.0000 9999 390 0 0 0
2017/11/28 12:24:00 BASE 2.06 305 2.52 317 -0.3 100 -0.3 645 1355 978.5 NA 0.0000 9999 430 0 0 0
2017/11/28 12:25:00 BASE 2.06 314 2.52 317 -0.3 100 -0.3 778 1515 978.5 NA 0.0000 9999 460 0 0 0
2017/11/28 12:26:00 BASE 2.14 317 2.52 317 -0.3 100 -0.3 819 1515 978.5 NA 0.0000 9999 460 0 0 0
2017/11/28 12:27:00 BASE 2.00 308 2.52 317 -0.3 100 -0.3 787 1515 978.5 NA 0.0000 9999 360 0 0 0
2017/11/28 12:28:00 BASE 1.88 305 2.52 317 -0.4 100 -0.4 668 1403 978.5 NA 0.0000 9999 360 0 0 0
2017/11/28 12:29:00 BASE 1.87 313 2.52 317 -0.3 100 -0.3 689 1437 978.5 NA 0.0000 9999 390 0 0 0
2017/11/28 12:30:00 BASE 1.87 315 2.42 302 -0.4 100 -0.4 700 1455 978.6 NA 0.0000 9999 390 0 0 0
2017/11/28 12:31:00 BASE 1.89 314 2.42 302 -0.3 100 -0.3 618 1305 978.6 NA 0.0000 9999 360 0 0 0
2017/11/28 12:32:00 BASE 2.00 312 2.42 302 -0.3 100 -0.3 575 1225 978.6 NA 0.0000 9999 390 0 0 0
2017/11/28 12:33:00 BASE 2.03 312 2.31 321 -0.2 100 -0.2 582 1244 978.6 NA 0.0000 9999 590 0 0 0
2017/11/28 12:34:00 BASE 1.89 305 2.31 321 -0.2 100 -0.2 649 1360 978.7 NA 0.0000 9999 460 0 0 0
2017/11/28 12:35:00 BASE 1.79 297 2.31 321 -0.2 100 -0.2 707 1466 978.7 NA 0.0000 9999 560 0 0 0
2017/11/28 12:36:00 BASE 1.81 300 2.26 317 -0.3 100 -0.3 785 1514 978.7 NA 0.0000 9999 360 0 0 0
2017/11/28 12:37:00 BASE 1.94 303 2.26 317 -0.3 100 -0.3 702 1469 978.7 NA 0.0000 9999 300 0 0 0
2017/11/28 12:38:00 BASE 1.95 306 2.26 317 -0.4 100 -0.4 690 1449 978.7 NA 0.0000 9999 330 0 0 0
2017/11/28 12:39:00 BASE 1.73 313 2.26 317 -0.4 100 -0.4 612 1310 978.8 NA 0.0000 9999 330 0 0 0
2017/11/28 12:40:00 BASE 1.61 317 2.26 317 -0.3 100 -0.3 592 1269 978.9 NA 0.0000 9999 330 0 0 0
2017/11/28 12:41:00 BASE 1.69 317 2.26 317 -0.2 100 -0.2 801 1515 978.9 NA 0.0000 9999 330 0 0 0
2017/11/28 12:42:00 BASE 1.74 318 2.21 323 -0.1 100 -0.1 696 1472 978.9 NA 0.0000 9999 360 0 0 0
2017/11/28 12:43:00 BASE 1.74 322 2.11 314 -0.1 100 -0.1 637 1371 978.9 NA 0.0000 9999 330 0 0 0
2017/11/28 12:44:00 BASE 1.79 320 2.11 314 -0.0 100 -0.0 532 1166 978.9 NA 0.0000 9999 330 0 0 0
2017/11/28 12:45:00 BASE 1.82 318 2.11 314 -0.0 100 -0.0 418 939 978.9 NA 0.0000 9999 330 0 0 0
2017/11/28 12:46:00 BASE 1.94 323 2.31 324 -0.1 100 -0.1 397 893 979.0 NA 0.0000 9999 330 0 0 0
2017/11/28 12:47:00 BASE 2.14 325 2.31 323 -0.1 100 -0.1 553 1204 979.0 NA 0.0000 9999 360 0 0 0
2017/11/28 12:48:00 BASE 2.13 326 2.31 328 -0.2 100 -0.2 523 1143 979.0 NA 0.0000 9999 360 0 0 0
2017/11/28 12:49:00 BASE 2.02 329 2.42 329 -0.2 100 -0.2 507 1114 979.1 NA 0.0000 9999 360 0 0 0
2017/11/28 12:50:00 BASE 1.82 326 2.42 329 -0.3 100 -0.3 387 883 979.0 NA 0.0000 9999 390 0 0 0
2017/11/28 12:51:00 BASE 1.51 323 2.42 329 -0.4 100 -0.4 497 1099 979.0 NA 0.0000 9999 430 0 0 0
2017/11/28 12:52:00 BASE 1.31 331 2.42 329 -0.4 100 -0.4 565 1222 979.0 NA 0.0000 9999 460 0 0 0
2017/11/28 12:53:00 BASE 1.22 343 2.42 329 -0.4 100 -0.4 461 1028 979.0 NA 0.0000 9999 430 0 0 0
2017/11/28 12:54:00 BASE 1.06 354 2.42 329 -0.4 100 -0.4 739 1514 979.1 NA 0.0000 9999 0 0 0 360
2017/11/28 12:55:00 BASE 0.84 354 2.42 329 -0.4 100 -0.4 762 1515 979.1 NA 0.0000 9999 0 0 0 260
2017/11/28 12:56:00 BASE 1.01 356 2.42 329 -0.4 100 -0.4 632 1348 979.1 NA 0.0000 9999 0 0 0 330
2017/11/28 12:57:00 BASE 1.28 5 2.42 329 -0.4 100 -0.4 548 1192 979.1 NA 0.0000 9999 430 0 0 0
2017/11/28 12:58:00 BASE 1.25 3 2.42 329 -0.3 100 -0.3 585 1259 979.1 NA 0.0000 9999 390 0 0 0
2017/11/28 12:59:00 BASE 1.31 353 2.01 320 -0.3 100 -0.3 574 1242 979.2 NA 0.0000 9999 0 0 0 430
2017/11/28 13:00:00 BASE 1.18 341 1.75 346 -0.4 100 -0.4 525 1150 979.2 NA 0.0000 9999 1210 0 0 0
2017/11/28 13:01:00 BASE 1.13 337 1.75 346 -0.4 100 -0.4 913 1515 979.2 NA 0.0000 9999 1210 0 0 0
2017/11/28 13:02:00 BASE 1.39 326 1.85 308 -0.3 100 -0.3 534 1163 979.2 NA 0.0000 9999 460 1210 0 0
2017/11/28 13:03:00 BASE 1.35 313 1.85 308 -0.3 100 -0.3 450 995 979.2 NA 0.0000 9999 430 1210 0 0
2017/11/28 13:04:00 BASE 1.25 314 1.85 308 -0.2 100 -0.2 461 1026 979.2 NA 0.0000 9999 430 1210 0 0
2017/11/28 13:05:00 BASE 1.32 310 1.85 308 -0.2 100 -0.2 446 993 979.2 NA 0.0000 9999 390 1250 0 0
2017/11/28 13:06:00 BASE 1.38 301 1.85 308 -0.1 100 -0.1 445 995 979.2 NA 0.0000 9999 430 1180 0 0
2017/11/28 13:07:00 BASE 1.44 301 1.85 308 -0.1 100 -0.1 460 1028 979.2 NA 0.0000 9999 430 1150 0 0
2017/11/28 13:08:00 BASE 1.38 301 1.85 308 -0.1 100 -0.1 458 1021 979.2 NA 0.0000 9999 460 1180 0 0
2017/11/28 13:09:00 BASE 1.40 304 1.85 308 -0.2 100 -0.2 542 1192 979.2 NA 0.0000 9999 430 1180 0 0
2017/11/28 13:10:00 BASE 1.41 314 1.85 308 -0.3 100 -0.3 587 1276 979.2 NA 0.0000 9999 390 1280 0 0
2017/11/28 13:11:00 BASE 1.28 320 1.85 308 -0.3 100 -0.3 973 1515 979.2 NA 0.0000 9999 390 0 0 0
2017/11/28 13:12:00 BASE 0.98 318 1.75 307 -0.3 100 -0.3 879 1514 979.2 NA 0.0000 9999 430 1250 0 0
2017/11/28 13:13:00 BASE 0.90 314 1.75 307 -0.2 100 -0.2 751 1515 979.2 NA 0.0000 9999 590 1120 0 0
2017/11/28 13:14:00 BASE 0.92 308 1.75 307 -0.2 100 -0.2 914 1515 979.2 NA 0.0000 9999 980 0 0 0
2017/11/28 13:15:00 BASE 0.87 306 1.75 307 -0.1 100 -0.1 541 1183 979.3 NA 0.0000 9999 1020 0 0 0
2017/11/28 13:16:00 BASE 0.90 310 1.75 307 -0.1 100 -0.1 499 1099 979.3 NA 0.0000 9999 1150 0 0 0
2017/11/28 13:17:00 BASE 1.07 316 1.75 307 -0.1 100 -0.1 454 1012 979.3 NA 0.0000 9999 890 0 0 0
2017/11/28 13:18:00 BASE 0.71 325 1.75 307 -0.1 100 -0.1 438 981 979.3 NA 0.0000 9999 820 0 0 0
2017/11/28 13:19:00 BASE 0.19 329 1.59 322 -0.1 100 -0.1 430 968 979.3 NA 0.0000 9999 920 0 0 0
2017/11/28 13:20:00 BASE 0.18 316 1.54 307 -0.0 100 -0.0 422 953 979.2 NA 0.0000 9999 1150 0 0 0
2017/11/28 13:21:00 BASE 0.47 295 1.54 307 -0.1 100 -0.1 401 911 979.2 NA 0.0000 9999 1210 0 0 0
2017/11/28 13:22:00 BASE 0.68 282 1.54 307 -0.1 100 -0.2 385 882 979.2 NA 0.0000 9999 1250 0 0 0
2017/11/28 13:23:00 BASE 0.30 283 1.54 307 -0.2 100 -0.2 383 879 979.2 NA 0.0000 9999 1050 0 0 0
2017/11/28 13:24:00 BASE 0.61 292 1.54 307 -0.2 100 -0.2 388 892 979.2 NA 0.0000 9999 980 0 0 0
2017/11/28 13:25:00 BASE 1.18 301 1.54 307 -0.2 100 -0.2 408 933 979.2 NA 0.0000 9999 690 1080 0 0
2017/11/28 13:26:00 BASE 0.91 308 1.54 307 -0.2 100 -0.2 428 975 979.2 NA 0.0000 9999 660 0 0 0
2017/11/28 13:27:00 BASE 0.68 312 1.54 315 -0.2 100 -0.2 442 1001 979.2 NA 0.0000 9999 1150 0 0 0
2017/11/28 13:28:00 BASE 0.95 313 1.59 311 -0.1 100 -0.1 444 1006 979.2 NA 0.0000 9999 950 0 0 0
2017/11/28 13:29:00 BASE 1.08 310 1.65 311 -0.1 100 -0.1 447 1012 979.2 NA 0.0000 9999 1050 19820 0 0
2017/11/28 13:30:00 BASE 1.11 307 1.65 311 -0.1 100 -0.1 455 1029 979.2 NA 0.0000 9999 1020 0 0 0
2017/11/28 13:31:00 BASE 1.35 310 1.70 312 -0.1 100 -0.1 461 1042 979.2 NA 0.0000 9999 920 0 0 0
2017/11/28 13:32:00 BASE 1.32 314 1.70 312 -0.1 100 -0.1 475 1071 979.2 NA 0.0000 9999 890 0 0 0
2017/11/28 13:33:00 BASE 1.16 314 1.70 312 -0.1 100 -0.1 499 1118 979.2 NA 0.0000 9999 920 0 0 0
2017/11/28 13:34:00 BASE 1.01 316 1.70 312 -0.0 100 -0.0 521 1161 979.2 NA 0.0000 9999 950 0 0 0
2017/11/28 13:35:00 BASE 0.79 316 1.70 312 0.0 100 0.0 535 1189 979.2 NA 0.0000 9999 950 0 0 0
2017/11/28 13:36:00 BASE 0.58 312 1.70 312 0.1 100 0.1 562 1243 979.2 NA 0.0000 9999 920 0 0 0
2017/11/28 13:37:00 BASE 0.81 313 1.70 312 0.1 100 0.1 583 1279 979.2 NA 0.0000 9999 890 21690 0 0
2017/11/28 13:38:00 BASE 0.99 312 1.70 312 0.2 100 0.2 694 1502 979.2 NA 0.0000 9999 720 20210 0 0
2017/11/28 13:39:00 BASE 0.51 307 1.70 312 0.2 100 0.2 675 1455 979.2 NA 0.0000 9999 690 23070 0 0
2017/11/28 13:40:00 BASE 0.09 304 1.70 312 0.1 100 0.1 675 1454 979.2 NA 0.0000 9999 750 0 0 0
2017/11/28 13:41:00 BASE 0.47 298 1.54 318 0.1 100 0.1 636 1379 979.2 NA 0.0000 9999 790 0 0 0
2017/11/28 13:42:00 BASE 0.98 297 1.44 299 0.1 100 0.1 590 1289 979.2 NA 0.0000 9999 790 0 0 0
2017/11/28 13:43:00 BASE 0.60 307 1.44 299 0.0 100 0.0 596 1302 979.2 NA 0.0000 9999 820 0 0 0
2017/11/28 13:44:00 BASE 0.09 308 1.44 299 -0.0 100 -0.0 608 1336 979.2 NA 0.0000 9999 820 0 0 0
2017/11/28 13:45:00 BASE 0.00 311 1.44 299 0.0 100 0.0 506 1130 979.2 NA 0.0000 9999 820 0 0 0
2017/11/28 13:46:00 BASE 0.00 347 1.44 299 0.1 100 0.1 493 1109 979.2 NA 0.0000 9999 790 0 0 0
2017/11/28 13:47:00 BASE 0.00 5 1.44 299 0.1 100 0.1 490 1106 979.2 NA 0.0000 9999 750 0 0 0
2017/11/28 13:48:00 BASE 0.00 12 1.44 299 0.0 100 0.0 501 1129 979.2 NA 0.0000 9999 750 0 0 0
2017/11/28 13:49:00 BASE 0.23 52 1.44 299 0.1 100 0.1 524 1175 979.2 NA 0.0000 9999 790 0 0 0
2017/11/28 13:50:00 BASE 0.32 102 1.44 299 0.1 100 0.1 569 1266 979.2 NA 0.0000 9999 690 0 0 0
2017/11/28 13:51:00 BASE 0.77 126 1.75 134 0.2 100 0.2 617 1360 979.2 NA 0.0000 9999 590 0 0 0
2017/11/28 13:52:00 BASE 1.45 131 1.75 134 0.4 100 0.4 630 1381 979.2 NA 0.0000 9999 520 0 0 0
2017/11/28 13:53:00 BASE 1.45 125 1.75 134 0.5 100 0.5 635 1384 979.2 NA 0.0000 9999 660 0 0 0
2017/11/28 13:54:00 BASE 1.52 114 1.80 101 0.4 100 0.4 638 1391 979.2 NA 0.0000 9999 690 0 0 0
2017/11/28 13:55:00 BASE 1.69 106 2.01 113 0.4 100 0.4 785 1515 979.2 NA 0.0000 9999 720 0 0 0
2017/11/28 13:56:00 BASE 1.91 103 2.31 94 0.3 100 0.3 598 1305 979.2 NA 0.0000 9999 690 0 0 0
2017/11/28 13:57:00 BASE 1.78 101 2.31 94 0.2 100 0.2 640 1390 979.3 NA 0.0000 9999 660 0 0 0
2017/11/28 13:58:00 BASE 1.16 108 2.31 94 0.1 100 0.1 689 1488 979.3 NA 0.0000 9999 690 0 0 0
2017/11/28 13:59:00 BASE 0.72 118 2.31 94 0.1 100 0.1 732 1515 979.3 NA 0.0000 9999 720 0 0 0
2017/11/28 14:00:00 BASE 0.97 122 2.31 94 0.2 100 0.2 727 1514 979.4 NA 0.0000 9999 790 0 0 0
2017/11/28 14:01:00 BASE 1.53 113 2.31 94 0.2 100 0.2 707 1514 979.5 NA 0.0000 9999 750 0 0 0
2017/11/28 14:02:00 BASE 1.48 103 2.31 94 0.3 99 0.2 741 1514 979.5 NA 0.0000 9999 750 0 0 0
2017/11/28 14:03:00 BASE 1.50 104 2.31 94 0.4 99 0.3 860 1514 979.5 NA 0.0000 9999 720 0 0 0
2017/11/28 14:04:00 BASE 1.58 103 2.31 94 0.4 99 0.3 861 1515 979.5 NA 0.0000 9999 750 0 0 0
2017/11/28 14:05:00 BASE 1.41 107 2.31 94 0.3 99 0.1 879 1515 979.5 NA 0.0000 9999 790 0 0 0
2017/11/28 14:06:00 BASE 1.40 117 2.11 99 0.3 98 0.1 856 1515 979.6 NA 0.0000 9999 790 0 0 0
2017/11/28 14:07:00 BASE 1.37 117 2.11 99 0.4 98 0.2 846 1514 979.6 NA 0.0000 9999 920 0 0 0
2017/11/28 14:08:00 BASE 0.91 103 2.11 99 0.4 98 0.1 784 1515 979.5 NA 0.0000 9999 920 0 0 0
2017/11/28 14:09:00 BASE 0.61 81 2.11 99 0.4 98 0.2 688 1483 979.6 NA 0.0000 9999 920 0 0 0
2017/11/28 14:10:00 BASE 0.66 75 2.11 99 0.5 98 0.2 713 1514 979.6 NA 0.0000 9999 950 0 0 0
2017/11/28 14:11:00 BASE 0.37 83 2.11 99 0.5 98 0.2 689 1489 979.6 NA 0.0000 9999 890 0 0 0
2017/11/28 14:12:00 BASE 0.40 89 2.06 101 0.5 98 0.1 670 1454 979.6 NA 0.0000 9999 920 0 0 0
2017/11/28 14:13:00 BASE 0.30 96 1.75 111 0.4 97 0.1 566 1251 979.6 NA 0.0000 9999 890 0 0 0
2017/11/28 14:14:00 BASE 0.31 142 1.75 111 0.4 97 -0.0 529 1174 979.6 NA 0.0000 9999 920 0 0 0
2017/11/28 14:15:00 BASE 0.97 197 1.75 111 0.3 97 -0.1 552 1225 979.6 NA 0.0000 9999 850 0 0 0
2017/11/28 14:16:00 BASE 1.14 199 1.75 111 0.2 97 -0.1 519 1160 979.6 NA 0.0000 9999 750 0 0 0
2017/11/28 14:17:00 BASE 0.63 206 1.54 51 0.2 97 -0.2 579 1282 979.6 NA 0.0000 9999 850 0 0 0
2017/11/28 14:18:00 BASE 0.14 203 1.54 51 0.2 98 -0.1 536 1192 979.7 NA 0.0000 9999 820 0 0 0
2017/11/28 14:19:00 BASE 0.23 196 1.49 82 0.2 98 -0.1 542 1211 979.7 NA 0.0000 9999 790 0 0 0
2017/11/28 14:20:00 BASE 0.32 201 1.49 82 0.2 99 -0.0 520 1172 979.6 NA 0.0000 9999 690 0 0 0
2017/11/28 14:21:00 BASE 0.09 204 1.49 82 0.2 99 -0.0 485 1102 979.6 NA 0.0000 9999 690 0 0 0
2017/11/28 14:22:00 BASE 0.00 202 1.44 178 0.1 99 0.0 402 934 979.6 NA 0.0000 9999 660 0 0 0
2017/11/28 14:23:00 BASE 0.05 184 1.44 178 0.1 99 -0.0 358 841 979.6 NA 0.0000 9999 720 0 0 0
2017/11/28 14:24:00 BASE 0.05 157 1.39 193 0.0 99 -0.1 347 820 979.6 NA 0.0000 9999 720 0 0 0
2017/11/28 14:25:00 BASE 0.00 140 1.39 193 0.1 99 -0.0 449 1024 979.6 NA 0.0000 9999 750 0 0 0
2017/11/28 14:26:00 BASE 0.60 159 1.80 195 0.1 99 0.0 500 1125 979.6 NA 0.0000 9999 750 0 0 0
2017/11/28 14:27:00 BASE 0.80 168 1.80 195 0.2 99 0.1 485 1099 979.6 NA 0.0000 9999 720 0 0 0
2017/11/28 14:28:00 BASE 0.77 125 1.80 195 0.3 99 0.1 451 1031 979.6 NA 0.0000 9999 720 0 0 0
2017/11/28 14:29:00 BASE 1.20 91 1.80 195 0.3 99 0.2 484 1097 979.7 NA 0.0000 9999 660 0 0 0
2017/11/28 14:30:00 BASE 1.08 85 1.80 195 0.3 99 0.1 487 1105 979.7 NA 0.0000 9999 620 0 0 0
2017/11/28 14:31:00 BASE 0.77 89 1.80 195 0.3 98 0.1 463 1057 979.7 NA 0.0000 9999 690 0 0 0
2017/11/28 14:32:00 BASE 0.65 93 1.80 195 0.3 98 0.0 468 1067 979.7 NA 0.0000 9999 750 0 0 0
2017/11/28 14:33:00 BASE 0.46 98 1.80 195 0.3 98 0.0 485 1106 979.7 NA 0.0000 9999 690 0 0 0
2017/11/28 14:34:00 BASE 0.65 105 1.80 195 0.4 98 0.1 484 1105 979.7 NA 0.0000 9999 720 0 0 0
2017/11/28 14:35:00 BASE 1.27 135 1.95 197 0.5 98 0.2 491 1119 979.7 NA 0.0000 9999 720 0 0 0
2017/11/28 14:36:00 BASE 1.57 178 1.95 197 0.5 98 0.2 496 1130 979.7 NA 0.0000 9999 750 0 0 0
2017/11/28 14:37:00 BASE 1.66 180 2.01 162 0.5 98 0.2 497 1133 979.7 NA 0.0000 9999 720 0 0 0
2017/11/28 14:38:00 BASE 1.45 172 2.01 162 0.4 98 0.1 485 1108 979.7 NA 0.0000 9999 720 22930 0 0
2017/11/28 14:39:00 BASE 1.39 168 2.01 162 0.3 98 0.0 482 1100 979.7 NA 0.0000 9999 720 0 0 0
2017/11/28 14:40:00 BASE 1.78 141 2.57 115 0.2 98 -0.0 490 1113 979.7 NA 0.0000 9999 720 0 0 0
2017/11/28 14:41:00 BASE 1.97 125 2.57 115 0.2 98 -0.0 563 1264 979.6 NA 0.0000 9999 790 0 0 0
2017/11/28 14:42:00 BASE 2.23 126 2.98 125 0.3 98 0.1 553 1237 979.6 NA 0.0000 9999 820 0 0 0
2017/11/28 14:43:00 BASE 2.52 122 2.98 125 0.4 98 0.2 653 1443 979.6 NA 0.0000 9999 820 0 0 0
2017/11/28 14:44:00 BASE 2.43 125 2.98 125 0.4 98 0.2 739 1514 979.6 NA 0.0000 9999 820 0 0 0
2017/11/28 14:45:00 BASE 2.24 123 2.98 125 0.4 98 0.1 720 1514 979.6 NA 0.0000 9999 720 0 0 0
2017/11/28 14:46:00 BASE 2.31 119 2.98 125 0.4 97 0.1 659 1454 979.6 NA 0.0000 9999 750 0 0 0
2017/11/28 14:47:00 BASE 2.49 123 2.98 125 0.4 97 -0.0 565 1263 979.7 NA 0.0000 9999 720 0 0 0
2017/11/28 14:48:00 BASE 2.36 126 2.98 125 0.4 97 -0.0 585 1303 979.7 NA 0.0000 9999 750 20410 0 0
2017/11/28 14:49:00 BASE 2.21 126 2.98 125 0.5 97 0.0 636 1406 979.7 NA 0.0000 9999 720 0 0 0
2017/11/28 14:50:00 BASE 1.85 129 2.98 125 0.5 97 0.1 744 1515 979.7 NA 0.0000 9999 750 0 0 0
2017/11/28 14:51:00 BASE 1.60 133 2.98 125 0.5 97 0.0 608 1343 979.7 NA 0.0000 9999 850 0 0 0
2017/11/28 14:52:00 BASE 1.87 146 2.93 125 0.5 97 0.0 611 1351 979.7 NA 0.0000 9999 890 0 0 0
2017/11/28 14:53:00 BASE 1.84 161 2.93 125 0.4 96 -0.1 605 1332 979.7 NA 0.0000 9999 920 0 0 0
2017/11/28 14:54:00 BASE 1.98 167 2.93 125 0.4 96 -0.2 677 1478 979.7 NA 0.0000 9999 920 0 0 0
2017/11/28 14:55:00 BASE 1.88 176 2.93 125 0.2 96 -0.3 795 1515 979.7 NA 0.0000 9999 920 0 0 0
2017/11/28 14:56:00 BASE 1.46 168 2.83 176 0.2 96 -0.3 693 1514 979.7 NA 0.0000 9999 890 0 0 0
2017/11/28 14:57:00 BASE 1.58 158 2.83 176 0.2 96 -0.3 601 1327 979.6 NA 0.0000 9999 980 0 0 0
2017/11/28 14:58:00 BASE 1.93 159 2.83 176 0.2 97 -0.3 574 1282 979.7 NA 0.0000 9999 890 0 0 0
2017/11/28 14:59:00 BASE 2.33 156 2.83 176 0.3 97 -0.2 511 1158 979.7 NA 0.0000 9999 890 0 0 0
2017/11/28 15:00:00 BASE 2.20 156 2.83 176 0.4 97 -0.1 513 1162 979.7 NA 0.0000 9999 980 0 0 0
2017/11/28 15:01:00 BASE 1.76 155 2.83 176 0.4 97 -0.0 519 1177 979.7 NA 0.0000 9999 1050 0 0 0
2017/11/28 15:02:00 BASE 1.27 151 2.83 176 0.4 96 -0.1 536 1210 979.7 NA 0.0000 9999 950 0 0 0
2017/11/28 15:03:00 BASE 1.24 149 2.83 176 0.4 96 -0.2 566 1274 979.8 NA 0.0000 9999 920 0 0 0
2017/11/28 15:04:00 BASE 1.80 153 2.73 144 0.3 96 -0.3 552 1244 979.8 NA 0.0000 9999 950 0 0 0
2017/11/28 15:05:00 BASE 1.73 159 2.73 144 0.3 95 -0.4 578 1296 979.8 NA 0.0000 9999 920 20510 0 0
2017/11/28 15:06:00 BASE 1.61 150 2.73 144 0.3 95 -0.4 623 1388 979.7 NA 0.0000 9999 950 0 0 0
2017/11/28 15:07:00 BASE 1.93 133 2.73 144 0.4 96 -0.2 593 1320 979.7 NA 0.0000 9999 920 14440 0 0
2017/11/28 15:08:00 BASE 2.15 127 2.73 144 0.5 96 -0.1 621 1375 979.7 NA 0.0000 9999 950 0 0 0
2017/11/28 15:09:00 BASE 1.98 128 2.52 116 0.5 95 -0.1 625 1380 979.6 NA 0.0000 9999 950 0 0 0
2017/11/28 15:10:00 BASE 1.69 125 2.52 116 0.6 95 -0.1 701 1515 979.6 NA 0.0000 9999 920 0 0 0
2017/11/28 15:11:00 BASE 1.71 116 2.52 116 0.6 95 -0.1 644 1421 979.5 NA 0.0000 9999 890 0 0 0
2017/11/28 15:12:00 BASE 1.87 111 2.52 116 0.6 95 -0.2 586 1302 979.5 NA 0.0000 9999 950 0 0 0
2017/11/28 15:13:00 BASE 1.93 110 2.52 116 0.5 95 -0.2 783 1514 979.5 NA 0.0000 9999 980 19850 23260 0
2017/11/28 15:14:00 BASE 1.88 114 2.52 116 0.6 95 -0.2 878 1515 979.6 NA 0.0000 9999 980 0 0 0
2017/11/28 15:15:00 BASE 1.81 128 2.52 146 0.6 95 -0.1 732 1515 979.6 NA 0.0000 9999 950 18930 0 0
2017/11/28 15:16:00 BASE 1.57 136 2.52 146 0.6 95 -0.2 679 1489 979.6 NA 0.0000 9999 920 0 0 0
2017/11/28 15:17:00 BASE 0.99 126 2.52 146 0.6 95 -0.2 651 1432 979.7 NA 0.0000 9999 950 0 0 0
2017/11/28 15:18:00 BASE 0.49 131 2.52 146 0.6 95 -0.1 938 1514 979.7 NA 0.0000 9999 890 0 0 0
2017/11/28 15:19:00 BASE 0.39 151 2.52 146 0.7 94 -0.1 885 1514 979.7 NA 0.0000 9999 920 0 0 0
2017/11/28 15:20:00 BASE 0.85 175 2.52 146 0.7 94 -0.2 672 1477 979.7 NA 0.0000 9999 980 0 0 0
2017/11/28 15:21:00 BASE 0.70 188 2.52 146 0.6 94 -0.2 892 1514 979.8 NA 0.0000 9999 980 0 0 0
2017/11/28 15:22:00 BASE 1.03 180 2.62 171 0.6 94 -0.2 870 1514 979.8 NA 0.0000 9999 1020 0 0 0
2017/11/28 15:23:00 BASE 1.88 189 2.62 171 0.5 95 -0.2 847 1515 979.8 NA 0.0000 9999 980 0 0 0
2017/11/28 15:24:00 BASE 1.80 204 2.62 171 0.4 95 -0.3 574 1286 979.8 NA 0.0000 9999 980 0 0 0
2017/11/28 15:25:00 BASE 1.80 205 2.62 171 0.4 95 -0.3 521 1179 979.8 NA 0.0000 9999 980 0 0 0
2017/11/28 15:26:00 BASE 1.80 207 2.62 171 0.3 95 -0.3 512 1165 979.8 NA 0.0000 9999 1020 0 0 0
2017/11/28 15:27:00 BASE 1.76 213 2.62 171 0.2 96 -0.4 503 1142 979.8 NA 0.0000 9999 1020 0 0 0
2017/11/28 15:28:00 BASE 1.72 221 2.62 171 0.1 96 -0.4 531 1201 979.9 NA 0.0000 9999 1020 0 0 0
2017/11/28 15:29:00 BASE 1.67 219 2.62 171 0.1 97 -0.4 556 1245 979.8 NA 0.0000 9999 980 0 0 0
2017/11/28 15:30:00 BASE 1.58 213 2.62 171 0.0 97 -0.4 612 1368 979.8 NA 0.0000 9999 980 0 0 0
2017/11/28 15:31:00 BASE 1.51 209 2.62 171 -0.0 98 -0.3 638 1425 979.8 NA 0.0000 9999 950 0 0 0
2017/11/28 15:32:00 BASE 1.52 201 2.21 205 0.0 98 -0.3 548 1249 979.8 NA 0.0000 9999 850 0 0 0
2017/11/28 15:33:00 BASE 1.55 190 2.21 205 0.0 98 -0.3 494 1141 979.8 NA 0.0000 9999 820 0 0 0
2017/11/28 15:34:00 BASE 1.54 186 2.21 205 0.0 98 -0.2 445 1036 979.8 NA 0.0000 9999 820 0 0 0
2017/11/28 15:35:00 BASE 1.54 184 2.16 220 0.0 98 -0.2 420 986 979.8 NA 0.0000 9999 950 0 0 0
2017/11/28 15:36:00 BASE 1.56 180 2.16 220 0.0 99 -0.2 443 1029 979.7 NA 0.0000 9999 1020 0 0 0
2017/11/28 15:37:00 BASE 1.04 173 2.16 220 0.0 99 -0.1 517 1182 979.7 NA 0.0000 9999 1050 0 0 0
2017/11/28 15:38:00 BASE 0.98 169 1.95 217 0.0 99 -0.1 521 1185 979.7 NA 0.0000 9999 1020 0 0 0
2017/11/28 15:39:00 BASE 1.21 170 1.95 180 0.0 99 -0.1 556 1256 979.7 NA 0.0000 9999 1020 0 0 0
2017/11/28 15:40:00 BASE 1.35 166 2.11 161 0.1 99 -0.0 625 1396 979.8 NA 0.0000 9999 1020 0 0 0
2017/11/28 15:41:00 BASE 1.18 164 2.11 161 0.2 99 0.0 567 1278 979.8 NA 0.0000 9999 950 0 0 0
2017/11/28 15:42:00 BASE 1.00 163 2.11 161 0.2 99 0.1 507 1160 979.8 NA 0.0000 9999 1020 0 0 0
2017/11/28 15:43:00 BASE 1.40 164 2.11 161 0.3 99 0.2 493 1128 979.7 NA 0.0000 9999 890 0 0 0
2017/11/28 15:44:00 BASE 1.68 158 2.21 154 0.4 99 0.2 489 1122 979.7 NA 0.0000 9999 820 0 0 0
2017/11/28 15:45:00 BASE 1.82 144 2.21 154 0.4 99 0.2 493 1132 979.7 NA 0.0000 9999 820 0 0 0
2017/11/28 15:46:00 BASE 1.53 128 2.21 154 0.4 98 0.2 521 1193 979.7 NA 0.0000 9999 890 0 0 0
2017/11/28 15:47:00 BASE 1.48 122 2.21 154 0.4 98 0.1 535 1219 979.7 NA 0.0000 9999 1020 0 0 0
2017/11/28 15:48:00 BASE 1.43 122 2.21 154 0.5 98 0.2 527 1200 979.7 NA 0.0000 9999 850 0 0 0
2017/11/28 15:49:00 BASE 1.35 111 2.21 154 0.5 98 0.3 564 1270 979.7 NA 0.0000 9999 1080 0 0 0
2017/11/28 15:50:00 BASE 1.57 106 2.21 154 0.6 98 0.3 591 1323 979.7 NA 0.0000 9999 1120 0 0 0
2017/11/28 15:51:00 BASE 1.80 107 2.21 154 0.6 98 0.3 734 1514 979.7 NA 0.0000 9999 820 0 0 0
2017/11/28 15:52:00 BASE 1.93 110 2.26 112 0.6 98 0.3 629 1405 979.7 NA 0.0000 9999 1120 13880 0 0
2017/11/28 15:53:00 BASE 1.88 111 2.26 112 0.5 97 0.2 616 1379 979.7 NA 0.0000 9999 1150 13780 0 0
2017/11/28 15:54:00 BASE 1.89 111 2.26 114 0.5 97 0.1 625 1395 979.6 NA 0.0000 9999 1150 13750 0 0
2017/11/28 15:55:00 BASE 1.94 110 2.26 114 0.4 97 0.0 631 1404 979.6 NA 0.0000 9999 1020 13750 0 0
2017/11/28 15:56:00 BASE 1.76 109 2.26 114 0.4 97 -0.0 672 1489 979.6 NA 0.0000 9999 1120 0 0 0
2017/11/28 15:57:00 BASE 1.54 104 2.26 114 0.4 97 -0.1 693 1514 979.6 NA 0.0000 9999 1050 13780 0 0
2017/11/28 15:58:00 BASE 1.55 103 2.26 114 0.3 97 -0.1 736 1515 979.6 NA 0.0000 9999 13680 0 0 0
2017/11/28 15:59:00 BASE 1.73 108 2.26 114 0.3 97 -0.1 782 1514 979.6 NA 0.0000 9999 13620 0 0 0
2017/11/28 16:00:00 BASE 1.69 112 2.26 114 0.4 97 -0.0 753 1514 979.6 NA 0.0000 9999 13710 0 0 0
2017/11/28 16:01:00 BASE 1.52 110 2.26 114 0.5 97 0.0 744 1515 979.6 NA 0.0000 9999 13810 0 0 0
2017/11/28 16:02:00 BASE 1.47 108 2.26 114 0.5 97 0.1 775 1514 979.6 NA 0.0000 9999 13850 0 0 0
2017/11/28 16:03:00 BASE 1.21 110 2.26 114 0.6 97 0.1 752 1514 979.6 NA 0.0000 9999 0 0 0 0
2017/11/28 16:04:00 BASE 0.85 112 2.01 112 0.6 97 0.2 749 1515 979.6 NA 0.0000 9999 14990 0 0 0
2017/11/28 16:05:00 BASE 1.20 107 2.01 112 0.6 97 0.2 755 1515 979.6 NA 0.0000 9999 0 0 0 0
2017/11/28 16:06:00 BASE 1.77 102 2.42 91 0.6 97 0.1 743 1514 979.7 NA 0.0000 9999 12430 0 0 0
2017/11/28 16:07:00 BASE 1.95 94 2.62 90 0.6 96 0.1 738 1514 979.7 NA 0.0000 9999 0 0 0 0
2017/11/28 16:08:00 BASE 1.93 96 2.62 90 0.6 96 0.1 745 1515 979.7 NA 0.0000 9999 11750 0 0 0
2017/11/28 16:09:00 BASE 1.67 106 2.62 90 0.5 96 -0.1 749 1514 979.6 NA 0.0000 9999 12040 0 0 0
2017/11/28 16:10:00 BASE 1.50 97 2.62 90 0.5 95 -0.1 750 1514 979.7 NA 0.0000 9999 12430 0 0 0
2017/11/28 16:11:00 BASE 1.50 78 2.62 90 0.5 95 -0.1 737 1514 979.7 NA 0.0000 9999 0 0 0 0
2017/11/28 16:12:00 BASE 1.46 82 2.62 90 0.6 95 -0.2 719 1514 979.6 NA 0.0000 9999 13060 0 0 0
2017/11/28 16:13:00 BASE 1.39 96 2.62 90 0.5 95 -0.2 689 1501 979.6 NA 0.0000 9999 12110 12470 0 0
2017/11/28 16:14:00 BASE 1.32 104 2.62 90 0.6 95 -0.2 664 1454 979.7 NA 0.0000 9999 12170 0 0 0
2017/11/28 16:15:00 BASE 1.26 111 2.62 90 0.6 95 -0.2 629 1387 979.6 NA 0.0000 9999 0 0 0 0
2017/11/28 16:16:00 BASE 1.44 102 2.62 90 0.6 95 -0.2 600 1332 979.6 NA 0.0000 9999 0 0 0 0
2017/11/28 16:17:00 BASE 1.57 95 2.26 114 0.5 95 -0.2 640 1407 979.6 NA 0.0000 9999 12040 0 0 0
2017/11/28 16:18:00 BASE 1.39 111 2.01 117 0.6 95 -0.1 630 1389 979.6 NA 0.0000 9999 12270 0 0 0
2017/11/28 16:19:00 BASE 1.53 116 2.01 117 0.6 95 -0.1 618 1367 979.6 NA 0.0000 9999 14830 0 0 0
2017/11/28 16:20:00 BASE 1.74 109 2.01 117 0.6 95 -0.2 609 1351 979.6 NA 0.0000 9999 0 0 0 0
2017/11/28 16:21:00 BASE 1.55 108 2.01 117 0.6 94 -0.2 599 1331 979.6 NA 0.0000 9999 0 0 0 0
2017/11/28 16:22:00 BASE 1.36 103 2.01 117 0.5 94 -0.3 590 1315 979.6 NA 0.0000 9999 12960 0 0 0
2017/11/28 16:23:00 BASE 1.39 97 2.01 117 0.5 94 -0.3 589 1314 979.6 NA 0.0000 9999 0 0 0 0
2017/11/28 16:24:00 BASE 1.34 95 2.01 117 0.5 94 -0.3 590 1316 979.6 NA 0.0000 9999 0 0 0 0
2017/11/28 16:25:00 BASE 1.01 94 2.01 117 0.5 94 -0.3 585 1309 979.6 NA 0.0000 9999 12040 0 0 0
2017/11/28 16:26:00 BASE 0.55 99 1.95 109 0.5 94 -0.3 590 1319 979.6 NA 0.0000 9999 12960 0 0 0
2017/11/28 16:27:00 BASE 0.80 109 1.95 109 0.5 94 -0.3 586 1310 979.5 NA 0.0000 9999 12570 0 0 0
2017/11/28 16:28:00 BASE 1.33 110 1.95 109 0.5 94 -0.3 587 1314 979.5 NA 0.0000 9999 12240 0 0 0
2017/11/28 16:29:00 BASE 1.31 105 1.85 104 0.5 94 -0.4 592 1325 979.5 NA 0.0000 9999 0 0 0 0
2017/11/28 16:30:00 BASE 1.22 106 1.80 91 0.5 94 -0.4 589 1320 979.5 NA 0.0000 9999 21260 0 0 0
2017/11/28 16:31:00 BASE 1.29 107 1.80 91 0.5 94 -0.4 606 1353 979.4 NA 0.0000 9999 0 0 0 0
2017/11/28 16:32:00 BASE 1.45 106 1.85 106 0.5 94 -0.4 616 1373 979.4 NA 0.0000 9999 11980 0 0 0
2017/11/28 16:33:00 BASE 1.42 101 1.85 106 0.5 94 -0.4 623 1387 979.3 NA 0.0000 9999 0 0 0 0
2017/11/28 16:34:00 BASE 1.47 97 1.85 99 0.5 94 -0.3 650 1440 979.3 NA 0.0000 9999 0 0 0 0
2017/11/28 16:35:00 BASE 1.54 97 1.85 90 0.6 94 -0.3 669 1478 979.3 NA 0.0000 9999 18310 0 0 0
2017/11/28 16:36:00 BASE 1.54 102 2.06 105 0.6 94 -0.2 668 1475 979.3 NA 0.0000 9999 0 0 0 0
2017/11/28 16:37:00 BASE 1.55 109 2.06 105 0.6 94 -0.3 675 1489 979.3 NA 0.0000 9999 15680 0 0 0
2017/11/28 16:38:00 BASE 1.39 108 2.06 105 0.7 94 -0.3 668 1475 979.2 NA 0.0000 9999 21560 0 0 0
2017/11/28 16:39:00 BASE 1.12 107 2.06 105 0.6 93 -0.3 681 1500 979.2 NA 0.0000 9999 0 0 0 0
2017/11/28 16:40:00 BASE 0.93 104 2.06 105 0.6 93 -0.3 669 1475 979.2 NA 0.0000 9999 0 0 0 0
2017/11/28 16:41:00 BASE 0.94 101 2.06 105 0.6 93 -0.4 665 1467 979.2 NA 0.0000 9999 0 0 0 0
2017/11/28 16:42:00 BASE 0.97 103 2.06 105 0.5 93 -0.4 667 1470 979.2 NA 0.0000 9999 11940 0 0 0
2017/11/28 16:43:00 BASE 0.71 99 2.06 105 0.6 93 -0.4 666 1467 979.2 NA 0.0000 9999 12660 0 0 0
2017/11/28 16:44:00 BASE 0.59 90 2.06 105 0.6 93 -0.4 667 1468 979.2 NA 0.0000 9999 12210 0 0 0
2017/11/28 16:45:00 BASE 1.02 101 2.06 105 0.6 93 -0.4 668 1470 979.2 NA 0.0000 9999 12010 0 0 0
2017/11/28 16:46:00 BASE 1.46 124 1.85 129 0.7 93 -0.3 670 1472 979.2 NA 0.0000 9999 11840 0 0 0
2017/11/28 16:47:00 BASE 1.52 130 1.85 129 0.7 93 -0.2 687 1506 979.2 NA 0.0000 9999 11880 0 0 0
2017/11/28 16:48:00 BASE 1.33 125 1.85 129 0.8 93 -0.2 697 1515 979.2 NA 0.0000 9999 12110 0 0 0
2017/11/28 16:49:00 BASE 0.90 117 1.85 129 0.8 93 -0.2 694 1514 979.2 NA 0.0000 9999 0 0 0 0
2017/11/28 16:50:00 BASE 0.48 109 1.85 129 0.8 93 -0.2 698 1514 979.2 NA 0.0000 9999 11810 0 0 0
2017/11/28 16:51:00 BASE 0.24 101 1.85 129 0.8 93 -0.3 693 1514 979.2 NA 0.0000 9999 11840 0 0 0
2017/11/28 16:52:00 BASE 0.05 89 1.85 129 0.7 93 -0.3 695 1514 979.2 NA 0.0000 9999 10830 0 0 0
2017/11/28 16:53:00 BASE 0.00 91 1.85 129 0.7 93 -0.4 694 1514 979.1 NA 0.0000 9999 13850 0 0 0
2017/11/28 16:54:00 BASE 0.05 108 1.85 129 0.7 93 -0.4 683 1495 979.1 NA 0.0000 9999 12210 0 0 0
2017/11/28 16:55:00 BASE 0.05 117 1.85 129 0.7 93 -0.4 675 1480 979.1 NA 0.0000 9999 0 0 0 0
2017/11/28 16:56:00 BASE 0.00 118 1.75 135 0.8 93 -0.2 675 1478 979.1 NA 0.0000 9999 0 0 0 0
2017/11/28 16:57:00 BASE 0.00 103 1.75 135 0.8 93 -0.2 676 1481 979.1 NA 0.0000 9999 0 0 0 0
2017/11/28 16:58:00 BASE 0.00 93 1.34 120 0.8 93 -0.2 671 1471 979.1 NA 0.0000 9999 17780 0 0 0
2017/11/28 16:59:00 BASE 0.00 98 1.29 113 0.8 93 -0.3 685 1499 979.1 NA 0.0000 9999 0 0 0 0
2017/11/28 17:00:00 BASE 0.00 105 1.13 95 0.8 93 -0.3 703 1514 979.1 NA 0.0000 9999 0 0 0 0
2017/11/28 17:01:00 BASE 0.00 123 1.08 120 0.8 93 -0.3 718 1515 979.1 NA 0.0000 9999 0 0 0 0
2017/11/28 17:02:00 BASE 0.40 156 1.65 200 0.7 93 -0.3 732 1514 979.1 NA 0.0000 9999 0 0 0 0
2017/11/28 17:03:00 BASE 1.15 191 1.75 196 0.7 93 -0.3 726 1514 979.1 NA 0.0000 9999 0 0 0 0
2017/11/28 17:04:00 BASE 1.47 206 1.75 196 0.8 93 -0.2 725 1514 979.1 NA 0.0000 9999 0 0 0 0
2017/11/28 17:05:00 BASE 1.45 212 1.75 196 0.7 93 -0.2 732 1514 979.0 NA 0.0000 9999 0 0 0 0
2017/11/28 17:06:00 BASE 1.37 211 1.75 196 0.7 93 -0.2 725 1514 979.1 NA 0.0000 9999 0 0 0 0
2017/11/28 17:07:00 BASE 1.14 215 1.75 196 0.7 94 -0.2 734 1514 979.0 NA 0.0000 9999 22540 0 0 0
2017/11/28 17:08:00 BASE 0.75 222 1.75 196 0.7 94 -0.1 714 1514 979.0 NA 0.0000 9999 12800 0 0 0
2017/11/28 17:09:00 BASE 0.79 237 1.75 228 0.7 94 -0.1 710 1515 979.0 NA 0.0000 9999 0 0 0 0
2017/11/28 17:10:00 BASE 1.15 255 1.95 264 0.7 95 -0.0 709 1514 979.0 NA 0.0000 9999 0 0 0 0
2017/11/28 17:11:00 BASE 1.50 258 2.37 242 0.7 95 -0.0 707 1514 979.0 NA 0.0000 9999 0 0 0 0
2017/11/28 17:12:00 BASE 1.68 254 2.37 242 0.7 95 -0.0 712 1515 978.9 NA 0.0000 9999 0 0 0 0
2017/11/28 17:13:00 BASE 1.58 248 2.37 242 0.6 96 -0.0 694 1514 978.9 NA 0.0000 9999 0 0 0 0
2017/11/28 17:14:00 BASE 1.43 245 2.37 242 0.5 96 -0.0 704 1515 978.9 NA 0.0000 9999 0 0 0 0
2017/11/28 17:15:00 BASE 1.23 245 2.37 242 0.4 97 -0.1 716 1515 978.9 NA 0.0000 9999 18410 0 0 0
2017/11/28 17:16:00 BASE 1.32 241 2.37 242 0.4 97 0.0 713 1514 978.9 NA 0.0000 9999 0 0 0 0
2017/11/28 17:17:00 BASE 1.47 243 2.37 242 0.4 98 0.1 673 1478 978.9 NA 0.0000 9999 0 0 0 0
2017/11/28 17:18:00 BASE 1.31 245 2.37 242 0.4 98 0.1 681 1499 978.9 NA 0.0000 9999 0 0 0 0
2017/11/28 17:19:00 BASE 1.15 235 2.37 242 0.5 98 0.2 631 1402 978.9 NA 0.0000 9999 0 0 0 0
2017/11/28 17:20:00 BASE 1.09 246 2.37 242 0.5 98 0.2 720 1514 978.8 NA 0.0000 9999 0 0 0 0
2017/11/28 17:21:00 BASE 1.26 264 1.90 237 0.5 98 0.3 728 1515 978.8 NA 0.0000 9999 0 0 0 0
2017/11/28 17:22:00 BASE 1.36 263 1.85 239 0.5 98 0.2 711 1514 978.8 NA 0.0000 9999 0 0 0 0
2017/11/28 17:23:00 BASE 1.02 259 1.85 239 0.4 98 0.2 707 1514 978.8 NA 0.0000 9999 0 0 0 0
2017/11/28 17:24:00 BASE 1.05 240 1.85 239 0.3 98 0.1 713 1514 978.8 NA 0.0000 9999 16800 0 0 0
2017/11/28 17:25:00 BASE 1.51 224 1.90 225 0.3 98 -0.0 715 1514 978.8 NA 0.0000 9999 0 0 0 0
2017/11/28 17:26:00 BASE 1.66 224 1.95 226 0.2 98 -0.1 731 1515 978.7 NA 0.0000 9999 0 0 0 0
2017/11/28 17:27:00 BASE 1.41 224 1.95 226 0.2 98 -0.1 728 1514 978.7 NA 0.0000 9999 0 0 0 0
2017/11/28 17:28:00 BASE 1.23 226 1.95 226 0.2 98 -0.1 730 1514 978.7 NA 0.0000 9999 0 0 0 0
2017/11/28 17:29:00 BASE 1.32 219 1.95 226 0.2 98 -0.1 712 1515 978.7 NA 0.0000 9999 0 0 0 0
2017/11/28 17:30:00 BASE 1.06 199 1.95 226 0.2 98 -0.0 696 1514 978.7 NA 0.0000 9999 20080 0 0 0
2017/11/28 17:31:00 BASE 0.86 183 1.95 226 0.2 99 0.0 687 1500 978.7 NA 0.0000 9999 0 0 0 0
2017/11/28 17:32:00 BASE 1.21 183 1.95 226 0.2 99 0.0 700 1514 978.7 NA 0.0000 9999 0 0 0 0
2017/11/28 17:33:00 BASE 1.36 189 1.95 226 0.3 99 0.1 691 1505 978.6 NA 0.0000 9999 0 0 0 0
2017/11/28 17:34:00 BASE 1.35 189 1.95 226 0.3 99 0.1 681 1486 978.6 NA 0.0000 9999 0 0 0 0
2017/11/28 17:35:00 BASE 1.47 181 1.95 226 0.3 99 0.2 673 1474 978.6 NA 0.0000 9999 0 0 0 0
2017/11/28 17:36:00 BASE 1.64 167 2.57 163 0.3 99 0.2 670 1466 978.6 NA 0.0000 9999 11290 0 0 0
2017/11/28 17:37:00 BASE 1.74 159 2.57 163 0.3 99 0.2 680 1485 978.6 NA 0.0000 9999 790 0 0 0
2017/11/28 17:38:00 BASE 1.75 152 2.57 163 0.4 99 0.3 681 1488 978.5 NA 0.0000 9999 790 0 0 0
2017/11/28 17:39:00 BASE 1.65 141 2.57 163 0.6 99 0.5 688 1500 978.5 NA 0.0000 9999 12040 0 0 0
2017/11/28 17:40:00 BASE 1.94 144 2.88 148 0.8 99 0.6 673 1472 978.4 NA 0.0000 9999 11840 0 0 0
2017/11/28 17:41:00 BASE 2.65 152 3.76 152 0.8 98 0.6 672 1470 978.4 NA 0.0000 9999 11680 0 0 0
2017/11/28 17:42:00 BASE 3.22 152 3.76 153 0.9 98 0.6 682 1489 978.4 NA 0.0000 9999 11910 0 0 0
2017/11/28 17:43:00 BASE 3.35 154 3.76 153 0.9 98 0.6 688 1501 978.4 NA 0.0000 9999 12400 0 0 0
2017/11/28 17:44:00 BASE 3.00 160 3.76 153 0.9 97 0.5 682 1490 978.3 NA 0.0000 9999 10730 0 0 0
2017/11/28 17:45:00 BASE 2.80 160 3.76 153 0.8 97 0.4 681 1488 978.4 NA 0.0000 9999 11840 0 0 0
2017/11/28 17:46:00 BASE 2.70 155 3.76 153 0.8 97 0.4 670 1468 978.4 NA 0.0000 9999 12240 0 0 0
2017/11/28 17:47:00 BASE 2.56 156 3.76 153 0.8 97 0.3 657 1441 978.5 NA 0.0000 9999 11980 0 0 0
2017/11/28 17:48:00 BASE 2.69 159 3.76 153 0.7 97 0.3 660 1447 978.5 NA 0.0000 9999 11840 0 0 0
2017/11/28 17:49:00 BASE 2.71 163 3.76 153 0.7 97 0.3 666 1459 978.5 NA 0.0000 9999 12430 0 0 0
2017/11/28 17:50:00 BASE 2.44 155 3.76 153 0.7 97 0.2 668 1464 978.5 NA 0.0000 9999 12430 0 0 0
2017/11/28 17:51:00 BASE 2.39 144 3.76 153 0.7 97 0.3 669 1467 978.5 NA 0.0000 9999 12010 0 0 0
2017/11/28 17:52:00 BASE 2.15 134 3.65 153 0.7 97 0.2 662 1454 978.5 NA 0.0000 9999 12210 0 0 0
2017/11/28 17:53:00 BASE 1.53 122 3.29 139 0.6 97 0.1 679 1486 978.5 NA 0.0000 9999 11580 0 0 0
2017/11/28 17:54:00 BASE 1.05 122 3.29 139 0.6 96 0.1 623 1378 978.5 NA 0.0000 9999 12040 0 0 0
2017/11/28 17:55:00 BASE 1.17 116 3.29 139 0.6 96 0.1 698 1514 978.5 NA 0.0000 9999 10140 10790 0 0
2017/11/28 17:56:00 BASE 1.66 105 3.29 139 0.6 96 0.1 687 1501 978.4 NA 0.0000 9999 12660 0 0 0
2017/11/28 17:57:00 BASE 1.75 111 3.29 139 0.6 96 0.1 676 1479 978.4 NA 0.0000 9999 14340 0 0 0
2017/11/28 17:58:00 BASE 1.66 127 3.29 139 0.7 96 0.2 673 1473 978.4 NA 0.0000 9999 11780 0 0 0
2017/11/28 17:59:00 BASE 1.55 138 3.29 139 0.8 97 0.4 640 1408 978.4 NA 0.0000 9999 2330 0 0 0
2017/11/28 18:00:00 BASE 1.39 143 3.29 139 1.0 96 0.5 634 1394 978.4 NA 0.0000 9999 10010 0 0 0
2017/11/28 18:01:00 BASE 1.37 142 2.26 108 1.1 96 0.5 627 1381 978.4 NA 0.0000 9999 11840 0 0 0
2017/11/28 18:02:00 BASE 1.59 141 2.26 108 1.2 96 0.5 631 1389 978.3 NA 0.0000 9999 12730 0 0 0
2017/11/28 18:03:00 BASE 2.01 142 2.42 142 1.2 95 0.5 630 1386 978.3 NA 0.0000 9999 11840 0 0 0
2017/11/28 18:04:00 BASE 2.24 137 2.62 136 1.1 95 0.4 624 1374 978.3 NA 0.0000 9999 12890 0 0 0
2017/11/28 18:05:00 BASE 2.33 132 2.73 121 1.1 94 0.2 620 1367 978.3 NA 0.0000 9999 12430 0 0 0
2017/11/28 18:06:00 BASE 2.53 131 3.09 129 0.9 94 0.1 609 1347 978.2 NA 0.0000 9999 12530 0 0 0
2017/11/28 18:07:00 BASE 2.87 134 3.45 135 1.0 94 0.1 531 1205 978.2 NA 0.0000 9999 10790 0 0 0
2017/11/28 18:08:00 BASE 2.83 129 3.45 135 1.0 94 0.2 655 1439 978.2 NA 0.0000 9999 10730 0 0 0
2017/11/28 18:09:00 BASE 2.72 116 3.45 135 1.0 94 0.2 656 1439 978.2 NA 0.0000 9999 12630 0 0 0
2017/11/28 18:10:00 BASE 2.20 114 3.45 135 1.0 94 0.1 633 1393 978.2 NA 0.0000 9999 2260 0 0 0
2017/11/28 18:11:00 BASE 1.35 135 3.45 135 1.0 94 0.2 623 1377 978.2 NA 0.0000 9999 10340 0 0 0
2017/11/28 18:12:00 BASE 1.16 171 3.45 135 0.9 94 0.1 637 1403 978.2 NA 0.0000 9999 9320 0 0 0
2017/11/28 18:13:00 BASE 1.23 177 3.45 135 0.8 95 -0.0 644 1416 978.2 NA 0.0000 9999 9780 10860 0 0
2017/11/28 18:14:00 BASE 1.35 147 3.45 135 0.7 95 -0.0 637 1404 978.2 NA 0.0000 9999 11550 0 0 0
2017/11/28 18:15:00 BASE 1.58 134 3.45 135 0.8 95 0.1 589 1313 978.1 NA 0.0000 9999 9250 0 0 0
2017/11/28 18:16:00 BASE 2.02 151 3.45 135 0.8 95 0.1 661 1451 978.1 NA 0.0000 9999 8990 0 0 0
2017/11/28 18:17:00 BASE 2.20 153 3.24 142 0.8 95 0.2 657 1444 978.1 NA 0.0000 9999 2560 0 0 0
2017/11/28 18:18:00 BASE 1.89 148 3.04 107 0.9 95 0.2 632 1395 978.0 NA 0.0000 9999 2360 9220 0 0
2017/11/28 18:19:00 BASE 1.79 157 2.68 171 0.9 95 0.2 502 1144 977.9 NA 0.0000 9999 8760 10340 0 0
2017/11/28 18:20:00 BASE 1.83 154 2.68 171 0.9 95 0.2 584 1302 977.9 NA 0.0000 9999 9120 0 0 0
2017/11/28 18:21:00 BASE 2.00 145 2.68 171 0.9 95 0.2 591 1315 977.9 NA 0.0000 9999 8600 10270 0 0
2017/11/28 18:22:00 BASE 2.21 138 2.68 171 1.0 95 0.2 526 1198 977.9 NA 0.0000 9999 8560 9880 0 0
2017/11/28 18:23:00 BASE 2.43 131 2.88 122 1.1 95 0.4 413 972 977.9 NA 0.0000 9999 8500 9840 0 0
2017/11/28 18:24:00 BASE 2.46 124 2.88 122 1.1 95 0.4 571 1286 977.9 NA 0.0000 9999 8600 8890 9940 0
2017/11/28 18:25:00 BASE 2.45 118 2.93 118 1.1 95 0.3 625 1385 977.9 NA 0.0000 9999 2260 8960 0 0
2017/11/28 18:26:00 BASE 2.47 120 2.93 118 1.0 95 0.2 551 1249 977.9 NA 0.0000 9999 8430 9970 0 0
2017/11/28 18:27:00 BASE 2.46 126 2.98 133 0.9 95 0.1 488 1126 977.9 NA 0.0000 9999 2590 8430 10070 0
2017/11/28 18:28:00 BASE 2.56 126 2.98 133 0.8 95 0.1 579 1298 977.8 NA 0.0000 9999 8170 0 0 0
2017/11/28 18:29:00 BASE 2.37 125 2.98 133 0.8 95 0.1 543 1225 977.9 NA 0.0000 9999 8140 8730 10070 0
2017/11/28 18:30:00 BASE 2.30 129 3.34 129 0.9 95 0.2 506 1154 977.8 NA 0.0000 9999 2660 8730 0 0
2017/11/28 18:31:00 BASE 2.93 132 4.06 126 1.0 95 0.3 533 1201 977.8 NA 0.0000 9999 2820 8100 8730 0
2017/11/28 18:32:00 BASE 3.24 130 4.06 126 1.0 95 0.3 488 1118 977.8 NA 0.0000 9999 8040 8730 9810 0
2017/11/28 18:33:00 BASE 2.96 124 4.06 126 1.0 95 0.3 437 1016 977.8 NA 0.0000 9999 7870 8760 0 0
2017/11/28 18:34:00 BASE 3.14 118 4.06 126 1.0 95 0.2 420 982 977.8 NA 0.0000 9999 7710 8730 9550 0
2017/11/28 18:35:00 BASE 3.24 121 4.06 126 0.9 95 0.2 437 1017 977.8 NA 0.0000 9999 7710 8730 9510 0
2017/11/28 18:36:00 BASE 3.10 132 4.12 136 0.9 95 0.2 458 1059 977.8 NA 0.0000 9999 7640 8830 9810 0
2017/11/28 18:37:00 BASE 3.49 139 4.12 136 1.0 95 0.2 434 1010 977.7 NA 0.0000 9999 7510 8860 9580 0
2017/11/28 18:38:00 BASE 3.79 137 4.12 136 1.0 95 0.3 430 1003 977.7 NA 0.0000 9999 7320 8890 0 0
2017/11/28 18:39:00 BASE 3.79 130 4.32 123 1.1 95 0.3 417 977 977.8 NA 0.0000 9999 7350 8960 0 0
2017/11/28 18:40:00 BASE 3.71 125 4.32 123 1.1 95 0.4 404 951 977.8 NA 0.0000 9999 7250 8860 0 0
2017/11/28 18:41:00 BASE 3.47 130 4.32 123 1.1 95 0.4 402 950 977.8 NA 0.0000 9999 7350 9120 0 0
2017/11/28 18:42:00 BASE 3.45 138 4.32 123 1.1 94 0.3 394 933 977.8 NA 0.0000 9999 10700 0 0 0
2017/11/28 18:43:00 BASE 3.29 144 4.32 123 1.1 94 0.2 390 925 977.8 NA 0.0000 9999 10010 0 0 0
2017/11/28 18:44:00 BASE 2.81 150 4.32 123 1.0 94 0.1 389 926 977.8 NA 0.0000 9999 7190 0 0 0
2017/11/28 18:45:00 BASE 2.55 159 4.32 123 1.0 94 0.0 386 919 977.8 NA 0.0000 9999 5150 0 0 0
2017/11/28 18:46:00 BASE 2.88 159 4.32 123 1.0 94 0.1 394 936 977.8 NA 0.0000 9999 5120 0 0 0
2017/11/28 18:47:00 BASE 3.44 149 4.32 123 1.0 93 0.0 397 942 977.8 NA 0.0000 9999 5090 0 0 0
2017/11/28 18:48:00 BASE 3.44 147 4.32 123 1.0 93 0.1 404 956 977.8 NA 0.0000 9999 5090 0 0 0
2017/11/28 18:49:00 BASE 2.83 145 3.96 144 1.0 93 0.0 402 950 977.8 NA 0.0000 9999 5090 0 0 0
2017/11/28 18:50:00 BASE 2.33 147 3.96 144 0.9 93 -0.0 412 973 977.8 NA 0.0000 9999 7450 0 0 0
2017/11/28 18:51:00 BASE 2.52 156 3.96 144 0.9 93 -0.1 418 984 977.8 NA 0.0000 9999 7480 8990 0 0
2017/11/28 18:52:00 BASE 2.97 166 3.96 144 0.8 93 -0.2 435 1018 977.7 NA 0.0000 9999 9780 0 0 0
2017/11/28 18:53:00 BASE 3.48 174 4.17 174 0.7 93 -0.3 430 1005 977.6 NA 0.0000 9999 5120 0 0 0
2017/11/28 18:54:00 BASE 3.90 174 4.58 176 0.7 93 -0.3 412 968 977.6 NA 0.0000 9999 7550 8830 0 0
2017/11/28 18:55:00 BASE 3.56 171 4.58 176 0.6 93 -0.3 394 931 977.6 NA 0.0000 9999 8790 0 0 0
2017/11/28 18:56:00 BASE 2.87 165 4.58 176 0.6 93 -0.4 387 917 977.7 NA 0.0000 9999 7580 0 0 0
2017/11/28 18:57:00 BASE 2.28 168 4.58 176 0.5 94 -0.4 376 896 977.7 NA 0.0000 9999 7480 8760 0 0
2017/11/28 18:58:00 BASE 2.07 171 4.58 176 0.5 94 -0.3 367 879 977.6 NA 0.0000 9999 8730 0 0 0
2017/11/28 18:59:00 BASE 2.09 162 4.58 176 0.6 94 -0.2 358 862 977.6 NA 0.0000 9999 8690 0 0 0
2017/11/28 19:00:00 BASE 1.88 160 4.58 176 0.7 94 -0.2 346 840 977.6 NA 0.0000 9999 8600 0 0 0
2017/11/28 19:01:00 BASE 1.60 152 4.58 176 0.7 94 -0.1 336 820 977.7 NA 0.0000 9999 7610 8630 0 0
2017/11/28 19:02:00 BASE 1.58 126 4.58 176 0.9 94 0.0 325 798 977.7 NA 0.0000 9999 5220 0 0 0
2017/11/28 19:03:00 BASE 1.88 121 4.58 176 1.1 94 0.2 316 778 977.6 NA 0.0000 9999 5050 0 0 0
2017/11/28 19:04:00 BASE 2.59 129 3.60 179 1.3 92 0.2 310 767 977.5 NA 0.0000 9999 5250 0 0 0
2017/11/28 19:05:00 BASE 2.92 131 3.55 129 1.5 91 0.1 307 759 977.4 NA 0.0000 9999 5120 0 0 0
2017/11/28 19:06:00 BASE 2.52 142 3.55 129 1.7 89 0.0 302 748 977.4 NA 0.0000 9999 5050 0 0 0
2017/11/28 19:07:00 BASE 2.47 165 3.55 129 1.7 87 -0.2 295 734 977.4 NA 0.0000 9999 5150 0 0 0
2017/11/28 19:08:00 BASE 2.61 188 3.55 129 1.6 86 -0.5 287 717 977.3 NA 0.0000 9999 5180 21620 23100 0
2017/11/28 19:09:00 BASE 2.53 194 3.55 129 1.4 86 -0.7 277 696 977.4 NA 0.0000 9999 5120 0 0 0
2017/11/28 19:10:00 BASE 2.51 195 3.55 129 1.1 87 -0.7 266 672 977.4 NA 0.0000 9999 4530 5120 0 0
2017/11/28 19:11:00 BASE 2.52 204 3.55 129 0.8 89 -0.7 256 651 977.4 NA 0.0000 9999 4430 5180 0 0
2017/11/28 19:12:00 BASE 2.61 210 3.55 129 0.6 91 -0.6 247 632 977.4 NA 0.0000 9999 4360 5150 0 0
2017/11/28 19:13:00 BASE 2.68 208 3.55 129 0.5 93 -0.5 241 619 977.4 NA 0.0000 9999 4400 0 0 0
2017/11/28 19:14:00 BASE 2.39 205 3.55 129 0.4 94 -0.4 241 620 977.4 NA 0.0000 9999 4460 0 0 0
2017/11/28 19:15:00 BASE 2.07 194 3.24 190 0.4 95 -0.4 246 630 977.4 NA 0.0000 9999 4430 5020 0 0
2017/11/28 19:16:00 BASE 2.27 185 3.24 190 0.4 95 -0.3 251 639 977.3 NA 0.0000 9999 4400 5020 0 0
2017/11/28 19:17:00 BASE 2.62 178 3.19 175 0.4 96 -0.2 257 649 977.3 NA 0.0000 9999 4230 4860 0 0
2017/11/28 19:18:00 BASE 3.11 169 4.12 169 0.5 96 -0.1 261 655 977.2 NA 0.0000 9999 4990 0 0 0
2017/11/28 19:19:00 BASE 3.98 164 5.09 165 0.6 96 -0.0 262 655 977.1 NA 0.0000 9999 7510 0 0 0
2017/11/28 19:20:00 BASE 4.57 162 5.09 165 0.7 96 0.1 260 651 977.1 NA 0.0000 9999 6040 0 0 0
2017/11/28 19:21:00 BASE 4.64 158 5.09 165 0.8 95 0.1 257 643 977.1 NA 0.0000 9999 5910 0 0 0
2017/11/28 19:22:00 BASE 4.43 149 5.09 165 0.9 95 0.1 251 631 977.2 NA 0.0000 9999 5840 0 0 0
2017/11/28 19:23:00 BASE 4.07 144 5.09 165 1.0 94 0.2 244 618 977.2 NA 0.0000 9999 5810 0 0 0
2017/11/28 19:24:00 BASE 3.65 143 5.09 165 1.0 94 0.2 235 599 977.2 NA 0.0000 9999 5640 0 0 0
2017/11/28 19:25:00 BASE 3.26 142 5.09 165 1.1 93 0.2 224 577 977.3 NA 0.0000 9999 4170 0 0 0
2017/11/28 19:26:00 BASE 2.70 140 5.09 165 1.2 93 0.2 215 559 977.3 NA 0.0000 9999 4230 0 0 0
2017/11/28 19:27:00 BASE 2.16 129 5.09 165 1.2 92 0.1 208 546 977.3 NA 0.0000 9999 4040 0 0 0
2017/11/28 19:28:00 BASE 2.08 121 5.09 165 1.2 92 0.0 209 548 977.3 NA 0.0000 9999 4100 0 0 0
2017/11/28 19:29:00 BASE 2.42 128 4.99 153 1.2 91 -0.1 214 558 977.2 NA 0.0000 9999 3810 0 0 0
2017/11/28 19:30:00 BASE 2.84 136 4.99 153 1.2 91 -0.2 217 565 977.2 NA 0.0000 9999 3710 0 0 0
2017/11/28 19:31:00 BASE 2.95 132 4.68 149 1.1 91 -0.2 219 568 977.2 NA 0.0000 9999 3770 0 0 0
2017/11/28 19:32:00 BASE 2.88 123 4.37 146 1.1 91 -0.3 220 570 977.2 NA 0.0000 9999 3670 0 0 0
2017/11/28 19:33:00 BASE 3.04 123 3.76 133 1.1 91 -0.2 222 575 977.1 NA 0.0000 9999 3640 0 0 0
2017/11/28 19:34:00 BASE 3.32 126 3.55 144 1.1 90 -0.3 222 574 977.0 NA 0.0000 9999 3670 0 0 0
2017/11/28 19:35:00 BASE 2.97 128 3.50 124 1.1 90 -0.3 221 572 977.0 NA 0.0000 9999 3670 0 0 0
2017/11/28 19:36:00 BASE 2.18 120 3.50 124 1.2 90 -0.3 222 573 977.0 NA 0.0000 9999 5020 0 0 0
2017/11/28 19:37:00 BASE 2.22 114 3.50 124 1.2 90 -0.3 221 571 976.9 NA 0.0000 9999 4990 0 0 0
2017/11/28 19:38:00 BASE 3.06 125 3.81 135 1.3 90 -0.3 221 571 976.8 NA 0.0000 9999 6430 0 0 0
2017/11/28 19:39:00 BASE 4.08 135 5.61 135 1.3 89 -0.3 222 572 976.7 NA 0.0000 9999 5090 0 0 0
2017/11/28 19:40:00 BASE 4.65 141 5.61 135 1.3 89 -0.3 222 574 976.7 NA 0.0000 9999 5180 0 0 0
2017/11/28 19:41:00 BASE 4.51 152 5.61 135 1.3 88 -0.4 221 570 976.6 NA 0.0000 9999 5150 22540 0 0
2017/11/28 19:42:00 BASE 4.24 153 5.61 135 1.3 88 -0.5 220 568 976.6 NA 0.0000 9999 5180 0 0 0
2017/11/28 19:43:00 BASE 4.38 142 5.66 134 1.3 88 -0.5 221 571 976.6 NA 0.0000 9999 5350 0 0 0
2017/11/28 19:44:00 BASE 4.45 133 5.66 134 1.4 88 -0.5 225 577 976.6 NA 0.0000 9999 5380 0 0 0
2017/11/28 19:45:00 BASE 3.14 113 5.66 134 1.3 87 -0.5 227 583 976.6 NA 0.0000 9999 5510 0 0 0
2017/11/28 19:46:00 BASE 1.95 121 5.66 134 1.3 87 -0.5 226 580 976.6 NA 0.0000 9999 3640 0 0 0
2017/11/28 19:47:00 BASE 2.49 133 5.66 134 1.4 87 -0.6 222 569 976.5 NA 0.0000 9999 3410 23230 0 0
2017/11/28 19:48:00 BASE 1.73 95 5.66 134 1.4 86 -0.6 215 555 976.6 NA 0.0000 9999 3510 0 0 0
2017/11/28 19:49:00 BASE 1.09 122 5.66 134 1.5 86 -0.7 206 535 976.6 NA 0.0000 9999 3510 5450 0 0
2017/11/28 19:50:00 BASE 1.71 136 5.66 134 1.5 85 -0.8 194 509 976.6 NA 0.0000 9999 3510 0 0 0
2017/11/28 19:51:00 BASE 1.34 125 5.66 134 1.5 84 -0.9 188 497 976.6 NA 0.0000 9999 3450 0 0 0
2017/11/28 19:52:00 BASE 1.48 118 5.66 134 1.5 84 -0.9 185 490 976.6 NA 0.0000 9999 3410 0 0 0
2017/11/28 19:53:00 BASE 1.68 119 5.50 134 1.5 83 -1.1 183 485 976.6 NA 0.0000 9999 3540 5180 22020 0
2017/11/28 19:54:00 BASE 1.64 116 4.12 130 1.4 83 -1.2 184 486 976.5 NA 0.0000 9999 5410 0 0 0
2017/11/28 19:55:00 BASE 2.27 123 4.22 138 1.3 83 -1.2 185 488 976.4 NA 0.0000 9999 5450 0 0 0
2017/11/28 19:56:00 BASE 3.31 136 4.37 143 1.3 83 -1.2 189 494 976.3 NA 0.0000 9999 5350 0 0 0
2017/11/28 19:57:00 BASE 3.55 144 4.37 143 1.3 84 -1.1 194 504 976.2 NA 0.0000 9999 5280 0 0 0
2017/11/28 19:58:00 BASE 3.47 145 4.37 143 1.3 84 -1.1 197 511 976.2 NA 0.0000 9999 2950 6760 0 0
2017/11/28 19:59:00 BASE 3.52 139 4.37 143 1.4 85 -0.9 207 532 976.2 NA 0.0000 9999 3050 0 0 0
2017/11/28 20:00:00 BASE 3.31 135 4.37 143 1.5 85 -0.7 217 551 976.2 NA 0.0000 9999 6690 0 0 0
2017/11/28 20:01:00 BASE 3.13 131 4.37 143 1.6 85 -0.7 218 554 976.2 NA 0.0000 9999 6820 0 0 0
2017/11/28 20:02:00 BASE 3.26 122 4.37 143 1.5 85 -0.7 215 547 976.2 NA 0.0000 9999 6820 0 0 0
2017/11/28 20:03:00 BASE 3.31 116 4.37 143 1.5 85 -0.7 210 536 976.2 NA 0.0000 9999 5540 0 0 0
2017/11/28 20:04:00 BASE 2.74 121 4.37 143 1.5 85 -0.8 206 527 976.2 NA 0.0000 9999 5450 0 0 0
2017/11/28 20:05:00 BASE 1.90 120 4.37 143 1.5 85 -0.7 202 516 976.2 NA 0.0000 9999 3970 0 0 0
2017/11/28 20:06:00 BASE 1.82 96 4.12 138 1.5 85 -0.8 197 503 976.2 NA 0.0000 9999 6370 0 0 0
2017/11/28 20:07:00 BASE 2.65 83 4.12 138 1.5 85 -0.8 191 489 976.2 NA 0.0000 9999 6370 0 0 0
2017/11/28 20:08:00 BASE 3.37 87 4.01 81 1.6 84 -0.8 181 468 976.1 NA 0.0000 9999 5970 0 0 0
2017/11/28 20:09:00 BASE 3.70 95 4.22 100 1.7 84 -0.8 173 449 976.0 NA 0.0000 9999 5770 0 0 0
2017/11/28 20:10:00 BASE 4.18 104 5.25 99 1.7 82 -1.0 168 440 976.0 NA 0.0000 9999 6140 0 0 0
2017/11/28 20:11:00 BASE 4.98 107 5.81 107 1.7 81 -1.2 167 438 976.0 NA 0.0000 9999 5810 0 0 0
2017/11/28 20:12:00 BASE 5.38 101 6.22 92 1.8 80 -1.3 166 438 976.0 NA 0.0000 9999 22570 24050 0 0
2017/11/28 20:13:00 BASE 4.65 97 6.22 92 1.9 78 -1.5 164 433 976.0 NA 0.0000 9999 5970 0 0 0
2017/11/28 20:14:00 BASE 4.02 96 6.22 92 1.9 77 -1.7 160 425 976.0 NA 0.0000 9999 4920 0 0 0
2017/11/28 20:15:00 BASE 4.31 100 6.22 92 1.9 76 -1.8 156 417 976.0 NA 0.0000 9999 22280 0 0 0
2017/11/28 20:16:00 BASE 5.11 101 6.69 98 2.0 76 -1.9 152 408 975.9 NA 0.0000 9999 5250 0 0 0
2017/11/28 20:17:00 BASE 5.08 101 6.69 98 2.0 75 -1.9 147 395 975.9 NA 0.0000 9999 5220 0 0 0
2017/11/28 20:18:00 BASE 4.06 104 6.69 98 2.1 75 -2.0 140 379 975.9 NA 0.0000 9999 4630 0 0 0
2017/11/28 20:19:00 BASE 4.05 102 6.69 98 2.1 74 -2.0 134 367 975.9 NA 0.0000 9999 4860 0 0 0
2017/11/28 20:20:00 BASE 5.00 103 7.46 106 2.1 74 -2.0 135 368 975.8 NA 0.0000 9999 5050 0 0 0
2017/11/28 20:21:00 BASE 6.35 108 7.61 107 2.1 74 -2.1 141 381 975.7 NA 0.0000 9999 5120 0 0 0
2017/11/28 20:22:00 BASE 5.95 111 7.61 107 2.1 73 -2.2 145 392 975.8 NA 0.0000 9999 5120 0 0 0
2017/11/28 20:23:00 BASE 4.69 107 7.61 107 2.1 73 -2.2 147 397 975.8 NA 0.0000 9999 5710 0 0 0
2017/11/28 20:24:00 BASE 4.34 100 7.61 107 2.1 73 -2.2 145 392 975.8 NA 0.0000 9999 5580 0 0 0
2017/11/28 20:25:00 BASE 3.82 102 7.61 107 2.1 72 -2.3 141 382 975.8 NA 0.0000 9999 5680 0 0 0
2017/11/28 20:26:00 BASE 3.44 105 7.61 107 2.1 72 -2.3 137 371 975.7 NA 0.0000 9999 5250 0 0 0
2017/11/28 20:27:00 BASE 3.68 100 7.61 107 2.2 73 -2.2 131 358 975.6 NA 0.0000 9999 5380 0 0 0
2017/11/28 20:28:00 BASE 3.79 82 7.61 107 2.3 73 -2.1 125 344 975.6 NA 0.0000 9999 5120 0 0 0
2017/11/28 20:29:00 BASE 3.30 78 7.61 107 2.4 74 -1.8 118 327 975.6 NA 0.0000 9999 5280 0 0 0
2017/11/28 20:30:00 BASE 2.74 77 7.61 107 2.6 74 -1.5 114 317 975.6 NA 0.0000 9999 5220 0 0 0
2017/11/28 20:31:00 BASE 2.24 69 5.71 115 2.8 75 -1.3 115 318 975.6 NA 0.0000 9999 5150 0 0 0
2017/11/28 20:32:00 BASE 1.99 67 5.35 98 3.0 75 -1.1 117 322 975.5 NA 0.0000 9999 5090 0 0 0
2017/11/28 20:33:00 BASE 1.63 75 5.35 98 3.1 75 -1.0 117 323 975.4 NA 0.0000 9999 5380 0 0 0
2017/11/28 20:34:00 BASE 1.36 93 4.27 107 3.0 74 -1.1 115 317 975.4 NA 0.0000 9999 5480 0 0 0
2017/11/28 20:35:00 BASE 1.12 101 4.27 107 2.9 74 -1.3 111 310 975.4 NA 0.0000 9999 5640 0 0 0
2017/11/28 20:36:00 BASE 0.40 97 4.27 107 2.8 74 -1.4 109 304 975.3 NA 0.0000 9999 5680 0 0 0
2017/11/28 20:37:00 BASE 0.17 124 4.01 68 2.7 74 -1.5 107 300 975.3 NA 0.0000 9999 5480 0 0 0
2017/11/28 20:38:00 BASE 0.77 151 3.40 80 2.6 74 -1.6 106 296 975.2 NA 0.0000 9999 5540 0 0 0
2017/11/28 20:39:00 BASE 1.33 147 3.24 82 2.6 74 -1.5 106 297 975.2 NA 0.0000 9999 5610 0 0 0
2017/11/28 20:40:00 BASE 1.74 155 2.88 64 2.7 75 -1.4 108 301 975.2 NA 0.0000 9999 5640 22840 0 0
2017/11/28 20:41:00 BASE 2.74 156 3.86 143 2.7 75 -1.4 109 303 975.1 NA 0.0000 9999 5680 0 0 0
2017/11/28 20:42:00 BASE 3.57 140 3.91 125 2.7 75 -1.4 108 300 975.2 NA 0.0000 9999 5540 0 0 0
2017/11/28 20:43:00 BASE 3.77 131 4.01 134 2.7 75 -1.4 105 293 975.1 NA 0.0000 9999 5580 0 0 0
2017/11/28 20:44:00 BASE 3.66 125 4.01 134 2.6 74 -1.5 101 283 975.1 NA 0.0000 9999 5610 0 0 0
2017/11/28 20:45:00 BASE 3.19 120 4.01 134 2.6 74 -1.6 95 270 975.2 NA 0.0000 9999 5610 0 0 0
2017/11/28 20:46:00 BASE 3.20 118 4.06 130 2.5 74 -1.6 89 254 975.2 NA 0.0000 9999 5640 0 0 0
2017/11/28 20:47:00 BASE 4.05 113 6.48 92 2.5 74 -1.6 84 243 975.2 NA 0.0000 9999 5350 0 0 0
2017/11/28 20:48:00 BASE 4.28 94 6.48 92 2.5 75 -1.5 82 239 975.2 NA 0.0000 9999 5250 0 0 0
2017/11/28 20:49:00 BASE 3.98 80 6.48 92 2.6 76 -1.3 81 237 975.2 NA 0.0000 9999 5280 0 0 0
2017/11/28 20:50:00 BASE 3.75 80 6.48 92 2.6 77 -1.0 80 236 975.2 NA 0.0000 9999 5350 0 0 0
2017/11/28 20:51:00 BASE 3.24 100 6.48 92 2.6 78 -0.8 80 234 975.1 NA 0.0000 9999 5410 0 0 0
2017/11/28 20:52:00 BASE 3.29 112 6.48 92 2.6 78 -0.8 78 230 975.1 NA 0.0000 9999 5410 0 0 0
2017/11/28 20:53:00 BASE 3.74 92 6.48 92 2.6 78 -0.8 76 227 975.0 NA 0.0000 9999 5740 0 0 0
2017/11/28 20:54:00 BASE 3.74 60 6.48 92 2.7 78 -0.7 76 227 975.0 NA 0.0000 9999 5610 0 0 0
2017/11/28 20:55:00 BASE 4.53 41 6.84 37 2.9 78 -0.6 77 229 975.0 NA 0.0000 9999 5610 0 0 0
2017/11/28 20:56:00 BASE 5.73 51 7.31 67 3.1 77 -0.4 78 232 975.0 NA 0.0000 9999 5540 0 0 0
2017/11/28 20:57:00 BASE 5.23 74 7.31 67 3.3 77 -0.4 79 233 975.1 NA 0.0000 9999 5710 0 0 0
2017/11/28 20:58:00 BASE 4.26 76 7.31 67 3.4 76 -0.4 78 231 975.0 NA 0.0000 9999 5610 0 0 0
2017/11/28 20:59:00 BASE 4.90 59 7.31 67 3.5 76 -0.4 77 227 974.9 NA 0.0000 9999 5610 0 0 0
2017/11/28 21:00:00 BASE 5.80 46 7.77 34 3.6 75 -0.4 76 223 974.8 NA 0.0000 9999 0 0 0 2760
2017/11/28 21:01:00 BASE 6.75 40 9.26 32 3.6 75 -0.5 75 219 974.7 NA 0.0000 9999 5870 0 0 0
2017/11/28 21:02:00 BASE 7.35 37 9.26 32 3.7 75 -0.4 74 219 974.7 NA 0.0000 9999 6560 0 0 0
2017/11/28 21:03:00 BASE 6.63 36 9.26 32 3.9 75 -0.2 74 216 974.6 NA 0.0000 9999 6860 0 0 0
2017/11/28 21:04:00 BASE 6.89 34 9.26 32 4.0 74 -0.2 72 212 974.6 NA 0.0000 9999 6270 0 0 0
2017/11/28 21:05:00 BASE 7.49 32 9.26 32 4.0 74 -0.2 71 208 974.6 NA 0.0000 9999 5280 0 0 0
2017/11/28 21:06:00 BASE 7.75 32 9.26 35 4.0 74 -0.2 70 206 974.6 NA 0.0000 9999 5970 0 0 0
2017/11/28 21:07:00 BASE 7.60 30 9.26 35 4.1 74 -0.2 69 204 974.6 NA 0.0000 9999 6660 0 0 0
2017/11/28 21:08:00 BASE 6.93 27 9.26 35 4.1 74 -0.1 68 201 974.5 NA 0.0000 9999 6040 0 0 0
2017/11/28 21:09:00 BASE 6.39 22 9.26 35 4.1 74 -0.1 68 200 974.5 NA 0.0000 9999 0 0 0 1900
2017/11/28 21:10:00 BASE 5.62 20 9.26 35 4.1 75 -0.0 67 198 974.5 NA 0.0000 9999 0 0 0 1970
2017/11/28 21:11:00 BASE 4.54 20 9.26 35 4.0 75 -0.0 66 196 974.5 NA 0.0000 9999 0 0 0 2030
2017/11/28 21:12:00 BASE 4.31 20 9.26 35 4.0 76 0.0 65 194 974.5 NA 0.0000 9999 0 0 0 6370
2017/11/28 21:13:00 BASE 4.54 18 9.26 35 3.9 76 0.1 63 190 974.5 NA 0.0000 9999 2130 0 0 0
2017/11/28 21:14:00 BASE 4.09 13 9.26 35 3.8 77 0.1 61 184 974.5 NA 0.0000 9999 2460 0 0 0
2017/11/28 21:15:00 BASE 4.02 12 9.26 35 3.8 77 0.2 59 176 974.5 NA 0.0000 9999 3350 0 0 0
2017/11/28 21:16:00 BASE 3.99 17 8.49 25 3.8 78 0.2 56 170 974.5 NA 0.0000 9999 0 0 0 6200
2017/11/28 21:17:00 BASE 3.30 21 8.44 30 3.8 78 0.3 55 166 974.4 NA 0.0000 9999 0 0 0 6230
2017/11/28 21:18:00 BASE 3.19 11 7.82 29 3.8 78 0.3 55 167 974.3 NA 0.0000 9999 0 0 0 5680
2017/11/28 21:19:00 BASE 3.16 3 6.48 28 3.8 78 0.3 56 169 974.3 NA 0.0000 9999 0 0 0 6200
2017/11/28 21:20:00 BASE 2.59 359 5.92 25 3.8 78 0.3 58 172 974.2 NA 0.0000 9999 3220 0 0 0
2017/11/28 21:21:00 BASE 2.23 357 5.92 25 3.8 78 0.3 60 177 974.2 NA 0.0000 9999 0 0 0 5410
2017/11/28 21:22:00 BASE 2.05 0 5.61 27 3.8 78 0.2 63 184 974.2 NA 0.0000 9999 0 0 0 4590
2017/11/28 21:23:00 BASE 2.11 352 5.61 27 3.8 78 0.3 66 192 974.1 NA 0.0000 9999 0 0 0 3080
2017/11/28 21:24:00 BASE 1.54 340 5.61 27 3.8 78 0.3 69 200 974.1 NA 0.0000 9999 0 0 0 2620
2017/11/28 21:25:00 BASE 0.84 324 4.89 23 3.8 78 0.3 70 204 974.1 NA 0.0000 9999 2130 0 0 0
2017/11/28 21:26:00 BASE 0.53 329 4.37 3 3.8 78 0.3 69 202 974.1 NA 0.0000 9999 0 0 0 2560
2017/11/28 21:27:00 BASE 0.25 337 4.37 3 3.8 78 0.3 66 194 974.1 NA 0.0000 9999 0 0 0 6990
2017/11/28 21:28:00 BASE 0.09 11 3.19 303 3.8 78 0.4 62 184 974.1 NA 0.0000 9999 0 0 0 6890
2017/11/28 21:29:00 BASE 0.00 57 3.19 303 3.8 79 0.4 59 175 974.1 NA 0.0000 9999 2070 0 0 0
2017/11/28 21:30:00 BASE 0.16 34 2.83 7 3.7 79 0.4 56 169 974.1 NA 0.0000 9999 2400 0 0 0
2017/11/28 21:31:00 BASE 0.87 108 2.83 7 3.7 78 0.3 55 166 974.1 NA 0.0000 9999 3840 0 0 0
2017/11/28 21:32:00 BASE 1.16 124 2.83 7 3.5 78 -0.0 55 166 974.1 NA 0.0000 9999 3770 0 0 0
2017/11/28 21:33:00 BASE 1.11 118 3.50 60 3.2 77 -0.4 55 166 974.0 NA 0.0000 9999 3540 0 0 0
2017/11/28 21:34:00 BASE 3.99 60 8.85 23 3.0 77 -0.6 56 168 973.8 NA 0.0000 9999 0 0 0 4270
2017/11/28 21:35:00 BASE 6.54 29 8.85 23 3.0 77 -0.7 56 169 973.7 NA 0.0000 9999 0 0 0 4070
2017/11/28 21:36:00 BASE 6.64 47 8.85 23 3.1 76 -0.7 57 170 973.7 NA 0.0000 9999 0 0 0 4070
2017/11/28 21:37:00 BASE 5.81 72 8.85 23 3.2 76 -0.7 57 171 973.6 NA 0.0000 9999 0 0 0 4130
2017/11/28 21:38:00 BASE 5.71 85 8.85 23 3.4 75 -0.5 58 172 973.6 NA 0.0000 9999 2790 0 0 0
2017/11/28 21:39:00 BASE 6.54 103 8.85 23 3.5 74 -0.7 58 173 973.5 NA 0.0000 9999 2920 0 0 0
2017/11/28 21:40:00 BASE 5.98 121 8.85 23 3.3 73 -1.0 58 173 973.5 NA 0.0000 9999 3050 0 0 0
2017/11/28 21:41:00 BASE 5.50 123 8.85 23 3.0 73 -1.3 57 172 973.5 NA 0.0000 9999 3280 0 0 0
2017/11/28 21:42:00 BASE 5.22 120 8.85 23 2.8 73 -1.5 57 170 973.4 NA 0.0000 9999 4530 0 0 0
2017/11/28 21:43:00 BASE 4.49 119 8.85 23 2.6 74 -1.6 55 166 973.4 NA 0.0000 9999 5910 0 0 0
2017/11/28 21:44:00 BASE 3.83 108 7.97 57 2.5 74 -1.7 54 163 973.5 NA 0.0000 9999 6270 0 0 0
2017/11/28 21:45:00 BASE 3.51 102 7.97 57 2.4 75 -1.6 54 162 973.4 NA 0.0000 9999 5970 0 0 0
2017/11/28 21:46:00 BASE 3.38 108 7.61 121 2.4 75 -1.6 54 162 973.4 NA 0.0000 9999 5870 0 0 0
2017/11/28 21:47:00 BASE 3.62 115 7.61 121 2.3 76 -1.5 55 165 973.3 NA 0.0000 9999 6040 0 0 0
2017/11/28 21:48:00 BASE 4.30 113 7.61 121 2.3 76 -1.4 56 169 973.3 NA 0.0000 9999 5970 0 0 0
2017/11/28 21:49:00 BASE 4.62 108 6.07 116 2.3 76 -1.4 57 170 973.3 NA 0.0000 9999 6040 0 0 0
2017/11/28 21:50:00 BASE 4.69 104 6.07 116 2.3 77 -1.4 57 170 973.2 NA 0.0000 9999 5680 0 0 0
2017/11/28 21:51:00 BASE 4.88 105 5.97 98 2.3 77 -1.4 57 170 973.1 NA 0.0000 9999 5610 0 0 0
2017/11/28 21:52:00 BASE 4.76 111 5.97 98 2.3 77 -1.4 57 170 973.0 NA 0.0000 9999 5540 0 0 0
2017/11/28 21:53:00 BASE 4.37 117 5.97 98 2.3 77 -1.3 57 170 973.0 NA 0.0000 9999 5380 0 0 0
2017/11/28 21:54:00 BASE 4.47 110 5.97 98 2.3 77 -1.3 57 170 972.9 NA 0.0000 9999 5740 0 0 0
2017/11/28 21:55:00 BASE 4.88 101 5.97 98 2.2 78 -1.2 57 170 972.9 NA 0.0000 9999 5840 0 0 0
2017/11/28 21:56:00 BASE 4.79 94 5.97 98 2.2 78 -1.2 58 172 972.9 NA 0.0000 9999 6070 20870 0 0
2017/11/28 21:57:00 BASE 4.23 95 5.97 98 2.2 78 -1.1 58 172 972.8 NA 0.0000 9999 6200 0 0 0
2017/11/28 21:58:00 BASE 4.05 107 5.97 98 2.2 78 -1.2 58 171 972.7 NA 0.0000 9999 6200 0 0 0
2017/11/28 21:59:00 BASE 4.81 114 6.53 118 2.3 78 -1.2 58 168 972.6 NA 0.0000 9999 6230 0 0 0
2017/11/28 22:00:00 BASE 5.76 117 6.79 117 2.3 78 -1.2 57 166 972.5 NA 0.0000 9999 4300 0 0 0
2017/11/28 22:01:00 BASE 5.96 114 6.79 117 2.2 78 -1.2 55 160 972.6 NA 0.0000 9999 6500 0 0 0
2017/11/28 22:02:00 BASE 5.31 109 6.79 117 2.2 78 -1.2 52 153 972.6 NA 0.0000 9999 5640 0 0 0
2017/11/28 22:03:00 BASE 5.40 110 7.00 108 2.2 79 -1.2 50 147 972.5 NA 0.0000 9999 5910 0 0 0
2017/11/28 22:04:00 BASE 6.19 110 7.15 109 2.2 79 -1.1 48 142 972.4 NA 0.0000 9999 5740 0 0 0
2017/11/28 22:05:00 BASE 6.28 109 7.15 109 2.1 79 -1.1 46 137 972.4 NA 0.0000 9999 5680 0 0 0
2017/11/28 22:06:00 BASE 6.10 107 7.15 109 2.1 79 -1.1 45 134 972.4 NA 0.0000 9999 5970 0 0 0
2017/11/28 22:07:00 BASE 6.58 100 7.61 98 2.1 79 -1.2 44 131 972.4 NA 0.0000 9999 6170 0 0 0
2017/11/28 22:08:00 BASE 6.08 105 7.61 98 2.1 79 -1.2 44 131 972.3 NA 0.0000 9999 5610 0 0 0
2017/11/28 22:09:00 BASE 4.83 109 7.61 98 2.1 79 -1.2 44 132 972.2 NA 0.0000 9999 4690 0 0 0
2017/11/28 22:10:00 BASE 5.21 101 7.61 98 2.1 79 -1.1 44 131 972.3 NA 0.0000 9999 3220 0 0 0
2017/11/28 22:11:00 BASE 5.69 102 7.61 98 2.1 79 -1.2 44 130 972.1 NA 0.0000 9999 3120 0 0 0
2017/11/28 22:12:00 BASE 5.30 109 7.61 98 2.1 79 -1.2 44 131 972.1 NA 0.0000 9999 4590 0 0 0
2017/11/28 22:13:00 BASE 5.12 106 7.61 98 2.1 79 -1.2 44 130 972.1 NA 0.0000 9999 5450 0 0 0
2017/11/28 22:14:00 BASE 4.96 107 7.61 98 2.1 79 -1.2 43 129 972.1 NA 0.0000 9999 5510 0 0 0
2017/11/28 22:15:00 BASE 5.13 107 7.61 98 2.0 79 -1.2 43 128 972.1 NA 0.0000 9999 5250 0 0 0
2017/11/28 22:16:00 BASE 5.71 102 7.61 98 2.0 80 -1.1 42 126 972.1 NA 0.0000 9999 4590 0 0 0
2017/11/28 22:17:00 BASE 6.42 98 7.56 103 2.1 79 -1.1 42 124 972.0 NA 0.0000 9999 4530 0 0 0
2017/11/28 22:18:00 BASE 6.68 98 7.56 103 2.2 79 -1.1 41 121 971.9 NA 0.0000 9999 4330 0 0 0
2017/11/28 22:19:00 BASE 6.16 102 7.56 103 2.3 78 -1.1 40 119 971.8 NA 0.0000 9999 4130 0 0 0
2017/11/28 22:20:00 BASE 6.03 98 7.56 103 2.4 77 -1.2 39 116 971.8 NA 0.0000 9999 4860 0 0 0
2017/11/28 22:21:00 BASE 5.53 98 7.56 103 2.4 76 -1.3 37 111 971.8 NA 0.0000 9999 4490 0 0 0
2017/11/28 22:22:00 BASE 5.03 104 7.56 103 2.5 76 -1.4 36 108 971.7 NA 0.0000 9999 4200 0 0 0
2017/11/28 22:23:00 BASE 5.58 101 7.56 103 2.5 76 -1.4 34 104 971.7 NA 0.0000 9999 4100 0 0 0
2017/11/28 22:24:00 BASE 5.79 96 7.56 103 2.5 76 -1.4 33 100 971.7 NA 0.0000 9999 4130 0 0 0
2017/11/28 22:25:00 BASE 5.90 97 7.56 103 2.5 76 -1.4 31 97 971.6 NA 0.0000 9999 4000 0 0 0
2017/11/28 22:26:00 BASE 6.00 102 7.56 103 2.5 76 -1.4 30 94 971.6 NA 0.0000 9999 3740 0 0 0
2017/11/28 22:27:00 BASE 5.57 102 7.25 99 2.5 76 -1.3 30 92 971.6 NA 0.0000 9999 3870 0 0 0
2017/11/28 22:28:00 BASE 5.76 78 10.03 70 2.5 76 -1.3 30 92 971.5 NA 0.0000 9999 3740 0 0 0
2017/11/28 22:29:00 BASE 7.27 77 10.03 70 2.6 76 -1.3 30 93 971.3 NA 0.0000 9999 3220 0 0 0
2017/11/28 22:30:00 BASE 7.21 106 10.03 70 2.7 75 -1.3 31 95 971.1 NA 0.0000 9999 0 0 0 3580
2017/11/28 22:31:00 BASE 4.73 116 10.03 70 2.7 75 -1.3 31 94 971.2 NA 0.0000 9999 0 0 0 3670
2017/11/28 22:32:00 BASE 4.35 94 10.03 70 2.8 75 -1.2 30 91 971.3 NA 0.0000 9999 3380 0 0 0
2017/11/28 22:33:00 BASE 6.03 88 10.03 70 2.9 74 -1.2 28 86 971.3 NA 0.0000 9999 3450 0 0 0
2017/11/28 22:34:00 BASE 6.02 104 10.03 70 2.9 74 -1.3 27 84 971.2 NA 0.0000 9999 3120 0 0 0
2017/11/28 22:35:00 BASE 5.24 97 10.03 70 2.8 75 -1.3 27 83 971.4 NA 0.0000 9999 3050 0 0 0
2017/11/28 22:36:00 BASE 5.45 84 10.03 70 2.8 75 -1.2 26 82 971.6 NA 0.0000 9999 0 0 0 3610
2017/11/28 22:37:00 BASE 5.49 88 10.03 70 2.7 76 -1.2 26 82 971.3 NA 0.0000 9999 0 0 0 3180
2017/11/28 22:38:00 BASE 4.74 111 9.72 104 2.5 76 -1.2 29 88 971.1 NA 0.0000 9999 0 0 0 2460
2017/11/28 22:39:00 BASE 4.20 131 7.97 95 2.4 77 -1.1 30 92 970.9 NA 0.0000 7000 0 0 0 2850
2017/11/28 22:40:00 BASE 4.58 110 7.97 95 2.4 78 -1.0 31 94 971.1 NA 0.0000 HZ 1900 0 0 0 2920
2017/11/28 22:41:00 BASE 6.29 91 9.21 95 2.4 79 -0.9 29 90 970.8 NA 0.0000 UP 1300 0 0 0 2850
2017/11/28 22:42:00 BASE 7.12 91 9.21 95 2.5 79 -0.7 28 88 970.9 NA 0.0000 UP 1100 0 0 0 2490
2017/11/28 22:43:00 BASE 7.51 76 9.41 77 2.6 79 -0.6 27 84 971.0 NA 0.0000 UP 0900 0 0 0 3050
2017/11/28 22:44:00 BASE 8.12 78 9.41 77 2.7 79 -0.6 26 82 970.9 NA 0.0000 UP 1000 0 0 0 2950
2017/11/28 22:45:00 BASE 8.79 83 10.55 87 2.7 79 -0.6 25 81 970.9 NA 0.0000 UP 1200 0 0 0 2760
2017/11/28 22:46:00 BASE 8.63 87 10.55 87 2.7 79 -0.6 26 82 970.7 NA 0.0000 UP 1100 0 0 0 2660
2017/11/28 22:47:00 BASE 7.36 94 10.55 87 2.6 79 -0.7 25 81 970.6 NA 0.0000 UP 1100 0 0 0 2920
2017/11/28 22:48:00 BASE 6.79 83 10.55 87 2.6 79 -0.6 24 77 970.9 NA 0.0000 UP 0900 0 0 0 3280
2017/11/28 22:49:00 BASE 5.92 85 10.55 87 2.6 80 -0.6 23 77 970.7 NA 0.0000 UP 1000 0 0 0 2950
2017/11/28 22:50:00 BASE 5.45 101 10.55 87 2.6 80 -0.5 24 77 970.7 NA 0.0000 UP 1000 0 0 0 3120
2017/11/28 22:51:00 BASE 5.92 100 10.55 87 2.6 80 -0.4 23 75 970.7 NA 0.0000 UP 1100 3050 0 0 0
2017/11/28 22:52:00 BASE 6.41 90 10.55 87 2.6 80 -0.4 23 73 970.8 NA 0.0000 UP 1400 0 0 0 3080
2017/11/28 22:53:00 BASE 6.70 99 10.55 87 2.6 80 -0.5 22 71 970.4 NA 0.0000 UP 1700 0 0 0 2950
2017/11/28 22:54:00 BASE 7.95 117 10.55 87 2.5 80 -0.6 21 68 970.3 NA 0.0000 UP 1600 0 0 0 3120
2017/11/28 22:55:00 BASE 8.91 112 10.03 107 2.4 80 -0.6 20 66 970.4 NA 0.0000 UP 1300 0 0 0 2990
2017/11/28 22:56:00 BASE 8.76 105 10.03 107 2.3 80 -0.7 18 62 970.5 NA 0.0000 UP 1600 0 0 0 3740
2017/11/28 22:57:00 BASE 8.42 108 10.03 107 2.2 80 -0.8 17 59 970.4 NA 0.0000 UP 2000 0 0 0 2990
2017/11/28 22:58:00 BASE 8.00 110 10.03 107 2.1 81 -0.9 16 56 970.4 NA 0.0000 UP 2600 0 0 0 3220
2017/11/28 22:59:00 BASE 8.08 113 10.03 107 2.0 81 -0.9 16 55 970.2 NA 0.0000 UP 3200 0 0 0 3710
2017/11/28 23:00:00 BASE 8.16 115 10.03 107 1.9 81 -0.9 16 55 970.2 NA 0.0000 UP 4000 0 0 0 4100
2017/11/28 23:01:00 BASE 8.53 112 10.03 107 1.9 82 -0.9 15 54 970.1 NA 0.0000 UP 4900 0 0 0 4230
2017/11/28 23:02:00 BASE 8.87 115 10.03 107 1.8 82 -0.9 15 54 970.1 NA 0.0000 UP 5000 3810 0 0 0
2017/11/28 23:03:00 BASE 8.87 114 10.03 107 1.8 82 -0.9 16 54 970.1 NA 0.0000 UP 5000 0 0 0 4300
2017/11/28 23:04:00 BASE 8.46 110 10.03 107 1.8 82 -0.8 16 56 970.0 NA 0.0000 UP 5000 3970 0 0 0
2017/11/28 23:05:00 BASE 8.42 109 10.75 108 1.8 83 -0.8 17 57 969.9 NA 0.0000 UP 6000 4040 0 0 0
2017/11/28 23:06:00 BASE 8.88 108 10.75 108 1.8 83 -0.8 17 59 969.8 NA 0.0000 UP 9999 4100 0 0 0
2017/11/28 23:07:00 BASE 9.05 107 10.75 108 1.8 83 -0.7 18 60 969.8 NA 0.0000 UP 9999 4040 0 0 0
2017/11/28 23:08:00 BASE 9.31 98 10.75 108 1.8 84 -0.6 18 61 970.0 NA 0.0000 UP 9999 4170 0 0 0
2017/11/28 23:09:00 BASE 9.16 93 10.91 107 1.9 84 -0.6 18 62 969.8 NA 0.0000 UP 9999 4100 0 0 0
2017/11/28 23:10:00 BASE 10.44 97 13.53 96 1.9 84 -0.4 18 61 969.5 NA 0.0000 UP 9999 4560 0 0 0
2017/11/28 23:11:00 BASE 12.19 95 14.61 92 2.0 85 -0.4 18 60 969.5 NA 0.0000 UP 9999 6000 0 0 0
2017/11/28 23:12:00 BASE 12.03 90 14.61 92 2.0 85 -0.3 18 59 969.6 NA 0.0000 HZ 9999 5970 0 0 0
2017/11/28 23:13:00 BASE 11.40 93 14.61 92 2.1 85 -0.2 18 59 969.4 NA 0.0000 UP 9999 6040 0 0 0
2017/11/28 23:14:00 BASE 11.15 98 14.61 92 2.1 85 -0.2 17 57 969.4 NA 0.0000 UP 9000 5970 0 0 0
2017/11/28 23:15:00 BASE 10.67 93 14.61 92 2.1 85 -0.2 17 56 969.5 NA 0.0000 UP 9000 5970 0 0 0
2017/11/28 23:16:00 BASE 10.33 87 14.61 92 2.1 85 -0.2 16 54 969.5 NA 0.0000 UP 9999 5940 0 0 0
2017/11/28 23:17:00 BASE 10.54 87 14.61 92 2.1 85 -0.2 16 53 969.5 NA 0.0000 UP 9999 5740 0 0 0
2017/11/28 23:18:00 BASE 9.51 92 14.61 92 2.1 85 -0.1 15 52 969.4 NA 0.0000 UP 9999 5640 0 0 0
2017/11/28 23:19:00 BASE 8.98 99 14.61 92 2.2 85 -0.1 15 51 969.4 NA 0.0000 UP 9999 5580 0 0 0
2017/11/28 23:20:00 BASE 8.87 102 14.61 92 2.2 85 -0.2 15 50 969.3 NA 0.0000 UP 9999 5680 0 0 0
2017/11/28 23:21:00 BASE 8.67 95 13.32 89 2.2 85 -0.2 14 49 969.4 NA 0.0000 UP 9999 5740 0 0 0
2017/11/28 23:22:00 BASE 9.77 89 12.81 93 2.1 85 -0.2 14 47 969.4 NA 0.0000 UP 9999 5740 0 0 0
2017/11/28 23:23:00 BASE 11.42 89 13.17 89 2.1 85 -0.2 13 45 969.2 NA 0.0000 9999 5710 0 0 0
2017/11/28 23:24:00 BASE 11.92 92 13.17 89 2.1 85 -0.2 13 44 969.3 NA 0.0000 9999 5610 0 0 0
2017/11/28 23:25:00 BASE 11.41 96 13.17 89 2.1 85 -0.2 13 44 969.2 NA 0.0000 9999 5540 0 0 0
2017/11/28 23:26:00 BASE 11.37 98 13.17 89 2.1 85 -0.2 13 44 969.1 NA 0.0000 9999 5680 0 0 0
2017/11/28 23:27:00 BASE 10.63 101 13.17 89 2.1 85 -0.2 13 43 969.2 NA 0.0000 9999 4430 5710 0 0
2017/11/28 23:28:00 BASE 10.09 103 13.17 89 2.0 85 -0.2 13 44 969.2 NA 0.0000 9999 5740 0 0 0
2017/11/28 23:29:00 BASE 10.19 103 13.17 89 2.0 85 -0.2 13 45 969.2 NA 0.0000 9999 5680 0 0 0
2017/11/28 23:30:00 BASE 10.00 104 13.17 89 2.0 85 -0.2 14 46 969.1 NA 0.0000 9999 5680 0 0 0
2017/11/28 23:31:00 BASE 8.47 99 13.17 89 2.0 85 -0.3 15 49 969.1 NA 0.0000 9999 5680 0 0 0
2017/11/28 23:32:00 BASE 7.80 102 13.17 89 2.0 85 -0.2 16 50 969.0 NA 0.0000 9999 0 0 0 3480
2017/11/28 23:33:00 BASE 8.03 109 12.76 85 2.1 85 -0.1 16 52 969.0 NA 0.0000 UP 7000 5910 0 0 0
2017/11/28 23:34:00 BASE 7.60 103 12.71 95 2.1 86 -0.1 17 52 969.0 NA 0.0000 UP BR 2300 5940 0 0 0
2017/11/28 23:35:00 BASE 7.67 95 12.24 98 2.2 86 0.1 17 53 969.0 NA 0.0000 UP BR 2300 6040 0 0 0
2017/11/28 23:36:00 BASE 7.53 90 11.83 103 2.3 86 0.2 17 53 969.0 NA 0.0000 UP BR 2300 6140 0 0 0
2017/11/28 23:37:00 BASE 7.04 86 11.83 103 2.4 87 0.4 17 53 969.0 NA 0.0000 UP BR 2300 6230 0 0 0
2017/11/28 23:38:00 BASE 6.75 79 11.16 100 2.6 87 0.6 17 52 968.9 NA 0.0000 UP BR 2300 6330 0 0 0
2017/11/28 23:39:00 BASE 8.21 64 12.14 53 2.9 87 0.9 17 52 968.8 NA 0.0000 UP BR 2300 6430 0 0 0
2017/11/28 23:40:00 BASE 9.98 52 12.14 53 3.2 86 1.2 16 50 968.7 NA 0.0000 UP BR 2300 6500 0 0 0
2017/11/28 23:41:01 BASE 10.91 49 13.84 47 3.6 86 1.4 16 50 968.6 NA 0.0000 UP BR 2300 6500 0 0 0
2017/11/28 23:42:00 BASE 12.51 49 14.92 48 3.8 85 1.5 16 49 968.5 NA 0.0000 UP 2300 6530 0 0 0
2017/11/28 23:43:00 BASE 13.32 50 15.69 47 4.0 84 1.6 16 49 968.5 NA 0.0000 HZ 2700 6530 0 0 0
2017/11/28 23:44:01 BASE 12.81 51 15.69 47 4.1 83 1.5 16 49 968.4 NA 0.0000 HZ 9999 6820 0 0 0
2017/11/28 23:45:00 BASE 12.82 51 15.95 57 4.2 82 1.4 16 49 968.4 NA 0.0000 HZ 9999 6890 0 0 0
2017/11/28 23:46:00 BASE 13.30 51 15.95 57 4.2 82 1.3 16 48 968.4 NA 0.0000 HZ 9999 6730 0 0 0
2017/11/28 23:47:00 BASE 13.69 52 15.95 57 4.2 81 1.2 16 47 968.3 NA 0.0000 HZ 9999 6760 0 0 0
2017/11/28 23:48:00 BASE 13.30 56 15.95 57 4.2 81 1.2 15 47 968.4 NA 0.0000 HZ 9999 6820 0 0 0
2017/11/28 23:49:00 BASE 12.51 58 15.95 57 4.2 80 1.1 15 46 968.3 NA 0.0000 HZ 9999 6890 0 0 0
2017/11/28 23:50:00 BASE 12.82 55 16.51 51 4.2 80 1.0 15 46 968.3 NA 0.0000 HZ 9999 7190 0 0 0
2017/11/28 23:51:00 BASE 12.66 54 16.51 51 4.3 79 0.9 15 45 968.3 NA 0.0000 HZ 9999 7120 0 0 0
2017/11/28 23:52:01 BASE 11.63 56 16.51 51 4.3 78 0.8 15 44 968.3 NA 0.0000 9999 7150 0 0 0
2017/11/28 23:53:01 BASE 10.87 57 16.51 51 4.3 78 0.7 14 43 968.4 NA 0.0000 9999 7050 0 0 0
2017/11/28 23:54:01 BASE 11.45 56 16.51 51 4.3 77 0.6 14 42 968.3 NA 0.0000 9999 7190 0 0 0
2017/11/28 23:55:01 BASE 12.33 56 16.51 51 4.3 77 0.6 14 42 968.3 NA 0.0000 9999 6920 0 0 0
2017/11/28 23:56:01 BASE 12.25 57 16.51 51 4.3 77 0.6 14 41 968.2 NA 0.0000 9999 6960 0 0 0
2017/11/28 23:57:01 BASE 11.79 57 16.51 51 4.3 76 0.5 13 40 968.3 NA 0.0000 9999 6990 0 0 0
2017/11/28 23:58:00 BASE 12.43 51 16.67 43 4.3 76 0.5 13 40 968.0 NA 0.0000 9999 7090 0 0 0
2017/11/28 23:59:01 BASE 13.62 43 16.67 43 4.3 76 0.5 13 39 967.9 NA 0.0000 9999 6990 0 0 0